Provisional Data: Starrucca Creek near Stevens Point, PA


Please select a monitoring station.
Please select start date.
Please select start date.

Toggle Unit: C/F Toggle Unit: C/F
Sample Time Temperature (C) Temperature (F) Specific Conductivity (mS/cm) pH   Turbidity (NTU+) DO (mg/L)
3/23/2021 12:00:00 AM 4.55 40.19 0.063 7.18 3.19 12.65
3/23/2021 12:15:00 AM 4.46 40.028 0.063 7.18 3.17 12.68
3/23/2021 12:30:00 AM 4.37 39.866 0.063 7.18 3.23 12.72
3/23/2021 12:45:00 AM 4.27 39.686 0.063 7.18 3.22 12.75
3/23/2021 1:00:00 AM 4.18 39.524 0.063 7.19 3.08 12.79
3/23/2021 1:15:00 AM 4.09 39.362 0.063 7.19 3.03 12.83
3/23/2021 1:30:00 AM 4.01 39.218 0.063 7.18 3.06 12.86
3/23/2021 1:45:00 AM 3.92 39.056 0.063 7.16 3.02 12.89
3/23/2021 2:00:00 AM 3.84 38.912 0.063 7.17 3.1 12.92
3/23/2021 2:15:00 AM 3.76 38.768 0.063 7.17 3.08 12.96
3/23/2021 2:30:00 AM 3.67 38.606 0.063 7.18 3.05 12.99
3/23/2021 2:45:00 AM 3.6 38.48 0.063 7.18 3.03 13.02
3/23/2021 3:00:00 AM 3.52 38.336 0.064 7.18 2.85 13.05
3/23/2021 3:15:00 AM 3.45 38.21 0.064 7.18 2.95 13.08
3/23/2021 3:30:00 AM 3.38 38.084 0.064 7.17 2.85 13.1
3/23/2021 3:45:00 AM 3.31 37.958 0.064 7.18 2.85 13.13
3/23/2021 4:00:00 AM 3.24 37.832 0.063 7.18 2.75 13.16
3/23/2021 4:15:00 AM 3.17 37.706 0.064 7.19 2.75 13.18
3/23/2021 4:30:00 AM 3.11 37.598 0.064 7.17 2.79 13.2
3/23/2021 4:45:00 AM 3.05 37.49 0.064 7.17 2.67 13.23
3/23/2021 5:00:00 AM 2.98 37.364 0.064 7.18 2.74 13.26
3/23/2021 5:15:00 AM 2.92 37.256 0.064 7.17 2.78 13.28
3/23/2021 5:30:00 AM 2.86 37.148 0.064 7.17 2.66 13.3
3/23/2021 5:45:00 AM 2.81 37.058 0.064 7.17 2.65 13.33
3/23/2021 6:00:00 AM 2.75 36.95 0.064 7.18 2.63 13.35
3/23/2021 6:15:00 AM 2.69 36.842 0.063 7.18 2.65 13.37
3/23/2021 6:30:00 AM 2.64 36.752 0.063 7.18 2.65 13.39
3/23/2021 6:45:00 AM 2.58 36.644 0.063 7.17 2.6 13.41
3/23/2021 7:00:00 AM 2.53 36.554 0.063 7.18 2.72 13.44
3/23/2021 7:15:00 AM 2.48 36.464 0.063 7.19 2.65 13.48
3/23/2021 7:30:00 AM 2.44 36.392 0.064 7.2 2.53 13.54
3/23/2021 7:45:00 AM 2.4 36.32 0.064 7.2 2.52 13.6
3/23/2021 8:00:00 AM 2.36 36.248 0.064 7.22 2.45 13.67
3/23/2021 8:15:00 AM 2.34 36.212 0.063 7.22 2.48 13.75
3/23/2021 8:30:00 AM 2.35 36.23 0.063 7.26 2.44 13.83
3/23/2021 8:45:00 AM 2.36 36.248 0.063 7.29 2.39 13.89
3/23/2021 9:00:00 AM 2.39 36.302 0.063 7.31 2.42 13.95
3/23/2021 9:15:00 AM 2.46 36.428 0.063 7.34 2.35 13.99
3/23/2021 9:30:00 AM 2.56 36.608 0.063 7.36 2.38 14.02
3/23/2021 9:45:00 AM 2.67 36.806 0.063 7.38 2.34 14.03
3/23/2021 10:00:00 AM 2.81 37.058 0.063 7.42 2.42 14.04
3/23/2021 10:15:00 AM 2.97 37.346 0.063 7.44 2.36 14.02
3/23/2021 10:30:00 AM 3.14 37.652 0.063 7.46 2.34 14
3/23/2021 10:45:00 AM 3.33 37.994 0.062 7.47 2.34 13.96
3/23/2021 11:00:00 AM 3.53 38.354 0.062 7.49 2.35 13.91
3/23/2021 11:15:00 AM 3.75 38.75 0.062 7.52 2.33 13.85
3/23/2021 11:30:00 AM 4 39.2 0.062 7.53 2.33 13.78
3/23/2021 11:45:00 AM 4.24 39.632 0.062 7.55 2.35 13.71
3/23/2021 12:00:00 PM 4.5 40.1 0.062 7.57 2.33 13.63
3/23/2021 12:15:00 PM 4.75 40.55 0.062 7.6 2.3 13.55
3/23/2021 12:30:00 PM 5 41 0.062 7.62 2.32 13.47
3/23/2021 12:45:00 PM 5.24 41.432 0.062 7.63 2.31 13.39
3/23/2021 1:00:00 PM 5.47 41.846 0.062 7.65 2.4 13.31
3/23/2021 1:15:00 PM 5.71 42.278 0.062 7.66 2.31 13.23
3/23/2021 1:30:00 PM 5.91 42.638 0.061 7.68 2.39 13.16
3/23/2021 1:45:00 PM 6.07 42.926 0.061 7.69 2.35 13.09
3/23/2021 2:00:00 PM 6.24 43.232 0.061 7.7 2.4 13.03
3/23/2021 2:15:00 PM 6.42 43.556 0.061 7.71 2.35 12.96
3/23/2021 2:30:00 PM 6.57 43.826 0.061 7.73 2.3 12.9
3/23/2021 2:45:00 PM 6.72 44.096 0.061 7.72 2.39 12.83
3/23/2021 3:00:00 PM 6.86 44.348 0.061 7.73 2.36 12.77
3/23/2021 3:15:00 PM 6.99 44.582 0.061 7.73 2.38 12.72
3/23/2021 3:30:00 PM 7.08 44.744 0.061 7.74 2.45 12.67
3/23/2021 3:45:00 PM 7.15 44.87 0.061 7.74 2.41 12.62
3/23/2021 4:00:00 PM 7.23 45.014 0.061 7.73 2.44 12.57
3/23/2021 4:15:00 PM 7.29 45.122 0.061 7.73 2.49 12.54
3/23/2021 4:30:00 PM 7.34 45.212 0.061 7.73 2.44 12.5
3/23/2021 4:45:00 PM 7.38 45.284 0.061 7.73 2.53 12.47
3/23/2021 5:00:00 PM 7.42 45.356 0.061 7.72 2.55 12.44
3/23/2021 5:15:00 PM 7.42 45.356 0.061 7.72 2.52 12.41
3/23/2021 5:30:00 PM 7.42 45.356 0.061 7.68 2.55 12.38
3/23/2021 5:45:00 PM 7.41 45.338 0.061 7.66 2.64 12.35
3/23/2021 6:00:00 PM 7.39 45.302 0.061 7.64 2.65 12.32
3/23/2021 6:15:00 PM 7.35 45.23 0.061 7.58 2.67 12.25
3/23/2021 6:30:00 PM 7.32 45.176 0.061 7.54 2.68 12.2
3/23/2021 6:45:00 PM 7.27 45.086 0.061 7.49 2.76 12.13
3/23/2021 7:00:00 PM 7.21 44.978 0.061 7.43 2.85 12.06
3/23/2021 7:15:00 PM 7.14 44.852 0.061 7.37 2.87 11.99
3/23/2021 7:30:00 PM 7.07 44.726 0.061 7.32 2.85 11.94
3/23/2021 7:45:00 PM 7 44.6 0.061 7.3 2.9 11.9
3/23/2021 8:00:00 PM 6.92 44.456 0.062 7.26 3.03 11.89
3/23/2021 8:15:00 PM 6.84 44.312 0.062 7.24 3.06 11.89
3/23/2021 8:30:00 PM 6.75 44.15 0.062 7.22 3.12 11.9
3/23/2021 8:45:00 PM 6.66 43.988 0.062 7.21 3.09 11.91
3/23/2021 9:00:00 PM 6.57 43.826 0.062 7.2 3.07 11.94
3/23/2021 9:15:00 PM 6.47 43.646 0.062 7.2 3.11 11.96
3/23/2021 9:30:00 PM 6.37 43.466 0.062 7.18 3.19 11.99
3/23/2021 9:45:00 PM 6.28 43.304 0.062 7.17 3.36 12.02
3/23/2021 10:00:00 PM 6.19 43.142 0.062 7.18 3.36 12.05
3/23/2021 10:15:00 PM 6.1 42.98 0.062 7.18 3.45 12.07
3/23/2021 10:30:00 PM 6.01 42.818 0.062 7.18 3.28 12.1
3/23/2021 10:45:00 PM 5.93 42.674 0.062 7.17 3.3 12.13
3/23/2021 11:00:00 PM 5.84 42.512 0.062 7.17 3.33 12.16
3/23/2021 11:15:00 PM 5.76 42.368 0.062 7.17 3.3 12.19
3/23/2021 11:30:00 PM 5.67 42.206 0.062 7.17 3.3 12.22
3/23/2021 11:45:00 PM 5.59 42.062 0.062 7.17 3.27 12.25
3/24/2021 12:00:00 AM 5.5 41.9 0.062 7.16 3.25 12.27
3/24/2021 12:15:00 AM 5.42 41.756 0.062 7.16 3.31 12.3
3/24/2021 12:30:00 AM 5.34 41.612 0.062 7.17 3.21 12.33
3/24/2021 12:45:00 AM 5.26 41.468 0.062 7.16 3.29 12.36
3/24/2021 1:00:00 AM 5.19 41.342 0.062 7.16 3.17 12.39
3/24/2021 1:15:00 AM 5.12 41.216 0.062 7.16 3.14 12.41
3/24/2021 1:30:00 AM 5.06 41.108 0.062 7.17 3.14 12.44
3/24/2021 1:45:00 AM 4.99 40.982 0.062 7.16 3.07 12.46
3/24/2021 2:00:00 AM 4.93 40.874 0.062 7.17 3.09 12.49
3/24/2021 2:15:00 AM 4.88 40.784 0.062 7.16 3.1 12.51
3/24/2021 2:30:00 AM 4.82 40.676 0.062 7.16 3.04 12.53
3/24/2021 2:45:00 AM 4.77 40.586 0.062 7.15 2.95 12.55
3/24/2021 3:00:00 AM 4.73 40.514 0.062 7.16 2.99 12.57
3/24/2021 3:15:00 AM 4.68 40.424 0.062 7.16 2.93 12.59
3/24/2021 3:30:00 AM 4.64 40.352 0.062 7.14 2.89 12.6
3/24/2021 3:45:00 AM 4.61 40.298 0.062 7.15 2.89 12.61
3/24/2021 4:00:00 AM 4.59 40.262 0.062 7.16 2.85 12.62
3/24/2021 4:15:00 AM 4.57 40.226 0.062 7.15 3 12.62
3/24/2021 4:30:00 AM 4.56 40.208 0.062 7.16 2.91 12.63
3/24/2021 4:45:00 AM 4.55 40.19 0.062 7.16 2.99 12.63
3/24/2021 5:00:00 AM 4.54 40.172 0.062 7.16 2.84 12.63
3/24/2021 5:15:00 AM 4.53 40.154 0.062 7.17 2.82 12.64
3/24/2021 5:30:00 AM 4.53 40.154 0.062 7.16 2.82 12.64
3/24/2021 5:45:00 AM 4.52 40.136 0.062 7.17 2.75 12.64
3/24/2021 6:00:00 AM 4.52 40.136 0.062 7.17 2.84 12.65
3/24/2021 6:15:00 AM 4.53 40.154 0.062 7.16 2.76 12.64
3/24/2021 6:30:00 AM 4.54 40.172 0.062 7.17 2.66 12.64
3/24/2021 6:45:00 AM 4.55 40.19 0.062 7.17 2.72 12.64
3/24/2021 7:00:00 AM 4.56 40.208 0.062 7.18 2.75 12.64
3/24/2021 7:15:00 AM 4.57 40.226 0.062 7.16 2.81 12.64
3/24/2021 7:30:00 AM 4.58 40.244 0.062 7.18 2.7 12.65
3/24/2021 7:45:00 AM 4.6 40.28 0.062 7.19 2.67 12.68
3/24/2021 8:00:00 AM 4.62 40.316 0.062 7.21 2.68 12.72
3/24/2021 8:15:00 AM 4.65 40.37 0.061 7.22 2.67 12.76
3/24/2021 8:30:00 AM 4.68 40.424 0.061 7.23 2.74 12.79
3/24/2021 8:45:00 AM 4.71 40.478 0.061 7.25 2.85 12.81
3/24/2021 9:00:00 AM 4.74 40.532 0.061 7.27 2.72 12.85
3/24/2021 9:15:00 AM 4.76 40.568 0.061 7.29 2.74 12.88
3/24/2021 9:30:00 AM 4.79 40.622 0.061 7.3 2.74 12.92
3/24/2021 9:45:00 AM 4.83 40.694 0.061 7.33 2.66 12.95
3/24/2021 10:00:00 AM 4.86 40.748 0.061 7.33 2.66 12.95
3/24/2021 10:15:00 AM 4.89 40.802 0.061 7.35 2.75 12.96
3/24/2021 10:30:00 AM 4.92 40.856 0.061 7.37 2.76 12.98
3/24/2021 10:45:00 AM 4.97 40.946 0.061 7.4 2.64 13.02
3/24/2021 11:00:00 AM 5.02 41.036 0.06 7.41 2.68 13.05
3/24/2021 11:15:00 AM 5.09 41.162 0.06 7.47 2.68 13.08
3/24/2021 11:30:00 AM 5.14 41.252 0.06 7.48 2.76 13.07
3/24/2021 11:45:00 AM 5.18 41.324 0.06 7.49 2.74 13.05
3/24/2021 12:00:00 PM 5.21 41.378 0.06 7.48 2.72 13.03
3/24/2021 12:15:00 PM 5.25 41.45 0.06 7.51 2.92 13.02
3/24/2021 12:30:00 PM 5.3 41.54 0.06 7.53 3.03 13.04
3/24/2021 12:45:00 PM 5.36 41.648 0.06 7.56 2.98 13.07
3/24/2021 1:00:00 PM 5.45 41.81 0.06 7.59 3.2 13.1
3/24/2021 1:15:00 PM 5.53 41.954 0.06 7.61 3.33 13.1
3/24/2021 1:30:00 PM 5.59 42.062 0.06 7.62 3.6 13.06
3/24/2021 1:45:00 PM 5.66 42.188 0.06 7.63 3.9 13.03
3/24/2021 2:00:00 PM 5.72 42.296 0.059 7.62 4.29 12.99
3/24/2021 2:15:00 PM 5.77 42.386 0.059 7.59 4.69 12.95
3/24/2021 2:30:00 PM 5.82 42.476 0.059 7.59 5.21 12.9
3/24/2021 2:45:00 PM 5.87 42.566 0.059 7.56 5.24 12.83
3/24/2021 3:00:00 PM 5.93 42.674 0.059 7.52 5.43 12.75
3/24/2021 3:15:00 PM 5.99 42.782 0.059 7.49 5.46 12.67
3/24/2021 3:30:00 PM 6.05 42.89 0.059 7.45 5.74 12.6
3/24/2021 3:45:00 PM 6.1 42.98 0.059 7.42 6.04 12.55
3/24/2021 4:00:00 PM 6.13 43.034 0.059 7.37 6.03 12.49
3/24/2021 4:15:00 PM 6.15 43.07 0.059 7.38 6.42 12.46
3/24/2021 4:30:00 PM 6.15 43.07 0.059 7.35 6.89 12.43
3/24/2021 4:45:00 PM 6.15 43.07 0.059 7.34 7.42 12.39
3/24/2021 5:00:00 PM 6.15 43.07 0.059 7.3 7.7 12.37
3/24/2021 5:15:00 PM 6.16 43.088 0.059 7.29 8.82 12.34
3/24/2021 5:30:00 PM 6.17 43.106 0.059 7.28 9.26 12.32
3/24/2021 5:45:00 PM 6.18 43.124 0.059 7.26 9.59 12.3
3/24/2021 6:00:00 PM 6.18 43.124 0.059 7.24 10 12.28
3/24/2021 6:15:00 PM 6.19 43.142 0.059 7.24 10.7 12.27
3/24/2021 6:30:00 PM 6.19 43.142 0.059 7.23 10.8 12.24
3/24/2021 6:45:00 PM 6.18 43.124 0.059 7.21 10.92 12.21
3/24/2021 7:00:00 PM 6.17 43.106 0.059 7.2 11.74 12.18
3/24/2021 7:15:00 PM 6.15 43.07 0.059 7.19 11.97 12.17
3/24/2021 7:30:00 PM 6.14 43.052 0.059 7.17 12.28 12.15
3/24/2021 7:45:00 PM 6.12 43.016 0.059 7.17 12.84 12.15
3/24/2021 8:00:00 PM 6.11 42.998 0.059 7.16 12.84 12.14
3/24/2021 8:15:00 PM 6.09 42.962 0.059 7.14 13.67 12.14
3/24/2021 8:30:00 PM 6.08 42.944 0.059 7.15 13.62 12.15
3/24/2021 8:45:00 PM 6.06 42.908 0.059 7.14 17.93 12.15
3/24/2021 9:00:00 PM 6.03 42.854 0.059 7.13 13.75 12.16
3/24/2021 9:15:00 PM 6.01 42.818 0.059 7.13 13.84 12.17
3/24/2021 9:30:00 PM 5.99 42.782 0.058 7.13 13.69 12.17
3/24/2021 9:45:00 PM 5.97 42.746 0.058 7.12 13.49 12.18
3/24/2021 10:00:00 PM 5.95 42.71 0.058 7.12 13.34 12.18
3/24/2021 10:15:00 PM 5.92 42.656 0.058 7.12 13.08 12.19
3/24/2021 10:30:00 PM 5.9 42.62 0.058 7.11 12.3 12.2
3/24/2021 10:45:00 PM 5.87 42.566 0.058 7.11 12.14 12.21
3/24/2021 11:00:00 PM 5.86 42.548 0.058 7.1 11.38 12.22
3/24/2021 11:15:00 PM 5.83 42.494 0.058 7.11 11.52 12.23
3/24/2021 11:30:00 PM 5.82 42.476 0.058 7.11 10.8 12.23
3/24/2021 11:45:00 PM 5.81 42.458 0.058 7.11 10.82 12.23
3/25/2021 12:00:00 AM 5.79 42.422 0.058 7.1 10.35 12.24
3/25/2021 12:15:00 AM 5.77 42.386 0.058 7.11 9.94 12.24
3/25/2021 12:30:00 AM 5.76 42.368 0.058 7.08 9.84 12.25
3/25/2021 12:45:00 AM 5.74 42.332 0.058 7.09 9.72 12.25
3/25/2021 1:00:00 AM 5.72 42.296 0.058 7.09 9.34 12.26
3/25/2021 1:15:00 AM 5.71 42.278 0.058 7.08 9.15 12.26
3/25/2021 1:30:00 AM 5.69 42.242 0.058 7.1 8.94 12.27
3/25/2021 1:45:00 AM 5.68 42.224 0.058 7.09 8.79 12.27
3/25/2021 2:00:00 AM 5.66 42.188 0.058 7.08 8.8 12.28
3/25/2021 2:15:00 AM 5.65 42.17 0.058 7.09 8.65 12.28
3/25/2021 2:30:00 AM 5.63 42.134 0.058 7.08 8.37 12.29
3/25/2021 2:45:00 AM 5.62 42.116 0.058 7.09 8.45 12.29
3/25/2021 3:00:00 AM 5.6 42.08 0.057 7.08 8.25 12.29
3/25/2021 3:15:00 AM 5.59 42.062 0.057 7.07 7.93 12.3
3/25/2021 3:30:00 AM 5.56 42.008 0.057 7.08 7.84 12.3
3/25/2021 3:45:00 AM 5.55 41.99 0.057 7.08 7.77 12.3
3/25/2021 4:00:00 AM 5.53 41.954 0.057 7.07 7.75 12.31
3/25/2021 4:15:00 AM 5.51 41.918 0.057 7.08 7.65 12.31
3/25/2021 4:30:00 AM 5.5 41.9 0.057 7.06 7.53 12.31
3/25/2021 4:45:00 AM 5.49 41.882 0.057 7.06 7.47 12.32
3/25/2021 5:00:00 AM 5.47 41.846 0.057 7.07 7.25 12.32
3/25/2021 5:15:00 AM 5.46 41.828 0.057 7.08 7.39 12.33
3/25/2021 5:30:00 AM 5.45 41.81 0.057 7.06 7.22 12.33
3/25/2021 5:45:00 AM 5.44 41.792 0.057 7.07 7.04 12.34
3/25/2021 6:00:00 AM 5.43 41.774 0.057 7.07 7.24 12.34
3/25/2021 6:15:00 AM 5.42 41.756 0.057 7.06 6.86 12.35
3/25/2021 6:30:00 AM 5.41 41.738 0.057 7.06 6.84 12.35
3/25/2021 6:45:00 AM 5.4 41.72 0.057 7.05 6.79 12.35
3/25/2021 7:00:00 AM 5.39 41.702 0.057 7.06 6.8 12.36
3/25/2021 7:15:00 AM 5.39 41.702 0.057 7.06 6.54 12.37
3/25/2021 7:30:00 AM 5.38 41.684 0.057 7.07 6.46 12.38
3/25/2021 7:45:00 AM 5.37 41.666 0.057 7.08 6.35 12.41
3/25/2021 8:00:00 AM 5.37 41.666 0.057 7.07 6.09 12.44
3/25/2021 8:15:00 AM 5.38 41.684 0.057 7.09 6.29 12.51
3/25/2021 8:30:00 AM 5.39 41.702 0.057 7.12 5.99 12.54
3/25/2021 8:45:00 AM 5.42 41.756 0.057 7.14 5.74 12.62
3/25/2021 9:00:00 AM 5.44 41.792 0.057 7.16 5.55 12.65
3/25/2021 9:15:00 AM 5.48 41.864 0.056 7.19 5.51 12.71
3/25/2021 9:30:00 AM 5.53 41.954 0.056 7.21 5.33 12.75
3/25/2021 9:45:00 AM 5.59 42.062 0.056 7.25 5.29 12.78
3/25/2021 10:00:00 AM 5.68 42.224 0.056 7.29 5.36 12.81
3/25/2021 10:15:00 AM 5.75 42.35 0.056 7.32 5.11 12.82
3/25/2021 10:30:00 AM 5.85 42.53 0.056 7.36 4.97 12.83
3/25/2021 10:45:00 AM 5.95 42.71 0.056 7.39 5 12.83
3/25/2021 11:00:00 AM 6.08 42.944 0.056 7.42 5.15 12.83
3/25/2021 11:15:00 AM 6.22 43.196 0.056 7.45 5.08 12.81
3/25/2021 11:30:00 AM 6.44 43.592 0.056 7.49 4.92 12.8
3/25/2021 11:45:00 AM 6.62 43.916 0.056 7.51 4.78 12.76
3/25/2021 12:00:00 PM 6.92 44.456 0.056 7.54 4.85 12.7
3/25/2021 12:15:00 PM 7.13 44.834 0.056 7.56 4.69 12.63
3/25/2021 12:30:00 PM 7.36 45.248 0.056 7.57 4.77 12.56
3/25/2021 12:45:00 PM 7.6 45.68 0.056 7.6 4.66 12.5
3/25/2021 1:00:00 PM 7.81 46.058 0.056 7.6 4.53 12.45
3/25/2021 1:15:00 PM 8.02 46.436 0.055 7.61 4.57 12.38
3/25/2021 1:30:00 PM 8.2 46.76 0.055 7.62 4.54 12.32
3/25/2021 1:45:00 PM 8.39 47.102 0.055 7.63 4.57 12.26
3/25/2021 2:00:00 PM 8.55 47.39 0.055 7.63 4.46 12.2
3/25/2021 2:15:00 PM 8.73 47.714 0.055 7.63 4.51 12.14
3/25/2021 2:30:00 PM 8.87 47.966 0.055 7.64 4.65 12.08
3/25/2021 2:45:00 PM 8.99 48.182 0.055 7.65 5.13 12.02
3/25/2021 3:00:00 PM 9.13 48.434 0.055 7.65 5.83 11.97
3/25/2021 3:15:00 PM 9.24 48.632 0.055 7.64 5.84 11.91
3/25/2021 3:30:00 PM 9.35 48.83 0.055 7.63 6.54 11.86
3/25/2021 3:45:00 PM 9.42 48.956 0.055 7.62 6.75 11.82
3/25/2021 4:00:00 PM 9.49 49.082 0.055 7.62 6.07 11.78
3/25/2021 4:15:00 PM 9.56 49.208 0.055 7.61 5.73 11.75
3/25/2021 4:30:00 PM 9.59 49.262 0.055 7.61 5.69 11.72
3/25/2021 4:45:00 PM 9.61 49.298 0.055 7.59 5.5 11.69
3/25/2021 5:00:00 PM 9.62 49.316 0.055 7.58 5.53 11.67
3/25/2021 5:15:00 PM 9.63 49.334 0.055 7.56 5.58 11.64
3/25/2021 5:30:00 PM 9.63 49.334 0.055 7.54 5.64 11.61
3/25/2021 5:45:00 PM 9.61 49.298 0.056 7.48 5.69 11.57
3/25/2021 6:00:00 PM 9.56 49.208 0.056 7.44 5.76 11.52
3/25/2021 6:15:00 PM 9.52 49.136 0.056 7.39 5.71 11.47
3/25/2021 6:30:00 PM 9.47 49.046 0.056 7.35 5.48 11.41
3/25/2021 6:45:00 PM 9.41 48.938 0.056 7.3 5.45 11.36
3/25/2021 7:00:00 PM 9.34 48.812 0.056 7.27 5.6 11.31
3/25/2021 7:15:00 PM 9.27 48.686 0.056 7.22 5.4 11.26
3/25/2021 7:30:00 PM 9.19 48.542 0.056 7.18 5.33 11.22
3/25/2021 7:45:00 PM 9.1 48.38 0.057 7.14 5.48 11.21
3/25/2021 8:00:00 PM 9.02 48.236 0.057 7.14 5.58 11.2
3/25/2021 8:15:00 PM 8.94 48.092 0.057 7.11 5.72 11.2
3/25/2021 8:30:00 PM 8.85 47.93 0.057 7.1 5.78 11.22
3/25/2021 8:45:00 PM 8.78 47.804 0.057 7.08 5.68 11.23
3/25/2021 9:00:00 PM 8.71 47.678 0.057 7.09 5.5 11.24
3/25/2021 9:15:00 PM 8.64 47.552 0.057 7.08 5.58 11.26
3/25/2021 9:30:00 PM 8.57 47.426 0.057 7.07 5.62 11.28
3/25/2021 9:45:00 PM 8.5 47.3 0.057 7.06 5.54 11.3
3/25/2021 10:00:00 PM 8.43 47.174 0.057 7.06 5.43 11.32
3/25/2021 10:15:00 PM 8.37 47.066 0.057 7.07 5.36 11.34
3/25/2021 10:30:00 PM 8.32 46.976 0.058 7.06 5.24 11.35
3/25/2021 10:45:00 PM 8.28 46.904 0.058 7.07 5.53 11.37
3/25/2021 11:00:00 PM 8.22 46.796 0.058 7.08 5.12 11.39
3/25/2021 11:15:00 PM 8.17 46.706 0.058 7.08 5.32 11.4
3/25/2021 11:30:00 PM 8.12 46.616 0.058 7.09 5.15 11.41
3/25/2021 11:45:00 PM 8.08 46.544 0.058 7.08 5.13 11.42
3/26/2021 12:00:00 AM 8.04 46.472 0.058 7.09 5.11 11.43
3/26/2021 12:15:00 AM 8.01 46.418 0.058 7.08 5.03 11.44
3/26/2021 12:30:00 AM 7.99 46.382 0.058 7.07 5.07 11.44
3/26/2021 12:45:00 AM 7.96 46.328 0.058 7.09 4.83 11.45
3/26/2021 1:00:00 AM 7.94 46.292 0.058 7.09 4.9 11.45
3/26/2021 1:15:00 AM 7.91 46.238 0.058 7.08 4.79 11.46
3/26/2021 1:30:00 AM 7.89 46.202 0.058 7.08 5.08 11.47
3/26/2021 1:45:00 AM 7.86 46.148 0.058 7.08 4.81 11.48
3/26/2021 2:00:00 AM 7.84 46.112 0.058 7.1 4.79 11.48
3/26/2021 2:15:00 AM 7.82 46.076 0.058 7.08 4.99 11.48
3/26/2021 2:30:00 AM 7.81 46.058 0.058 7.09 4.87 11.48
3/26/2021 2:45:00 AM 7.79 46.022 0.058 7.08 4.92 11.48
3/26/2021 3:00:00 AM 7.77 45.986 0.058 7.09 4.86 11.49
3/26/2021 3:15:00 AM 7.76 45.968 0.058 7.08 4.9 11.48
3/26/2021 3:30:00 AM 7.76 45.968 0.058 7.08 4.84 11.48
3/26/2021 3:45:00 AM 7.75 45.95 0.058 7.09 4.94 11.48
3/26/2021 4:00:00 AM 7.74 45.932 0.058 7.08 4.93 11.48
3/26/2021 4:15:00 AM 7.73 45.914 0.058 7.09 4.89 11.48
3/26/2021 4:30:00 AM 7.73 45.914 0.058 7.1 4.83 11.48
3/26/2021 4:45:00 AM 7.73 45.914 0.058 7.08 4.75 11.47
3/26/2021 5:00:00 AM 7.74 45.932 0.058 7.09 4.69 11.47
3/26/2021 5:15:00 AM 7.74 45.932 0.058 7.09 4.77 11.47
3/26/2021 5:30:00 AM 7.73 45.914 0.058 7.1 4.7 11.46
3/26/2021 5:45:00 AM 7.73 45.914 0.058 7.09 4.86 11.45
3/26/2021 6:00:00 AM 7.74 45.932 0.058 7.09 4.69 11.45
3/26/2021 6:15:00 AM 7.73 45.914 0.058 7.09 4.69 11.44
3/26/2021 6:30:00 AM 7.72 45.896 0.058 7.09 4.97 11.44
3/26/2021 6:45:00 AM 7.73 45.914 0.058 7.1 4.91 11.44
3/26/2021 7:00:00 AM 7.75 45.95 0.058 7.11 4.84 11.44
3/26/2021 7:15:00 AM 7.78 46.004 0.058 7.1 4.76 11.44
3/26/2021 7:30:00 AM 7.79 46.022 0.058 7.1 4.72 11.44
3/26/2021 7:45:00 AM 7.81 46.058 0.058 7.11 4.59 11.46
3/26/2021 8:00:00 AM 7.82 46.076 0.058 7.13 4.73 11.47
3/26/2021 8:15:00 AM 7.83 46.094 0.058 7.14 4.61 11.54
3/26/2021 8:30:00 AM 7.84 46.112 0.058 7.18 4.35 11.65
3/26/2021 8:45:00 AM 7.89 46.202 0.058 7.23 4.33 11.73
3/26/2021 9:00:00 AM 7.95 46.31 0.058 7.27 4.41 11.8
3/26/2021 9:15:00 AM 8.05 46.49 0.058 7.31 4.42 11.87
3/26/2021 9:30:00 AM 8.14 46.652 0.057 7.36 4.38 11.91
3/26/2021 9:45:00 AM 8.27 46.886 0.057 7.43 4.35 11.95
3/26/2021 10:00:00 AM 8.42 47.156 0.057 7.48 4.42 12
3/26/2021 10:15:00 AM 8.57 47.426 0.057 7.55 4.54 12.02
3/26/2021 10:30:00 AM 8.74 47.732 0.057 7.61 4.41 12.02
3/26/2021 10:45:00 AM 8.91 48.038 0.057 7.66 4.25 12
3/26/2021 11:00:00 AM 8.96 48.128 0.057 7.63 4.2 11.92
3/26/2021 11:15:00 AM 9.1 48.38 0.057 7.68 4.14 11.9
3/26/2021 11:30:00 AM 9.23 48.614 0.057 7.73 4.18 11.88
3/26/2021 11:45:00 AM 9.42 48.956 0.057 7.78 4 11.85
3/26/2021 12:00:00 PM 9.57 49.226 0.057 7.82 3.97 11.8
3/26/2021 12:15:00 PM 9.8 49.64 0.057 7.87 4 11.75
3/26/2021 12:30:00 PM 9.93 49.874 0.057 7.91 3.9 11.71
3/26/2021 12:45:00 PM 10.19 50.342 0.057 7.95 4.02 11.69
3/26/2021 1:00:00 PM 10.3 50.54 0.057 7.96 4.21 11.64
3/26/2021 1:15:00 PM 10.32 50.576 0.057 7.89 4.21 11.56
3/26/2021 1:30:00 PM 10.3 50.54 0.057 7.79 4.02 11.47
3/26/2021 1:45:00 PM 10.33 50.594 0.057 7.8 3.9 11.45
3/26/2021 2:00:00 PM 10.3 50.54 0.057 7.81 3.88 11.46
3/26/2021 2:15:00 PM 10.32 50.576 0.057 7.88 3.84 11.5
3/26/2021 2:30:00 PM 10.37 50.666 0.057 7.9 3.94 11.5
3/26/2021 2:45:00 PM 10.41 50.738 0.057 7.89 3.96 11.47
3/26/2021 3:00:00 PM 10.48 50.864 0.057 7.94 3.77 11.49
3/26/2021 3:15:00 PM 10.49 50.882 0.057 7.89 4.01 11.45
3/26/2021 3:30:00 PM 10.51 50.918 0.057 7.8 3.96 11.38
3/26/2021 3:45:00 PM 10.48 50.864 0.057 7.75 4.04 11.34
3/26/2021 4:00:00 PM 10.42 50.756 0.057 7.68 3.89 11.32
3/26/2021 4:15:00 PM 10.42 50.756 0.057 7.74 4.01 11.36
3/26/2021 4:30:00 PM 10.42 50.756 0.057 7.75 3.78 11.38
3/26/2021 4:45:00 PM 10.43 50.774 0.057 7.74 3.81 11.36
3/26/2021 5:00:00 PM 10.42 50.756 0.058 7.7 3.89 11.33
3/26/2021 5:15:00 PM 10.38 50.684 0.058 7.67 3.66 11.33
3/26/2021 5:30:00 PM 10.28 50.504 0.058 7.6 4.07 11.3
3/26/2021 5:45:00 PM 10.18 50.324 0.058 7.5 3.83 11.24
3/26/2021 6:00:00 PM 10.08 50.144 0.058 7.44 3.84 11.17
3/26/2021 6:15:00 PM 9.98 49.964 0.058 7.38 3.86 11.11
3/26/2021 6:30:00 PM 9.88 49.784 0.058 7.33 3.95 11.07
3/26/2021 6:45:00 PM 9.77 49.586 0.058 7.29 3.92 11.04
3/26/2021 7:00:00 PM 9.67 49.406 0.058 7.26 3.88 11.02
3/26/2021 7:15:00 PM 9.57 49.226 0.059 7.23 3.99 11.02
3/26/2021 7:30:00 PM 9.47 49.046 0.059 7.21 3.9 11.02
3/26/2021 7:45:00 PM 9.36 48.848 0.059 7.2 3.99 11.04
3/26/2021 8:00:00 PM 9.26 48.668 0.059 7.18 3.87 11.05
3/26/2021 8:15:00 PM 9.16 48.488 0.059 7.17 3.95 11.07
3/26/2021 8:30:00 PM 9.07 48.326 0.059 7.17 3.88 11.09
3/26/2021 8:45:00 PM 8.97 48.146 0.059 7.16 4.11 11.11
3/26/2021 9:00:00 PM 8.88 47.984 0.059 7.16 4.18 11.14
3/26/2021 9:15:00 PM 8.79 47.822 0.06 7.16 4.18 11.17
3/26/2021 9:30:00 PM 8.7 47.66 0.06 7.16 3.91 11.2
3/26/2021 9:45:00 PM 8.62 47.516 0.06 7.16 3.83 11.23
3/26/2021 10:00:00 PM 8.53 47.354 0.06 7.16 4.04 11.26
3/26/2021 10:15:00 PM 8.44 47.192 0.06 7.15 3.93 11.29
3/26/2021 10:30:00 PM 8.37 47.066 0.06 7.14 3.88 11.31
3/26/2021 10:45:00 PM 8.29 46.922 0.06 7.16 4 11.34
3/26/2021 11:00:00 PM 8.22 46.796 0.06 7.14 3.83 11.36
3/26/2021 11:15:00 PM 8.15 46.67 0.06 7.15 3.72 11.39
3/26/2021 11:30:00 PM 8.08 46.544 0.06 7.14 3.71 11.41
3/26/2021 11:45:00 PM 8.01 46.418 0.06 7.15 3.49 11.43
3/27/2021 12:00:00 AM 7.94 46.292 0.06 7.14 3.62 11.45
3/27/2021 12:15:00 AM 7.87 46.166 0.06 7.14 3.5 11.47
3/27/2021 12:30:00 AM 7.8 46.04 0.06 7.15 3.42 11.49
3/27/2021 12:45:00 AM 7.74 45.932 0.06 7.15 3.34 11.51
3/27/2021 1:00:00 AM 7.68 45.824 0.06 7.15 3.4 11.53
3/27/2021 1:15:00 AM 7.63 45.734 0.06 7.16 3.5 11.54
3/27/2021 1:30:00 AM 7.57 45.626 0.06 7.15 3.46 11.56
3/27/2021 1:45:00 AM 7.51 45.518 0.06 7.15 3.34 11.57
3/27/2021 2:00:00 AM 7.46 45.428 0.06 7.15 3.44 11.59
3/27/2021 2:15:00 AM 7.41 45.338 0.06 7.15 3.5 11.6
3/27/2021 2:30:00 AM 7.34 45.212 0.06 7.15 3.4 11.62
3/27/2021 2:45:00 AM 7.27 45.086 0.06 7.14 3.34 11.64
3/27/2021 3:00:00 AM 7.2 44.96 0.06 7.15 3.31 11.67
3/27/2021 3:15:00 AM 7.13 44.834 0.06 7.14 3.25 11.68
3/27/2021 3:30:00 AM 7.06 44.708 0.06 7.15 3.22 11.71
3/27/2021 3:45:00 AM 7 44.6 0.06 7.14 3.35 11.73
3/27/2021 4:00:00 AM 6.96 44.528 0.06 7.15 3.16 11.75
3/27/2021 4:15:00 AM 6.91 44.438 0.06 7.14 3.12 11.76
3/27/2021 4:30:00 AM 6.88 44.384 0.06 7.15 3.13 11.78
3/27/2021 4:45:00 AM 6.84 44.312 0.06 7.15 3.05 11.79
3/27/2021 5:00:00 AM 6.8 44.24 0.06 7.15 3.04 11.81
3/27/2021 5:15:00 AM 6.76 44.168 0.061 7.15 3.16 11.82
3/27/2021 5:30:00 AM 6.71 44.078 0.061 7.15 3.06 11.84
3/27/2021 5:45:00 AM 6.68 44.024 0.061 7.15 3.08 11.85
3/27/2021 6:00:00 AM 6.65 43.97 0.061 7.14 2.99 11.86
3/27/2021 6:15:00 AM 6.62 43.916 0.061 7.15 3.05 11.87
3/27/2021 6:30:00 AM 6.59 43.862 0.061 7.15 3 11.89
3/27/2021 6:45:00 AM 6.56 43.808 0.061 7.15 3.05 11.9
3/27/2021 7:00:00 AM 6.53 43.754 0.061 7.16 3.12 11.91
3/27/2021 7:15:00 AM 6.5 43.7 0.061 7.16 2.97 11.94
3/27/2021 7:30:00 AM 6.48 43.664 0.061 7.17 2.98 12
3/27/2021 7:45:00 AM 6.46 43.628 0.061 7.19 3.03 12.06
3/27/2021 8:00:00 AM 6.44 43.592 0.061 7.21 3.05 12.12
3/27/2021 8:15:00 AM 6.43 43.574 0.061 7.24 2.83 12.21
3/27/2021 8:30:00 AM 6.43 43.574 0.061 7.27 2.77 12.29
3/27/2021 8:45:00 AM 6.43 43.574 0.061 7.3 2.82 12.37
3/27/2021 9:00:00 AM 6.43 43.574 0.061 7.35 2.73 12.45
3/27/2021 9:15:00 AM 6.44 43.592 0.061 7.37 2.78 12.52
3/27/2021 9:30:00 AM 6.46 43.628 0.061 7.41 2.65 12.56
3/27/2021 9:45:00 AM 6.47 43.646 0.061 7.44 2.66 12.6
3/27/2021 10:00:00 AM 6.49 43.682 0.061 7.48 2.65 12.65
3/27/2021 10:15:00 AM 6.5 43.7 0.061 7.52 2.62 12.67
3/27/2021 10:30:00 AM 6.52 43.736 0.06 7.55 2.58 12.69
3/27/2021 10:45:00 AM 6.55 43.79 0.06 7.6 2.62 12.74
3/27/2021 11:00:00 AM 6.6 43.88 0.06 7.67 2.63 12.8
3/27/2021 11:15:00 AM 6.67 44.006 0.06 7.75 2.63 12.86
3/27/2021 11:30:00 AM 6.77 44.186 0.06 7.86 2.6 12.89
3/27/2021 11:45:00 AM 6.91 44.438 0.06 7.94 2.53 12.91
3/27/2021 12:00:00 PM 7.12 44.816 0.06 8.03 2.52 12.88
3/27/2021 12:15:00 PM 7.34 45.212 0.06 8.08 2.67 12.84
3/27/2021 12:30:00 PM 7.47 45.446 0.06 8.14 2.58 12.8
3/27/2021 12:45:00 PM 7.72 45.896 0.06 8.18 2.62 12.74
3/27/2021 1:00:00 PM 7.84 46.112 0.06 8.21 2.59 12.68
3/27/2021 1:15:00 PM 7.98 46.364 0.06 8.24 2.61 12.63
3/27/2021 1:30:00 PM 8.33 46.994 0.06 8.28 2.62 12.56
3/27/2021 1:45:00 PM 8.49 47.282 0.06 8.28 2.55 12.49
3/27/2021 2:00:00 PM 8.66 47.588 0.06 8.3 2.54 12.43
3/27/2021 2:15:00 PM 8.87 47.966 0.06 8.35 2.54 12.4
3/27/2021 2:30:00 PM 9.11 48.398 0.06 8.39 2.5 12.32
3/27/2021 2:45:00 PM 9.25 48.65 0.06 8.36 2.55 12.24
3/27/2021 3:00:00 PM 9.2 48.56 0.06 8.37 2.56 12.21
3/27/2021 3:15:00 PM 9.2 48.56 0.06 8.38 2.59 12.19
3/27/2021 3:30:00 PM 9.21 48.578 0.06 8.37 2.54 12.17
3/27/2021 3:45:00 PM 9.2 48.56 0.06 8.38 2.43 12.17
3/27/2021 4:00:00 PM 9.17 48.506 0.06 8.4 2.43 12.18
3/27/2021 4:15:00 PM 9.18 48.524 0.06 8.4 2.48 12.17
3/27/2021 4:30:00 PM 9.19 48.542 0.06 8.41 2.65 12.15
3/27/2021 4:45:00 PM 9.2 48.56 0.06 8.41 2.69 12.13
3/27/2021 5:00:00 PM 9.22 48.596 0.06 8.38 2.51 12.1
3/27/2021 5:15:00 PM 9.25 48.65 0.06 8.34 2.53 12.05
3/27/2021 5:30:00 PM 9.25 48.65 0.06 8.27 2.62 12.01
3/27/2021 5:45:00 PM 9.22 48.596 0.06 8.17 2.59 11.97
3/27/2021 6:00:00 PM 9.2 48.56 0.06 8.08 2.61 11.92
3/27/2021 6:15:00 PM 9.17 48.506 0.06 7.91 2.58 11.85
3/27/2021 6:30:00 PM 9.15 48.47 0.06 7.78 2.57 11.79
3/27/2021 6:45:00 PM 9.12 48.416 0.06 7.68 2.68 11.72
3/27/2021 7:00:00 PM 9.07 48.326 0.06 7.55 2.6 11.6
3/27/2021 7:15:00 PM 9.02 48.236 0.06 7.45 2.59 11.48
3/27/2021 7:30:00 PM 8.96 48.128 0.06 7.38 2.69 11.39
3/27/2021 7:45:00 PM 8.89 48.002 0.06 7.32 2.62 11.32
3/27/2021 8:00:00 PM 8.83 47.894 0.061 7.27 2.64 11.27
3/27/2021 8:15:00 PM 8.77 47.786 0.061 7.24 2.72 11.24
3/27/2021 8:30:00 PM 8.71 47.678 0.061 7.22 2.84 11.23
3/27/2021 8:45:00 PM 8.65 47.57 0.061 7.2 2.73 11.23
3/27/2021 9:00:00 PM 8.58 47.444 0.061 7.19 2.7 11.24
3/27/2021 9:15:00 PM 8.5 47.3 0.062 7.17 2.73 11.25
3/27/2021 9:30:00 PM 8.42 47.156 0.062 7.17 2.75 11.27
3/27/2021 9:45:00 PM 8.34 47.012 0.062 7.16 2.66 11.28
3/27/2021 10:00:00 PM 8.26 46.868 0.062 7.15 2.73 11.3
3/27/2021 10:15:00 PM 8.18 46.724 0.062 7.14 2.73 11.32
3/27/2021 10:30:00 PM 8.11 46.598 0.062 7.15 2.72 11.34
3/27/2021 10:45:00 PM 8.03 46.454 0.062 7.14 2.69 11.36
3/27/2021 11:00:00 PM 7.96 46.328 0.062 7.15 2.74 11.38
3/27/2021 11:15:00 PM 7.89 46.202 0.062 7.15 2.66 11.4
3/27/2021 11:30:00 PM 7.82 46.076 0.063 7.15 2.72 11.41
3/27/2021 11:45:00 PM 7.76 45.968 0.063 7.14 2.73 11.43
3/28/2021 12:00:00 AM 7.7 45.86 0.063 7.15 2.75 11.45
3/28/2021 12:15:00 AM 7.64 45.752 0.063 7.14 2.68 11.47
3/28/2021 12:30:00 AM 7.57 45.626 0.063 7.14 2.71 11.48
3/28/2021 12:45:00 AM 7.5 45.5 0.063 7.15 2.72 11.5
3/28/2021 1:00:00 AM 7.44 45.392 0.063 7.14 2.53 11.52
3/28/2021 1:15:00 AM 7.37 45.266 0.063 7.15 2.61 11.53
3/28/2021 1:30:00 AM 7.3 45.14 0.063 7.14 2.66 11.55
3/28/2021 1:45:00 AM 7.24 45.032 0.063 7.14 2.55 11.57
3/28/2021 2:00:00 AM 7.18 44.924 0.063 7.14 2.6 11.59
3/28/2021 2:15:00 AM 7.12 44.816 0.063 7.13 2.63 11.6
3/28/2021 2:30:00 AM 7.06 44.708 0.063 7.13 2.56 11.62
3/28/2021 2:45:00 AM 7.01 44.618 0.063 7.13 2.62 11.63
3/28/2021 3:00:00 AM 6.97 44.546 0.063 7.14 2.54 11.64
3/28/2021 3:15:00 AM 6.96 44.528 0.063 7.15 2.56 11.65
3/28/2021 3:30:00 AM 6.93 44.474 0.063 7.16 2.53 11.66
3/28/2021 3:45:00 AM 6.9 44.42 0.063 7.16 2.51 11.67
3/28/2021 4:00:00 AM 6.87 44.366 0.063 7.15 2.45 11.67
3/28/2021 4:15:00 AM 6.83 44.294 0.063 7.16 2.52 11.68
3/28/2021 4:30:00 AM 6.79 44.222 0.063 7.15 2.46 11.69
3/28/2021 4:45:00 AM 6.76 44.168 0.063 7.15 2.46 11.7
3/28/2021 5:00:00 AM 6.72 44.096 0.063 7.15 2.43 11.71
3/28/2021 5:15:00 AM 6.72 44.096 0.063 7.15 2.54 11.72
3/28/2021 5:30:00 AM 6.74 44.132 0.063 7.17 2.53 11.71
3/28/2021 5:45:00 AM 6.75 44.15 0.063 7.17 2.56 11.72
3/28/2021 6:00:00 AM 6.77 44.186 0.063 7.16 2.45 11.71
3/28/2021 6:15:00 AM 6.79 44.222 0.063 7.17 2.52 11.7
3/28/2021 6:30:00 AM 6.8 44.24 0.063 7.16 2.49 11.7
3/28/2021 6:45:00 AM 6.81 44.258 0.063 7.17 2.5 11.7
3/28/2021 7:00:00 AM 6.83 44.294 0.063 7.17 2.42 11.69
3/28/2021 7:15:00 AM 6.86 44.348 0.063 7.18 2.49 11.69
3/28/2021 7:30:00 AM 6.88 44.384 0.063 7.18 2.51 11.71
3/28/2021 7:45:00 AM 6.91 44.438 0.063 7.2 2.45 11.73
3/28/2021 8:00:00 AM 6.94 44.492 0.063 7.21 2.49 11.77
3/28/2021 8:15:00 AM 6.96 44.528 0.063 7.22 2.46 11.78
3/28/2021 8:30:00 AM 6.98 44.564 0.063 7.23 2.38 11.78
3/28/2021 8:45:00 AM 7 44.6 0.063 7.24 2.4 11.8
3/28/2021 9:00:00 AM 7.02 44.636 0.064 7.25 2.38 11.82
3/28/2021 9:15:00 AM 7.03 44.654 0.064 7.27 2.45 11.86
3/28/2021 9:30:00 AM 7.05 44.69 0.063 7.29 2.35 11.92
3/28/2021 9:45:00 AM 7.06 44.708 0.063 7.32 2.35 11.97
3/28/2021 10:00:00 AM 7.08 44.744 0.063 7.36 2.35 12.04
3/28/2021 10:15:00 AM 7.11 44.798 0.063 7.4 2.34 12.14
3/28/2021 10:30:00 AM 7.13 44.834 0.063 7.44 2.36 12.17
3/28/2021 10:45:00 AM 7.14 44.852 0.063 7.45 2.28 12.14
3/28/2021 11:00:00 AM 7.17 44.906 0.063 7.47 2.3 12.19
3/28/2021 11:15:00 AM 7.21 44.978 0.063 7.54 2.31 12.27
3/28/2021 11:30:00 AM 7.25 45.05 0.063 7.61 2.31 12.32
3/28/2021 11:45:00 AM 7.29 45.122 0.062 7.68 2.33 12.37
3/28/2021 12:00:00 PM 7.34 45.212 0.062 7.73 2.36 12.4
3/28/2021 12:15:00 PM 7.4 45.32 0.062 7.84 2.31 12.45
3/28/2021 12:30:00 PM 7.45 45.41 0.062 7.92 2.43 12.48
3/28/2021 12:45:00 PM 7.51 45.518 0.062 8.01 2.56 12.49
3/28/2021 1:00:00 PM 7.58 45.644 0.062 8.09 2.65 12.5
3/28/2021 1:15:00 PM 7.63 45.734 0.062 8.17 2.61 12.5
3/28/2021 1:30:00 PM 7.65 45.77 0.062 8.04 2.61 12.4
3/28/2021 1:45:00 PM 7.66 45.788 0.062 7.86 2.59 12.24
3/28/2021 2:00:00 PM 7.69 45.842 0.062 7.8 2.62 12.18
3/28/2021 2:15:00 PM 7.74 45.932 0.062 7.89 2.74 12.24
3/28/2021 2:30:00 PM 7.79 46.022 0.062 7.99 2.71 12.28
3/28/2021 2:45:00 PM 7.85 46.13 0.062 8.08 2.73 12.3
3/28/2021 3:00:00 PM 7.9 46.22 0.062 8.07 2.78 12.26
3/28/2021 3:15:00 PM 7.94 46.292 0.062 7.95 2.94 12.15
3/28/2021 3:30:00 PM 7.99 46.382 0.062 7.92 2.73 12.1
3/28/2021 3:45:00 PM 8.03 46.454 0.062 7.91 2.82 12.07
3/28/2021 4:00:00 PM 8.04 46.472 0.062 7.81 2.85 11.98
3/28/2021 4:15:00 PM 8.05 46.49 0.062 7.72 2.91 11.88
3/28/2021 4:30:00 PM 8.08 46.544 0.062 7.69 2.78 11.84
3/28/2021 4:45:00 PM 8.11 46.598 0.062 7.63 2.86 11.78
3/28/2021 5:00:00 PM 8.13 46.634 0.062 7.56 2.76 11.68
3/28/2021 5:15:00 PM 8.17 46.706 0.062 7.49 2.94 11.6
3/28/2021 5:30:00 PM 8.21 46.778 0.062 7.44 2.89 11.51
3/28/2021 5:45:00 PM 8.24 46.832 0.062 7.41 5.48 11.47
3/28/2021 6:00:00 PM 8.26 46.868 0.062 7.41 3.83 11.5
3/28/2021 6:15:00 PM 8.27 46.886 0.062 7.38 3.33 11.44
3/28/2021 6:30:00 PM 8.28 46.904 0.062 7.35 3.06 11.38
3/28/2021 6:45:00 PM 8.29 46.922 0.062 7.34 3.93 11.33
3/28/2021 7:00:00 PM 8.27 46.886 0.062 7.3 4.17 11.29
3/28/2021 7:15:00 PM 8.25 46.85 0.062 7.29 4.81 11.26
3/28/2021 7:30:00 PM 8.22 46.796 0.063 7.26 6.42 11.24
3/28/2021 7:45:00 PM 8.19 46.742 0.064 7.25 9.56 11.23
3/28/2021 8:00:00 PM 8.15 46.67 0.064 7.23 10.95 11.22
3/28/2021 8:15:00 PM 8.11 46.598 0.063 7.22 12.75 11.22
3/28/2021 8:30:00 PM 8.07 46.526 0.063 7.22 10.1 11.23
3/28/2021 8:45:00 PM 8.04 46.472 0.063 7.2 8.22 11.24
3/28/2021 9:00:00 PM 7.98 46.364 0.064 7.21 9.11 11.26
3/28/2021 9:15:00 PM 7.93 46.274 0.063 7.2 10.01 11.27
3/28/2021 9:30:00 PM 7.87 46.166 0.064 7.19 11.61 11.29
3/28/2021 9:45:00 PM 7.81 46.058 0.064 7.2 13.19 11.31
3/28/2021 10:00:00 PM 7.75 45.95 0.064 7.21 12.85 11.32
3/28/2021 10:15:00 PM 7.7 45.86 0.064 7.2 11.83 11.34
3/28/2021 10:30:00 PM 7.64 45.752 0.063 7.2 11.13 11.35
3/28/2021 10:45:00 PM 7.58 45.644 0.063 7.19 10.74 11.37
3/28/2021 11:00:00 PM 7.51 45.518 0.063 7.2 10.06 11.39
3/28/2021 11:15:00 PM 7.45 45.41 0.063 7.19 9.24 11.41
3/28/2021 11:30:00 PM 7.35 45.23 0.063 7.19 8.44 11.44
3/28/2021 11:45:00 PM 7.27 45.086 0.063 7.18 8.16 11.47
3/29/2021 12:00:00 AM 7.2 44.96 0.063 7.19 7.44 11.5
3/29/2021 12:15:00 AM 7.13 44.834 0.063 7.18 6.95 11.53
3/29/2021 12:30:00 AM 7.05 44.69 0.063 7.18 6.62 11.56
3/29/2021 12:45:00 AM 6.96 44.528 0.063 7.18 6.25 11.59
3/29/2021 1:00:00 AM 6.87 44.366 0.063 7.19 5.84 11.62
3/29/2021 1:15:00 AM 6.77 44.186 0.063 7.17 5.57 11.65
3/29/2021 1:30:00 AM 6.68 44.024 0.063 7.16 5.51 11.68
3/29/2021 1:45:00 AM 6.59 43.862 0.063 7.17 5.76 11.71
3/29/2021 2:00:00 AM 6.52 43.736 0.063 7.18 5.37 11.73
3/29/2021 2:15:00 AM 6.44 43.592 0.063 7.17 5.15 11.76
3/29/2021 2:30:00 AM 6.36 43.448 0.063 7.17 4.83 11.79
3/29/2021 2:45:00 AM 6.27 43.286 0.063 7.17 4.9 11.82
3/29/2021 3:00:00 AM 6.19 43.142 0.063 7.17 4.86 11.85
3/29/2021 3:15:00 AM 6.11 42.998 0.064 7.17 4.68 11.88
3/29/2021 3:30:00 AM 6.03 42.854 0.064 7.16 4.71 11.91
3/29/2021 3:45:00 AM 5.96 42.728 0.064 7.17 4.64 11.94
3/29/2021 4:00:00 AM 5.9 42.62 0.064 7.17 4.49 11.96
3/29/2021 4:15:00 AM 5.83 42.494 0.064 7.17 4.43 11.99
3/29/2021 4:30:00 AM 5.75 42.35 0.064 7.17 4.39 12.02
3/29/2021 4:45:00 AM 5.67 42.206 0.064 7.17 4.35 12.05
3/29/2021 5:00:00 AM 5.61 42.098 0.064 7.18 4.21 12.07
3/29/2021 5:15:00 AM 5.55 41.99 0.064 7.18 4.11 12.09
3/29/2021 5:30:00 AM 5.48 41.864 0.064 7.18 4.05 12.12
3/29/2021 5:45:00 AM 5.41 41.738 0.064 7.17 4.02 12.15
3/29/2021 6:00:00 AM 5.34 41.612 0.064 7.18 3.88 12.18
3/29/2021 6:15:00 AM 5.28 41.504 0.064 7.17 3.81 12.2
3/29/2021 6:30:00 AM 5.22 41.396 0.064 7.17 3.82 12.23
3/29/2021 6:45:00 AM 5.18 41.324 0.064 7.19 3.73 12.25
3/29/2021 7:00:00 AM 5.13 41.234 0.064 7.18 3.67 12.27
3/29/2021 7:15:00 AM 5.08 41.144 0.064 7.19 3.64 12.31
3/29/2021 7:30:00 AM 5.04 41.072 0.064 7.2 3.56 12.36
3/29/2021 7:45:00 AM 5.01 41.018 0.064 7.22 3.5 12.44
3/29/2021 8:00:00 AM 4.96 40.928 0.064 7.23 3.52 12.49
3/29/2021 8:15:00 AM 4.93 40.874 0.064 7.25 3.42 12.54
3/29/2021 8:30:00 AM 4.9 40.82 0.064 7.26 3.25 12.6
3/29/2021 8:45:00 AM 4.87 40.766 0.064 7.28 3.21 12.63
3/29/2021 9:00:00 AM 4.84 40.712 0.064 7.29 3.15 12.7
3/29/2021 9:15:00 AM 4.82 40.676 0.064 7.31 3.12 12.75
3/29/2021 9:30:00 AM 4.8 40.64 0.063 7.33 3.13 12.8
3/29/2021 9:45:00 AM 4.78 40.604 0.063 7.36 3.06 12.87
3/29/2021 10:00:00 AM 4.78 40.604 0.063 7.43 2.94 13.01
3/29/2021 10:15:00 AM 4.8 40.64 0.063 7.47 2.91 13.12
3/29/2021 10:30:00 AM 4.8 40.64 0.063 7.55 2.89 13.2
3/29/2021 10:45:00 AM 4.82 40.676 0.063 7.58 2.86 13.25
3/29/2021 11:00:00 AM 4.84 40.712 0.063 7.67 2.77 13.31
3/29/2021 11:15:00 AM 4.88 40.784 0.063 7.72 2.8 13.35
3/29/2021 11:30:00 AM 4.96 40.928 0.063 7.82 2.75 13.4
3/29/2021 11:45:00 AM 5.04 41.072 0.063 7.87 2.74 13.41
3/29/2021 12:00:00 PM 5.14 41.252 0.062 7.95 2.71 13.41
3/29/2021 12:15:00 PM 5.33 41.594 0.062 8 2.78 13.38
3/29/2021 12:30:00 PM 5.46 41.828 0.062 8.05 2.65 13.38
3/29/2021 12:45:00 PM 5.68 42.224 0.062 8.09 2.64 13.34
3/29/2021 1:00:00 PM 5.85 42.53 0.062 8.12 2.62 13.29
3/29/2021 1:15:00 PM 6.06 42.908 0.062 8.16 2.62 13.24
3/29/2021 1:30:00 PM 6.24 43.232 0.062 8.17 2.6 13.17
3/29/2021 1:45:00 PM 6.32 43.376 0.062 8.17 4.82 13.12
3/29/2021 2:00:00 PM 6.42 43.556 0.062 8.15 3.41 13.07
3/29/2021 2:15:00 PM 6.56 43.808 0.061 8.16 2.87 13.02
3/29/2021 2:30:00 PM 6.65 43.97 0.061 8.14 2.75 12.97
3/29/2021 2:45:00 PM 6.72 44.096 0.062 8.13 2.73 12.93
3/29/2021 3:00:00 PM 6.79 44.222 0.062 8.12 2.71 12.89
3/29/2021 3:15:00 PM 6.85 44.33 0.062 8.11 2.71 12.85
3/29/2021 3:30:00 PM 6.91 44.438 0.062 8.09 2.74 12.8
3/29/2021 3:45:00 PM 6.98 44.564 0.061 8.07 2.77 12.76
3/29/2021 4:00:00 PM 7.06 44.708 0.061 8.06 2.72 12.7
3/29/2021 4:15:00 PM 7.12 44.816 0.061 8.04 2.7 12.65
3/29/2021 4:30:00 PM 7.15 44.87 0.061 7.99 2.77 12.62
3/29/2021 4:45:00 PM 7.16 44.888 0.062 7.95 2.91 12.58
3/29/2021 5:00:00 PM 7.13 44.834 0.062 7.91 2.87 12.54
3/29/2021 5:15:00 PM 7.09 44.762 0.062 7.85 2.79 12.52
3/29/2021 5:30:00 PM 7.05 44.69 0.062 7.79 2.67 12.48
3/29/2021 5:45:00 PM 6.98 44.564 0.062 7.73 2.71 12.44
3/29/2021 6:00:00 PM 6.92 44.456 0.062 7.66 2.65 12.39
3/29/2021 6:15:00 PM 6.86 44.348 0.062 7.59 2.64 12.33
3/29/2021 6:30:00 PM 6.81 44.258 0.062 7.54 2.63 12.29
3/29/2021 6:45:00 PM 6.75 44.15 0.062 7.49 2.71 12.25
3/29/2021 7:00:00 PM 6.68 44.024 0.063 7.45 2.64 12.21
3/29/2021 7:15:00 PM 6.61 43.898 0.063 7.39 2.68 12.16
3/29/2021 7:30:00 PM 6.54 43.772 0.063 7.35 2.7 12.1
3/29/2021 7:45:00 PM 6.47 43.646 0.063 7.31 2.65 12.06
3/29/2021 8:00:00 PM 6.4 43.52 0.063 7.29 2.58 12.03
3/29/2021 8:15:00 PM 6.33 43.394 0.063 7.26 2.67 12.02
3/29/2021 8:30:00 PM 6.24 43.232 0.063 7.24 2.7 12.02
3/29/2021 8:45:00 PM 6.15 43.07 0.064 7.24 2.67 12.03
3/29/2021 9:00:00 PM 6.06 42.908 0.064 7.22 2.68 12.05
3/29/2021 9:15:00 PM 5.96 42.728 0.064 7.2 2.71 12.08
3/29/2021 9:30:00 PM 5.87 42.566 0.064 7.21 2.67 12.1
3/29/2021 9:45:00 PM 5.78 42.404 0.064 7.19 2.74 12.13
3/29/2021 10:00:00 PM 5.69 42.242 0.064 7.2 2.83 12.16
3/29/2021 10:15:00 PM 5.6 42.08 0.064 7.19 2.95 12.18
3/29/2021 10:30:00 PM 5.52 41.936 0.064 7.18 3.21 12.21
3/29/2021 10:45:00 PM 5.43 41.774 0.064 7.19 3.11 12.24
3/29/2021 11:00:00 PM 5.35 41.63 0.064 7.18 2.88 12.27
3/29/2021 11:15:00 PM 5.27 41.486 0.064 7.18 2.71 12.3
3/29/2021 11:30:00 PM 5.2 41.36 0.064 7.18 2.7 12.32
3/29/2021 11:45:00 PM 5.13 41.234 0.064 7.19 2.6 12.35
3/30/2021 12:00:00 AM 5.06 41.108 0.064 7.17 2.6 12.37
3/30/2021 12:15:00 AM 5 41 0.064 7.18 2.59 12.4
3/30/2021 12:30:00 AM 4.93 40.874 0.065 7.18 2.65 12.42
3/30/2021 12:45:00 AM 4.87 40.766 0.065 7.19 2.63 12.45
3/30/2021 1:00:00 AM 4.8 40.64 0.065 7.18 2.59 12.47
3/30/2021 1:15:00 AM 4.74 40.532 0.065 7.16 2.49 12.49
3/30/2021 1:30:00 AM 4.68 40.424 0.065 7.17 2.57 12.52
3/30/2021 1:45:00 AM 4.62 40.316 0.065 7.18 2.58 12.55
3/30/2021 2:00:00 AM 4.55 40.19 0.065 7.19 2.51 12.57
3/30/2021 2:15:00 AM 4.49 40.082 0.065 7.17 2.52 12.6
3/30/2021 2:30:00 AM 4.43 39.974 0.065 7.19 2.53 12.62
3/30/2021 2:45:00 AM 4.37 39.866 0.065 7.18 2.57 12.64
3/30/2021 3:00:00 AM 4.31 39.758 0.065 7.18 2.45 12.67
3/30/2021 3:15:00 AM 4.25 39.65 0.065 7.17 2.47 12.69
3/30/2021 3:30:00 AM 4.2 39.56 0.065 7.17 2.48 12.71
3/30/2021 3:45:00 AM 4.14 39.452 0.065 7.18 2.45 12.73
3/30/2021 4:00:00 AM 4.09 39.362 0.065 7.17 2.44 12.75
3/30/2021 4:15:00 AM 4.04 39.272 0.065 7.18 2.37 12.77
3/30/2021 4:30:00 AM 3.98 39.164 0.065 7.16 2.43 12.79
3/30/2021 4:45:00 AM 3.93 39.074 0.065 7.18 2.45 12.81
3/30/2021 5:00:00 AM 3.88 38.984 0.065 7.17 2.4 12.83
3/30/2021 5:15:00 AM 3.83 38.894 0.065 7.17 2.57 12.85
3/30/2021 5:30:00 AM 3.78 38.804 0.065 7.18 2.65 12.87
3/30/2021 5:45:00 AM 3.73 38.714 0.065 7.18 2.72 12.89
3/30/2021 6:00:00 AM 3.68 38.624 0.065 7.17 2.87 12.91
3/30/2021 6:15:00 AM 3.64 38.552 0.065 7.19 3.14 12.93
3/30/2021 6:30:00 AM 3.6 38.48 0.065 7.18 2.87 12.95
3/30/2021 6:45:00 AM 3.56 38.408 0.065 7.18 2.69 12.97
3/30/2021 7:00:00 AM 3.51 38.318 0.065 7.19 2.61 13.02
3/30/2021 7:15:00 AM 3.48 38.264 0.065 7.2 2.46 13.07
3/30/2021 7:30:00 AM 3.44 38.192 0.065 7.22 2.53 13.15
3/30/2021 7:45:00 AM 3.41 38.138 0.065 7.23 2.43 13.23
3/30/2021 8:00:00 AM 3.39 38.102 0.065 7.27 2.45 13.31
3/30/2021 8:15:00 AM 3.4 38.12 0.065 7.3 2.32 13.44
3/30/2021 8:30:00 AM 3.42 38.156 0.065 7.37 2.38 13.57
3/30/2021 8:45:00 AM 3.46 38.228 0.065 7.42 2.36 13.67
3/30/2021 9:00:00 AM 3.52 38.336 0.065 7.47 2.34 13.75
3/30/2021 9:15:00 AM 3.63 38.534 0.065 7.54 2.29 13.83
3/30/2021 9:30:00 AM 3.77 38.786 0.065 7.6 2.27 13.87
3/30/2021 9:45:00 AM 3.93 39.074 0.065 7.66 2.25 13.88
3/30/2021 10:00:00 AM 4.11 39.398 0.064 7.74 2.26 13.89
3/30/2021 10:15:00 AM 4.31 39.758 0.064 7.81 2.26 13.88
3/30/2021 10:30:00 AM 4.5 40.1 0.064 7.88 2.34 13.85
3/30/2021 10:45:00 AM 4.72 40.496 0.064 7.93 2.28 13.81
3/30/2021 11:00:00 AM 4.94 40.892 0.064 7.98 2.24 13.76
3/30/2021 11:15:00 AM 5.19 41.342 0.064 8.04 2.25 13.69
3/30/2021 11:30:00 AM 5.45 41.81 0.064 8.09 2.24 13.62
3/30/2021 11:45:00 AM 5.73 42.314 0.064 8.14 2.27 13.53
3/30/2021 12:00:00 PM 6.02 42.836 0.064 8.2 2.32 13.44
3/30/2021 12:15:00 PM 6.3 43.34 0.064 8.23 2.38 13.35
3/30/2021 12:30:00 PM 6.58 43.844 0.064 8.28 2.37 13.25
3/30/2021 12:45:00 PM 6.85 44.33 0.064 8.32 2.37 13.17
3/30/2021 1:00:00 PM 7.12 44.816 0.064 8.35 2.34 13.07
3/30/2021 1:15:00 PM 7.37 45.266 0.063 8.39 2.29 12.99
3/30/2021 1:30:00 PM 7.62 45.716 0.063 8.4 2.26 12.9
3/30/2021 1:45:00 PM 7.83 46.094 0.063 8.43 2.21 12.82
3/30/2021 2:00:00 PM 8.03 46.454 0.063 8.43 2.25 12.75
3/30/2021 2:15:00 PM 8.21 46.778 0.063 8.45 2.25 12.68
3/30/2021 2:30:00 PM 8.38 47.084 0.063 8.45 2.38 12.6
3/30/2021 2:45:00 PM 8.52 47.336 0.063 8.45 2.32 12.54
3/30/2021 3:00:00 PM 8.65 47.57 0.063 8.45 2.26 12.47
3/30/2021 3:15:00 PM 8.76 47.768 0.063 8.44 2.21 12.41
3/30/2021 3:30:00 PM 8.86 47.948 0.063 8.42 2.25 12.35
3/30/2021 3:45:00 PM 8.95 48.11 0.063 8.41 2.3 12.29
3/30/2021 4:00:00 PM 9.02 48.236 0.063 8.39 2.26 12.23
3/30/2021 4:15:00 PM 9.08 48.344 0.063 8.36 2.25 12.18
3/30/2021 4:30:00 PM 9.14 48.452 0.063 8.35 2.27 12.15
3/30/2021 4:45:00 PM 9.19 48.542 0.063 8.32 2.31 12.1
3/30/2021 5:00:00 PM 9.21 48.578 0.063 8.26 2.3 12.06
3/30/2021 5:15:00 PM 9.2 48.56 0.063 8.17 2.34 12
3/30/2021 5:30:00 PM 9.2 48.56 0.063 8.09 2.29 11.95
3/30/2021 5:45:00 PM 9.17 48.506 0.063 7.92 2.33 11.86
3/30/2021 6:00:00 PM 9.13 48.434 0.063 7.85 2.28 11.84
3/30/2021 6:15:00 PM 9.12 48.416 0.063 7.83 2.33 11.84
3/30/2021 6:30:00 PM 9.07 48.326 0.063 7.74 2.27 11.79
3/30/2021 6:45:00 PM 9.01 48.218 0.064 7.65 2.34 11.71
3/30/2021 7:00:00 PM 8.95 48.11 0.064 7.55 2.38 11.6
3/30/2021 7:15:00 PM 8.89 48.002 0.064 7.47 2.35 11.49
3/30/2021 7:30:00 PM 8.83 47.894 0.064 7.4 2.43 11.4
3/30/2021 7:45:00 PM 8.76 47.768 0.064 7.35 2.44 11.33
3/30/2021 8:00:00 PM 8.69 47.642 0.064 7.31 2.39 11.29
3/30/2021 8:15:00 PM 8.62 47.516 0.065 7.28 2.49 11.26
3/30/2021 8:30:00 PM 8.55 47.39 0.065 7.25 2.46 11.25
3/30/2021 8:45:00 PM 8.47 47.246 0.065 7.24 2.43 11.26
3/30/2021 9:00:00 PM 8.39 47.102 0.065 7.23 2.42 11.27
3/30/2021 9:15:00 PM 8.31 46.958 0.065 7.21 2.41 11.28
3/30/2021 9:30:00 PM 8.23 46.814 0.065 7.22 2.49 11.3
3/30/2021 9:45:00 PM 8.15 46.67 0.066 7.2 2.64 11.32
3/30/2021 10:00:00 PM 8.06 46.508 0.066 7.2 2.5 11.35
3/30/2021 10:15:00 PM 7.98 46.364 0.066 7.18 2.47 11.37
3/30/2021 10:30:00 PM 7.9 46.22 0.066 7.19 2.55 11.39
3/30/2021 10:45:00 PM 7.82 46.076 0.066 7.18 2.51 11.42
3/30/2021 11:00:00 PM 7.75 45.95 0.066 7.18 2.53 11.44
3/30/2021 11:15:00 PM 7.68 45.824 0.066 7.19 2.44 11.46
3/30/2021 11:30:00 PM 7.61 45.698 0.066 7.18 2.47 11.48
3/30/2021 11:45:00 PM 7.55 45.59 0.066 7.18 2.46 11.5
3/31/2021 12:00:00 AM 7.49 45.482 0.066 7.19 2.46 11.52
3/31/2021 12:15:00 AM 7.43 45.374 0.066 7.18 2.55 11.53
3/31/2021 12:30:00 AM 7.38 45.284 0.066 7.18 2.45 11.55
3/31/2021 12:45:00 AM 7.33 45.194 0.066 7.18 2.34 11.56
3/31/2021 1:00:00 AM 7.29 45.122 0.066 7.18 2.36 11.58
3/31/2021 1:15:00 AM 7.24 45.032 0.067 7.17 2.35 11.59
3/31/2021 1:30:00 AM 7.19 44.942 0.067 7.18 2.41 11.6
3/31/2021 1:45:00 AM 7.15 44.87 0.067 7.18 2.39 11.61
3/31/2021 2:00:00 AM 7.1 44.78 0.067 7.18 2.36 11.62
3/31/2021 2:15:00 AM 7.06 44.708 0.067 7.17 2.37 11.64
3/31/2021 2:30:00 AM 7.01 44.618 0.067 7.18 2.48 11.65
3/31/2021 2:45:00 AM 6.97 44.546 0.067 7.17 2.31 11.66
3/31/2021 3:00:00 AM 6.93 44.474 0.067 7.17 2.38 11.67
3/31/2021 3:15:00 AM 6.89 44.402 0.067 7.18 2.35 11.68
3/31/2021 3:30:00 AM 6.84 44.312 0.067 7.17 2.37 11.7
3/31/2021 3:45:00 AM 6.8 44.24 0.067 7.17 2.34 11.71
3/31/2021 4:00:00 AM 6.75 44.15 0.067 7.17 2.3 11.72
3/31/2021 4:15:00 AM 6.7 44.06 0.067 7.17 2.3 11.74
3/31/2021 4:30:00 AM 6.65 43.97 0.067 7.17 2.25 11.75
3/31/2021 4:45:00 AM 6.61 43.898 0.067 7.17 2.41 11.76
3/31/2021 5:00:00 AM 6.56 43.808 0.067 7.18 2.26 11.77
3/31/2021 5:15:00 AM 6.53 43.754 0.067 7.17 2.25 11.78
3/31/2021 5:30:00 AM 6.49 43.682 0.067 7.17 2.38 11.8
3/31/2021 5:45:00 AM 6.47 43.646 0.067 7.17 2.35 11.81
3/31/2021 6:00:00 AM 6.44 43.592 0.067 7.17 2.32 11.82
3/31/2021 6:15:00 AM 6.41 43.538 0.067 7.16 2.29 11.83
3/31/2021 6:30:00 AM 6.38 43.484 0.067 7.17 2.32 11.84
3/31/2021 6:45:00 AM 6.36 43.448 0.067 7.16 2.34 11.85
3/31/2021 7:00:00 AM 6.35 43.43 0.067 7.19 2.3 11.88
3/31/2021 7:15:00 AM 6.34 43.412 0.067 7.2 2.31 11.93
3/31/2021 7:30:00 AM 6.34 43.412 0.067 7.22 2.4 12
3/31/2021 7:45:00 AM 6.35 43.43 0.067 7.25 2.29 12.1
3/31/2021 8:00:00 AM 6.36 43.448 0.067 7.28 2.35 12.21
3/31/2021 8:15:00 AM 6.38 43.484 0.067 7.33 2.29 12.32
3/31/2021 8:30:00 AM 6.39 43.502 0.067 7.38 2.27 12.43
3/31/2021 8:45:00 AM 6.42 43.556 0.066 7.44 2.28 12.52
3/31/2021 9:00:00 AM 6.45 43.61 0.066 7.52 2.23 12.63
3/31/2021 9:15:00 AM 6.48 43.664 0.066 7.61 2.3 12.74
3/31/2021 9:30:00 AM 6.52 43.736 0.066 7.69 2.28 12.82
3/31/2021 9:45:00 AM 6.56 43.808 0.066 7.79 2.3 12.88
3/31/2021 10:00:00 AM 6.62 43.916 0.066 7.91 2.32 12.93
3/31/2021 10:15:00 AM 6.68 44.024 0.066 8.04 2.22 12.97
3/31/2021 10:30:00 AM 6.75 44.15 0.066 8.17 2.19 12.99
3/31/2021 10:45:00 AM 6.84 44.312 0.066 8.3 2.2 13.01
3/31/2021 11:00:00 AM 6.94 44.492 0.066 8.39 2.21 13
3/31/2021 11:15:00 AM 7.04 44.672 0.066 8.47 2.32 12.99
3/31/2021 11:30:00 AM 7.13 44.834 0.066 8.53 2.22 12.96
3/31/2021 11:45:00 AM 7.22 44.996 0.065 8.55 2.21 12.9
3/31/2021 12:00:00 PM 7.29 45.122 0.065 8.55 2.23 12.84
3/31/2021 12:15:00 PM 7.37 45.266 0.065 8.52 2.22 12.77
3/31/2021 12:30:00 PM 7.44 45.392 0.065 8.47 2.19 12.7
3/31/2021 12:45:00 PM 7.49 45.482 0.065 8.43 2.21 12.64
3/31/2021 1:00:00 PM 7.55 45.59 0.065 8.36 2.21 12.58
3/31/2021 1:15:00 PM 7.6 45.68 0.065 8.38 2.18 12.57
3/31/2021 1:30:00 PM 7.66 45.788 0.065 8.32 2.2 12.51
3/31/2021 1:45:00 PM 7.73 45.914 0.065 8.4 2.16 12.54
3/31/2021 2:00:00 PM 7.8 46.04 0.065 8.41 2.21 12.51
3/31/2021 2:15:00 PM 7.87 46.166 0.065 8.43 2.16 12.49
3/31/2021 2:30:00 PM 7.93 46.274 0.065 8.37 2.21 12.43
3/31/2021 2:45:00 PM 7.98 46.364 0.065 8.32 2.17 12.38
3/31/2021 3:00:00 PM 8.04 46.472 0.065 8.33 2.14 12.38
3/31/2021 3:15:00 PM 8.1 46.58 0.065 8.38 2.13 12.38
3/31/2021 3:30:00 PM 8.18 46.724 0.065 8.5 2.16 12.43
3/31/2021 3:45:00 PM 8.27 46.886 0.065 8.6 2.14 12.45
3/31/2021 4:00:00 PM 8.32 46.976 0.065 8.48 2.21 12.35
3/31/2021 4:15:00 PM 8.36 47.048 0.065 8.36 2.31 12.27
3/31/2021 4:30:00 PM 8.4 47.12 0.065 8.17 2.26 12.15
3/31/2021 4:45:00 PM 8.43 47.174 0.065 7.94 2.27 12.02
3/31/2021 5:00:00 PM 8.43 47.174 0.065 7.75 2.26 11.86
3/31/2021 5:15:00 PM 8.43 47.174 0.065 7.65 2.36 11.77
3/31/2021 5:30:00 PM 8.43 47.174 0.065 7.59 2.14 11.73
3/31/2021 5:45:00 PM 8.43 47.174 0.066 7.52 2.27 11.63
3/31/2021 6:00:00 PM 8.44 47.192 0.066 7.46 2.24 11.54
3/31/2021 6:15:00 PM 8.45 47.21 0.066 7.4 2.27 11.48
3/31/2021 6:30:00 PM 8.44 47.192 0.066 7.36 2.19 11.42
3/31/2021 6:45:00 PM 8.44 47.192 0.066 7.33 2.29 11.37
3/31/2021 7:00:00 PM 8.43 47.174 0.066 7.3 2.25 11.33
3/31/2021 7:15:00 PM 8.41 47.138 0.066 7.26 2.25 11.3
3/31/2021 7:30:00 PM 8.4 47.12 0.066 7.25 2.39 11.27
3/31/2021 7:45:00 PM 8.39 47.102 0.066 7.22 2.29 11.24
3/31/2021 8:00:00 PM 8.38 47.084 0.066 7.22 2.32 11.22
3/31/2021 8:15:00 PM 8.35 47.03 0.066 7.21 2.61 11.21
3/31/2021 8:30:00 PM 8.32 46.976 0.066 7.21 2.6 11.21
3/31/2021 8:45:00 PM 8.28 46.904 0.066 7.2 2.73 11.21
3/31/2021 9:00:00 PM 8.24 46.832 0.067 7.21 2.73 11.22
3/31/2021 9:15:00 PM 8.19 46.742 0.067 7.2 2.74 11.24
3/31/2021 9:30:00 PM 8.14 46.652 0.067 7.2 2.76 11.25
3/31/2021 9:45:00 PM 8.08 46.544 0.067 7.2 2.93 11.27
3/31/2021 10:00:00 PM 8.03 46.454 0.067 7.21 2.98 11.28
3/31/2021 10:15:00 PM 7.98 46.364 0.067 7.21 3.06 11.3
3/31/2021 10:30:00 PM 7.93 46.274 0.067 7.2 3.13 11.31
3/31/2021 10:45:00 PM 7.88 46.184 0.067 7.22 3.28 11.33
3/31/2021 11:00:00 PM 7.83 46.094 0.067 7.21 3.39 11.35
3/31/2021 11:15:00 PM 7.78 46.004 0.067 7.23 3.42 11.37
3/31/2021 11:30:00 PM 7.72 45.896 0.067 7.23 3.53 11.38
3/31/2021 11:45:00 PM 7.66 45.788 0.067 7.21 3.75 11.4
4/1/2021 12:00:00 AM 7.61 45.698 0.067 7.22 3.79 11.42
4/1/2021 12:15:00 AM 7.55 45.59 0.067 7.22 3.9 11.44
4/1/2021 12:30:00 AM 7.5 45.5 0.068 7.23 4.11 11.45
4/1/2021 12:45:00 AM 7.45 45.41 0.068 7.24 4.2 11.47
4/1/2021 1:00:00 AM 7.41 45.338 0.068 7.23 3.94 11.48
4/1/2021 1:15:00 AM 7.36 45.248 0.068 7.22 3.86 11.5
4/1/2021 1:30:00 AM 7.3 45.14 0.068 7.24 3.95 11.51
4/1/2021 1:45:00 AM 7.25 45.05 0.068 7.22 3.93 11.53
4/1/2021 2:00:00 AM 7.2 44.96 0.068 7.24 3.69 11.54
4/1/2021 2:15:00 AM 7.15 44.87 0.068 7.23 3.47 11.56
4/1/2021 2:30:00 AM 7.09 44.762 0.068 7.21 3.3 11.58
4/1/2021 2:45:00 AM 7.03 44.654 0.068 7.24 3.25 11.6
4/1/2021 3:00:00 AM 6.96 44.528 0.068 7.23 3.23 11.62
4/1/2021 3:15:00 AM 6.9 44.42 0.068 7.24 3.36 11.64
4/1/2021 3:30:00 AM 6.8 44.24 0.068 7.23 3.21 11.66
4/1/2021 3:45:00 AM 6.68 44.024 0.068 7.22 3.13 11.68
4/1/2021 4:00:00 AM 6.57 43.826 0.068 7.23 3.17 11.71
4/1/2021 4:15:00 AM 6.47 43.646 0.068 7.2 3.08 11.74
4/1/2021 4:30:00 AM 6.38 43.484 0.068 7.22 3.05 11.77
4/1/2021 4:45:00 AM 6.29 43.322 0.068 7.21 3.01 11.8
4/1/2021 5:00:00 AM 6.19 43.142 0.068 7.22 2.96 11.83
4/1/2021 5:15:00 AM 6.08 42.944 0.068 7.21 2.91 11.86
4/1/2021 5:30:00 AM 5.95 42.71 0.068 7.22 2.85 11.9
4/1/2021 5:45:00 AM 5.85 42.53 0.068 7.23 2.9 11.94
4/1/2021 6:00:00 AM 5.76 42.368 0.068 7.21 2.87 11.98
4/1/2021 6:15:00 AM 5.69 42.242 0.068 7.21 2.81 12.01
4/1/2021 6:30:00 AM 5.6 42.08 0.069 7.22 2.9 12.04
4/1/2021 6:45:00 AM 5.5 41.9 0.069 7.22 2.98 12.07
4/1/2021 7:00:00 AM 5.43 41.774 0.069 7.21 2.94 12.11
4/1/2021 7:15:00 AM 5.32 41.576 0.069 7.23 2.88 12.16
4/1/2021 7:30:00 AM 5.21 41.378 0.069 7.21 2.93 12.21
4/1/2021 7:45:00 AM 5.15 41.27 0.069 7.24 2.92 12.28
4/1/2021 8:00:00 AM 5.09 41.162 0.069 7.27 2.99 12.4
4/1/2021 8:15:00 AM 5.04 41.072 0.069 7.3 2.96 12.52
4/1/2021 8:30:00 AM 5.01 41.018 0.069 7.35 3.04 12.65
4/1/2021 8:45:00 AM 4.99 40.982 0.069 7.42 2.96 12.81
4/1/2021 9:00:00 AM 4.99 40.982 0.068 7.49 3.13 13
4/1/2021 9:15:00 AM 4.97 40.946 0.068 7.57 2.87 13.11
4/1/2021 9:30:00 AM 4.95 40.91 0.068 7.65 2.87 13.2
4/1/2021 9:45:00 AM 4.95 40.91 0.068 7.74 2.76 13.28
4/1/2021 10:00:00 AM 4.96 40.928 0.068 7.82 2.79 13.36
4/1/2021 10:15:00 AM 5.01 41.018 0.068 7.96 2.78 13.43
4/1/2021 10:30:00 AM 5.08 41.144 0.068 8.07 2.84 13.47
4/1/2021 10:45:00 AM 5.12 41.216 0.067 8.15 2.66 13.49
4/1/2021 11:00:00 AM 5.16 41.288 0.067 8.23 2.73 13.49
4/1/2021 11:15:00 AM 5.26 41.468 0.067 8.31 2.64 13.5
4/1/2021 11:30:00 AM 5.43 41.774 0.067 8.38 2.69 13.49
4/1/2021 11:45:00 AM 5.52 41.936 0.067 8.42 2.59 13.47
4/1/2021 12:00:00 PM 5.63 42.134 0.067 8.48 2.54 13.46
4/1/2021 12:15:00 PM 5.8 42.44 0.067 8.52 2.53 13.41
4/1/2021 12:30:00 PM 5.92 42.656 0.067 8.56 2.49 13.36
4/1/2021 12:45:00 PM 6.1 42.98 0.067 8.57 2.61 13.31
4/1/2021 1:00:00 PM 6.17 43.106 0.067 8.6 2.54 13.28
4/1/2021 1:15:00 PM 6.17 43.106 0.067 8.6 2.51 13.25
4/1/2021 1:30:00 PM 6.26 43.268 0.067 8.63 2.45 13.2
4/1/2021 1:45:00 PM 6.32 43.376 0.067 8.64 2.44 13.17
4/1/2021 2:00:00 PM 6.38 43.484 0.067 8.67 2.36 13.14
4/1/2021 2:15:00 PM 6.39 43.502 0.067 8.64 2.44 13.08
4/1/2021 2:30:00 PM 6.39 43.502 0.067 8.6 2.51 13.04
4/1/2021 2:45:00 PM 6.37 43.466 0.067 8.61 2.39 13.03
4/1/2021 3:00:00 PM 6.35 43.43 0.067 8.6 2.46 13
4/1/2021 3:15:00 PM 6.34 43.412 0.067 8.59 2.51 13
4/1/2021 3:30:00 PM 6.33 43.394 0.067 8.54 2.46 12.97
4/1/2021 3:45:00 PM 6.31 43.358 0.068 8.51 2.51 12.95
4/1/2021 4:00:00 PM 6.3 43.34 0.068 8.46 2.49 12.94
4/1/2021 4:15:00 PM 6.37 43.466 0.068 8.51 2.56 12.97
4/1/2021 4:30:00 PM 6.34 43.412 0.068 8.4 2.53 12.92
4/1/2021 4:45:00 PM 6.34 43.412 0.068 8.44 2.72 12.94
4/1/2021 5:00:00 PM 6.37 43.466 0.068 8.46 2.57 12.96
4/1/2021 5:15:00 PM 6.23 43.214 0.068 8.32 2.64 12.91
4/1/2021 5:30:00 PM 6.15 43.07 0.068 8.18 2.56 12.86
4/1/2021 5:45:00 PM 6.09 42.962 0.068 7.99 2.58 12.75
4/1/2021 6:00:00 PM 6 42.8 0.068 7.86 2.5 12.71
4/1/2021 6:15:00 PM 5.92 42.656 0.068 7.8 2.58 12.7
4/1/2021 6:30:00 PM 5.83 42.494 0.068 7.7 2.59 12.65
4/1/2021 6:45:00 PM 5.75 42.35 0.068 7.62 2.49 12.59
4/1/2021 7:00:00 PM 5.68 42.224 0.068 7.55 2.47 12.53
4/1/2021 7:15:00 PM 5.63 42.134 0.068 7.47 2.51 12.44
4/1/2021 7:30:00 PM 5.55 41.99 0.068 7.42 2.53 12.36
4/1/2021 7:45:00 PM 5.46 41.828 0.068 7.38 2.5 12.32
4/1/2021 8:00:00 PM 5.38 41.684 0.068 7.34 2.58 12.28
4/1/2021 8:15:00 PM 5.3 41.54 0.069 7.32 2.61 12.27
4/1/2021 8:30:00 PM 5.22 41.396 0.069 7.29 2.59 12.27
4/1/2021 8:45:00 PM 5.14 41.252 0.069 7.26 2.58 12.28
4/1/2021 9:00:00 PM 5.06 41.108 0.069 7.26 2.57 12.3
4/1/2021 9:15:00 PM 4.99 40.982 0.07 7.26 2.53 12.32
4/1/2021 9:30:00 PM 4.92 40.856 0.07 7.24 2.63 12.35
4/1/2021 9:45:00 PM 4.84 40.712 0.07 7.24 2.6 12.37
4/1/2021 10:00:00 PM 4.79 40.622 0.07 7.24 2.48 12.39
4/1/2021 10:15:00 PM 4.72 40.496 0.07 7.22 2.46 12.42
4/1/2021 10:30:00 PM 4.63 40.334 0.07 7.23 2.49 12.44
4/1/2021 10:45:00 PM 4.52 40.136 0.07 7.23 2.48 12.47
4/1/2021 11:00:00 PM 4.44 39.992 0.07 7.23 2.45 12.5
4/1/2021 11:15:00 PM 4.36 39.848 0.07 7.23 2.41 12.53
4/1/2021 11:30:00 PM 4.29 39.722 0.071 7.23 2.44 12.56
4/1/2021 11:45:00 PM 4.21 39.578 0.071 7.21 2.55 12.59
4/2/2021 12:00:00 AM 4.15 39.47 0.071 7.22 2.38 12.61
4/2/2021 12:15:00 AM 4.09 39.362 0.071 7.23 2.44 12.63
4/2/2021 12:30:00 AM 3.98 39.164 0.07 7.23 2.45 12.66
4/2/2021 12:45:00 AM 3.85 38.93 0.07 7.21 2.42 12.68
4/2/2021 1:00:00 AM 3.77 38.786 0.07 7.23 2.43 12.72
4/2/2021 1:15:00 AM 3.69 38.642 0.07 7.23 2.44 12.76
4/2/2021 1:30:00 AM 3.61 38.498 0.07 7.22 2.45 12.8
4/2/2021 1:45:00 AM 3.53 38.354 0.07 7.2 2.42 12.83
4/2/2021 2:00:00 AM 3.45 38.21 0.07 7.21 2.34 12.87
4/2/2021 2:15:00 AM 3.39 38.102 0.07 7.21 2.38 12.9
4/2/2021 2:30:00 AM 3.33 37.994 0.07 7.21 2.4 12.92
4/2/2021 2:45:00 AM 3.25 37.85 0.07 7.21 2.36 12.95
4/2/2021 3:00:00 AM 3.16 37.688 0.07 7.21 2.35 12.98
4/2/2021 3:15:00 AM 3.08 37.544 0.07 7.22 2.42 13.01
4/2/2021 3:30:00 AM 3.01 37.418 0.07 7.22 2.29 13.04
4/2/2021 3:45:00 AM 2.93 37.274 0.07 7.21 2.3 13.07
4/2/2021 4:00:00 AM 2.88 37.184 0.07 7.22 2.31 13.09
4/2/2021 4:15:00 AM 2.83 37.094 0.07 7.22 2.23 13.12
4/2/2021 4:30:00 AM 2.76 36.968 0.07 7.22 2.21 13.15
4/2/2021 4:45:00 AM 2.7 36.86 0.07 7.2 2.23 13.17
4/2/2021 5:00:00 AM 2.65 36.77 0.07 7.22 2.23 13.2
4/2/2021 5:15:00 AM 2.59 36.662 0.07 7.22 2.29 13.22
4/2/2021 5:30:00 AM 2.52 36.536 0.07 7.21 2.19 13.25
4/2/2021 5:45:00 AM 2.46 36.428 0.07 7.22 2.25 13.27
4/2/2021 6:00:00 AM 2.41 36.338 0.07 7.19 2.16 13.29
4/2/2021 6:15:00 AM 2.36 36.248 0.07 7.21 2.17 13.32
4/2/2021 6:30:00 AM 2.32 36.176 0.07 7.21 2.18 13.34
4/2/2021 6:45:00 AM 2.27 36.086 0.07 7.2 2.19 13.37
4/2/2021 7:00:00 AM 2.23 36.014 0.07 7.22 2.15 13.42
4/2/2021 7:15:00 AM 2.19 35.942 0.07 7.24 2.21 13.5
4/2/2021 7:30:00 AM 2.16 35.888 0.07 7.24 2.19 13.59
4/2/2021 7:45:00 AM 2.13 35.834 0.07 7.29 2.18 13.7
4/2/2021 8:00:00 AM 2.11 35.798 0.07 7.33 2.12 13.84
4/2/2021 8:15:00 AM 2.1 35.78 0.07 7.36 2.16 13.95
4/2/2021 8:30:00 AM 2.08 35.744 0.069 7.43 2.15 14.08
4/2/2021 8:45:00 AM 2.08 35.744 0.069 7.48 2.09 14.2
4/2/2021 9:00:00 AM 2.08 35.744 0.069 7.57 2.12 14.32
4/2/2021 9:15:00 AM 2.1 35.78 0.069 7.65 2.08 14.42
4/2/2021 9:30:00 AM 2.13 35.834 0.069 7.71 2.14 14.49
4/2/2021 9:45:00 AM 2.15 35.87 0.069 7.8 2.07 14.55
4/2/2021 10:00:00 AM 2.2 35.96 0.069 7.87 2.08 14.58
4/2/2021 10:15:00 AM 2.3 36.14 0.069 7.95 2.08 14.6
4/2/2021 10:30:00 AM 2.38 36.284 0.069 7.99 2.09 14.59
4/2/2021 10:45:00 AM 2.48 36.464 0.069 8.07 2.1 14.58
4/2/2021 11:00:00 AM 2.56 36.608 0.068 8.12 2.07 14.55
4/2/2021 11:15:00 AM 2.63 36.734 0.068 8.17 2.08 14.52
4/2/2021 11:30:00 AM 2.71 36.878 0.068 8.21 2.05 14.5
4/2/2021 11:45:00 AM 2.78 37.004 0.068 8.24 2.06 14.47
4/2/2021 12:00:00 PM 2.87 37.166 0.068 8.28 2.02 14.45
4/2/2021 12:15:00 PM 3.08 37.544 0.068 8.31 2.06 14.4
4/2/2021 12:30:00 PM 3.27 37.886 0.068 8.3 2.09 14.33
4/2/2021 12:45:00 PM 3.43 38.174 0.068 8.3 2.09 14.26
4/2/2021 1:00:00 PM 3.68 38.624 0.068 8.32 2.13 14.18
4/2/2021 1:15:00 PM 3.93 39.074 0.067 8.31 2.17 14.1
4/2/2021 1:30:00 PM 4.15 39.47 0.067 8.31 2.12 14.02
4/2/2021 1:45:00 PM 4.31 39.758 0.067 8.31 2.13 13.95
4/2/2021 2:00:00 PM 4.45 40.01 0.067 8.28 2.2 13.87
4/2/2021 2:15:00 PM 4.59 40.262 0.067 8.28 2.18 13.81
4/2/2021 2:30:00 PM 4.7 40.46 0.067 8.26 2.2 13.74
4/2/2021 2:45:00 PM 4.76 40.568 0.067 8.26 2.16 13.69
4/2/2021 3:00:00 PM 4.83 40.694 0.067 8.25 2.13 13.63
4/2/2021 3:15:00 PM 4.9 40.82 0.067 8.23 2.09 13.57
4/2/2021 3:30:00 PM 4.98 40.964 0.067 8.22 2.06 13.51
4/2/2021 3:45:00 PM 5.03 41.054 0.067 8.18 2.06 13.46
4/2/2021 4:00:00 PM 5.04 41.072 0.067 8.17 2.1 13.42
4/2/2021 4:15:00 PM 5.04 41.072 0.067 8.13 2.1 13.38
4/2/2021 4:30:00 PM 5.05 41.09 0.067 8.11 2.11 13.36
4/2/2021 4:45:00 PM 5.04 41.072 0.067 8.11 2.11 13.34
4/2/2021 5:00:00 PM 5.02 41.036 0.067 8.06 2.12 13.32
4/2/2021 5:15:00 PM 4.99 40.982 0.067 8.06 2.12 13.33
4/2/2021 5:30:00 PM 4.95 40.91 0.067 8 2.12 13.3
4/2/2021 5:45:00 PM 4.87 40.766 0.067 7.91 2.09 13.27
4/2/2021 6:00:00 PM 4.76 40.568 0.067 7.81 2.11 13.22
4/2/2021 6:15:00 PM 4.66 40.388 0.067 7.72 2.07 13.17
4/2/2021 6:30:00 PM 4.56 40.208 0.067 7.63 2.19 13.11
4/2/2021 6:45:00 PM 4.48 40.064 0.067 7.59 2.13 13.08
4/2/2021 7:00:00 PM 4.37 39.866 0.067 7.53 2.18 13.04
4/2/2021 7:15:00 PM 4.26 39.668 0.068 7.48 2.15 12.98
4/2/2021 7:30:00 PM 4.18 39.524 0.068 7.42 2.17 12.93
4/2/2021 7:45:00 PM 4.09 39.362 0.068 7.38 2.13 12.88
4/2/2021 8:00:00 PM 4.02 39.236 0.068 7.33 2.16 12.85
4/2/2021 8:15:00 PM 3.94 39.092 0.068 7.31 2.24 12.83
4/2/2021 8:30:00 PM 3.87 38.966 0.068 7.29 2.16 12.83
4/2/2021 8:45:00 PM 3.78 38.804 0.068 7.27 2.35 12.84
4/2/2021 9:00:00 PM 3.69 38.642 0.069 7.26 2.2 12.87
4/2/2021 9:15:00 PM 3.61 38.498 0.069 7.26 2.14 12.89
4/2/2021 9:30:00 PM 3.52 38.336 0.069 7.25 2.14 12.92
4/2/2021 9:45:00 PM 3.44 38.192 0.069 7.24 2.13 12.95
4/2/2021 10:00:00 PM 3.35 38.03 0.069 7.23 2.15 12.98
4/2/2021 10:15:00 PM 3.26 37.868 0.069 7.23 2.13 13.01
4/2/2021 10:30:00 PM 3.17 37.706 0.069 7.23 2.15 13.05
4/2/2021 10:45:00 PM 3.08 37.544 0.069 7.22 2.14 13.07
4/2/2021 11:00:00 PM 3 37.4 0.069 7.23 2.06 13.11
4/2/2021 11:15:00 PM 2.92 37.256 0.069 7.22 2.11 13.14
4/2/2021 11:30:00 PM 2.83 37.094 0.07 7.22 2.08 13.17
4/2/2021 11:45:00 PM 2.76 36.968 0.07 7.22 2.07 13.2
4/3/2021 12:00:00 AM 2.69 36.842 0.07 7.22 2.01 13.23
4/3/2021 12:15:00 AM 2.62 36.716 0.07 7.21 1.98 13.25
4/3/2021 12:30:00 AM 2.54 36.572 0.07 7.21 2.01 13.28
4/3/2021 12:45:00 AM 2.47 36.446 0.07 7.22 2.01 13.31
4/3/2021 1:00:00 AM 2.4 36.32 0.07 7.21 2 13.33
4/3/2021 1:15:00 AM 2.34 36.212 0.07 7.22 2.03 13.36
4/3/2021 1:30:00 AM 2.27 36.086 0.07 7.22 2.04 13.39
4/3/2021 1:45:00 AM 2.2 35.96 0.07 7.22 2.02 13.42
4/3/2021 2:00:00 AM 2.14 35.852 0.07 7.2 1.98 13.45
4/3/2021 2:15:00 AM 2.07 35.726 0.07 7.21 2.02 13.47
4/3/2021 2:30:00 AM 2.01 35.618 0.07 7.21 1.97 13.5
4/3/2021 2:45:00 AM 1.94 35.492 0.07 7.21 2.01 13.52
4/3/2021 3:00:00 AM 1.88 35.384 0.07 7.2 1.98 13.55
4/3/2021 3:15:00 AM 1.82 35.276 0.07 7.21 2 13.57
4/3/2021 3:30:00 AM 1.76 35.168 0.07 7.21 1.95 13.59
4/3/2021 3:45:00 AM 1.7 35.06 0.07 7.21 2.03 13.62
4/3/2021 4:00:00 AM 1.64 34.952 0.07 7.21 1.97 13.64
4/3/2021 4:15:00 AM 1.58 34.844 0.07 7.21 1.97 13.67
4/3/2021 4:30:00 AM 1.53 34.754 0.07 7.22 1.97 13.7
4/3/2021 4:45:00 AM 1.47 34.646 0.07 7.22 1.96 13.72
4/3/2021 5:00:00 AM 1.42 34.556 0.07 7.22 1.94 13.74
4/3/2021 5:15:00 AM 1.36 34.448 0.07 7.2 1.94 13.77
4/3/2021 5:30:00 AM 1.31 34.358 0.07 7.21 1.96 13.8
4/3/2021 5:45:00 AM 1.26 34.268 0.07 7.21 1.94 13.82
4/3/2021 6:00:00 AM 1.2 34.16 0.07 7.21 1.95 13.84
4/3/2021 6:15:00 AM 1.15 34.07 0.07 7.2 1.93 13.87
4/3/2021 6:30:00 AM 1.1 33.98 0.07 7.22 1.95 13.89
4/3/2021 6:45:00 AM 1.05 33.89 0.07 7.22 1.94 13.93
4/3/2021 7:00:00 AM 1.01 33.818 0.07 7.23 1.96 13.99
4/3/2021 7:15:00 AM 0.97 33.746 0.07 7.25 1.9 14.08
4/3/2021 7:30:00 AM 0.93 33.674 0.07 7.26 1.94 14.19
4/3/2021 7:45:00 AM 0.9 33.62 0.07 7.3 1.95 14.3
4/3/2021 8:00:00 AM 0.88 33.584 0.07 7.33 1.94 14.42
4/3/2021 8:15:00 AM 0.9 33.62 0.07 7.38 1.92 14.56
4/3/2021 8:30:00 AM 0.93 33.674 0.07 7.44 1.97 14.67
4/3/2021 8:45:00 AM 0.98 33.764 0.07 7.47 1.94 14.75
4/3/2021 9:00:00 AM 1.05 33.89 0.07 7.54 1.94 14.82
4/3/2021 9:15:00 AM 1.16 34.088 0.07 7.6 1.92 14.88
4/3/2021 9:30:00 AM 1.31 34.358 0.07 7.65 1.9 14.91
4/3/2021 9:45:00 AM 1.48 34.664 0.07 7.71 1.99 14.92
4/3/2021 10:00:00 AM 1.67 35.006 0.069 7.76 1.93 14.91
4/3/2021 10:15:00 AM 1.87 35.366 0.069 7.81 1.97 14.87
4/3/2021 10:30:00 AM 2.09 35.762 0.069 7.86 1.91 14.82
4/3/2021 10:45:00 AM 2.31 36.158 0.069 7.9 1.91 14.75
4/3/2021 11:00:00 AM 2.53 36.554 0.069 7.94 2 14.68
4/3/2021 11:15:00 AM 2.76 36.968 0.069 7.95 1.98 14.61
4/3/2021 11:30:00 AM 3.02 37.436 0.069 7.99 2.07 14.52
4/3/2021 11:45:00 AM 3.29 37.922 0.069 8.03 2.14 14.44
4/3/2021 12:00:00 PM 3.56 38.408 0.068 8.07 2.18 14.35
4/3/2021 12:15:00 PM 3.85 38.93 0.068 8.08 2.23 14.25
4/3/2021 12:30:00 PM 4.13 39.434 0.068 8.12 2.25 14.15
4/3/2021 12:45:00 PM 4.41 39.938 0.068 8.16 2.33 14.05
4/3/2021 1:00:00 PM 4.68 40.424 0.068 8.19 2.31 13.95
4/3/2021 1:15:00 PM 4.94 40.892 0.068 8.22 2.38 13.85
4/3/2021 1:30:00 PM 5.19 41.342 0.068 8.26 2.45 13.76
4/3/2021 1:45:00 PM 5.42 41.756 0.068 8.3 2.65 13.66
4/3/2021 2:00:00 PM 5.63 42.134 0.068 8.32 2.69 13.57
4/3/2021 2:15:00 PM 5.82 42.476 0.068 8.35 2.68 13.49
4/3/2021 2:30:00 PM 5.99 42.782 0.067 8.38 2.65 13.41
4/3/2021 2:45:00 PM 6.14 43.052 0.067 8.39 2.5 13.34
4/3/2021 3:00:00 PM 6.26 43.268 0.067 8.4 2.47 13.27
4/3/2021 3:15:00 PM 6.38 43.484 0.067 8.41 2.4 13.2
4/3/2021 3:30:00 PM 6.47 43.646 0.067 8.39 2.31 13.14
4/3/2021 3:45:00 PM 6.55 43.79 0.067 8.39 2.27 13.09
4/3/2021 4:00:00 PM 6.6 43.88 0.067 8.39 2.13 13.04
4/3/2021 4:15:00 PM 6.62 43.916 0.067 8.35 2.19 12.99
4/3/2021 4:30:00 PM 6.64 43.952 0.067 8.35 2.15 12.95
4/3/2021 4:45:00 PM 6.7 44.06 0.067 8.34 2.09 12.92
4/3/2021 5:00:00 PM 6.69 44.042 0.067 8.32 2.15 12.89
4/3/2021 5:15:00 PM 6.66 43.988 0.067 8.29 2.04 12.88
4/3/2021 5:30:00 PM 6.64 43.952 0.067 8.24 2.06 12.84
4/3/2021 5:45:00 PM 6.63 43.934 0.067 8.3 2.02 12.88
4/3/2021 6:00:00 PM 6.63 43.934 0.067 8.29 2.13 12.87
4/3/2021 6:15:00 PM 6.55 43.79 0.067 8.14 2.05 12.79
4/3/2021 6:30:00 PM 6.5 43.7 0.067 7.98 2.04 12.73
4/3/2021 6:45:00 PM 6.48 43.664 0.067 7.8 2.1 12.58
4/3/2021 7:00:00 PM 6.42 43.556 0.068 7.65 2.08 12.46
4/3/2021 7:15:00 PM 6.34 43.412 0.068 7.56 2.1 12.38
4/3/2021 7:30:00 PM 6.26 43.268 0.068 7.48 2.07 12.29
4/3/2021 7:45:00 PM 6.18 43.124 0.068 7.41 2.12 12.19
4/3/2021 8:00:00 PM 6.08 42.944 0.068 7.37 2.13 12.13
4/3/2021 8:15:00 PM 5.98 42.764 0.068 7.31 2.13 12.1
4/3/2021 8:30:00 PM 5.87 42.566 0.068 7.29 2.1 12.09
4/3/2021 8:45:00 PM 5.76 42.368 0.068 7.28 2.08 12.09
4/3/2021 9:00:00 PM 5.66 42.188 0.069 7.27 2.12 12.11
4/3/2021 9:15:00 PM 5.55 41.99 0.069 7.25 2.08 12.13
4/3/2021 9:30:00 PM 5.45 41.81 0.069 7.24 2.12 12.16
4/3/2021 9:45:00 PM 5.35 41.63 0.069 7.23 2.17 12.19
4/3/2021 10:00:00 PM 5.26 41.468 0.069 7.22 2.1 12.22
4/3/2021 10:15:00 PM 5.17 41.306 0.069 7.22 2.06 12.25
4/3/2021 10:30:00 PM 5.08 41.144 0.069 7.22 2.1 12.29
4/3/2021 10:45:00 PM 5 41 0.069 7.21 1.99 12.32
4/3/2021 11:00:00 PM 4.92 40.856 0.069 7.21 2.04 12.35
4/3/2021 11:15:00 PM 4.84 40.712 0.069 7.22 2.09 12.38
4/3/2021 11:30:00 PM 4.77 40.586 0.069 7.2 2.06 12.41
4/3/2021 11:45:00 PM 4.71 40.478 0.069 7.21 2.04 12.43
4/4/2021 12:00:00 AM 4.65 40.37 0.069 7.21 2.05 12.46
4/4/2021 12:15:00 AM 4.59 40.262 0.069 7.22 2.01 12.48
4/4/2021 12:30:00 AM 4.54 40.172 0.069 7.2 2.03 12.5
4/4/2021 12:45:00 AM 4.49 40.082 0.069 7.21 2.05 12.52
4/4/2021 1:00:00 AM 4.44 39.992 0.069 7.21 1.99 12.54
4/4/2021 1:15:00 AM 4.39 39.902 0.069 7.21 1.99 12.56
4/4/2021 1:30:00 AM 4.35 39.83 0.069 7.21 2.04 12.58
4/4/2021 1:45:00 AM 4.3 39.74 0.069 7.21 1.99 12.59
4/4/2021 2:00:00 AM 4.26 39.668 0.069 7.21 1.96 12.6
4/4/2021 2:15:00 AM 4.22 39.596 0.07 7.2 2.02 12.62
4/4/2021 2:30:00 AM 4.18 39.524 0.07 7.21 1.98 12.63
4/4/2021 2:45:00 AM 4.14 39.452 0.07 7.2 1.99 12.64
4/4/2021 3:00:00 AM 4.1 39.38 0.07 7.21 2 12.65
4/4/2021 3:15:00 AM 4.07 39.326 0.07 7.21 1.95 12.66
4/4/2021 3:30:00 AM 4.04 39.272 0.07 7.21 1.92 12.67
4/4/2021 3:45:00 AM 4.01 39.218 0.07 7.22 1.94 12.68
4/4/2021 4:00:00 AM 3.98 39.164 0.07 7.2 2.01 12.69
4/4/2021 4:15:00 AM 3.96 39.128 0.07 7.21 1.94 12.69
4/4/2021 4:30:00 AM 3.93 39.074 0.07 7.21 1.98 12.7
4/4/2021 4:45:00 AM 3.91 39.038 0.07 7.21 2.1 12.7
4/4/2021 5:00:00 AM 3.89 39.002 0.07 7.2 2.01 12.71
4/4/2021 5:15:00 AM 3.87 38.966 0.07 7.22 1.98 12.72
4/4/2021 5:30:00 AM 3.85 38.93 0.07 7.21 1.95 12.72
4/4/2021 5:45:00 AM 3.83 38.894 0.07 7.19 1.95 12.73
4/4/2021 6:00:00 AM 3.81 38.858 0.07 7.21 1.94 12.74
4/4/2021 6:15:00 AM 3.79 38.822 0.07 7.22 1.93 12.74
4/4/2021 6:30:00 AM 3.76 38.768 0.07 7.2 1.95 12.75
4/4/2021 6:45:00 AM 3.74 38.732 0.07 7.22 1.97 12.77
4/4/2021 7:00:00 AM 3.71 38.678 0.07 7.23 1.96 12.82
4/4/2021 7:15:00 AM 3.69 38.642 0.07 7.25 2 12.91
4/4/2021 7:30:00 AM 3.69 38.642 0.07 7.28 1.92 12.99
4/4/2021 7:45:00 AM 3.68 38.624 0.07 7.29 1.92 13.08
4/4/2021 8:00:00 AM 3.67 38.606 0.07 7.34 1.96 13.19
4/4/2021 8:15:00 AM 3.66 38.588 0.07 7.4 1.92 13.31
4/4/2021 8:30:00 AM 3.69 38.642 0.069 7.47 1.94 13.48
4/4/2021 8:45:00 AM 3.74 38.732 0.069 7.54 1.92 13.63
4/4/2021 9:00:00 AM 3.83 38.894 0.069 7.66 1.9 13.74
4/4/2021 9:15:00 AM 3.93 39.074 0.069 7.77 1.89 13.82
4/4/2021 9:30:00 AM 4.05 39.29 0.069 7.89 1.88 13.88
4/4/2021 9:45:00 AM 4.21 39.578 0.069 8.03 1.89 13.91
4/4/2021 10:00:00 AM 4.39 39.902 0.069 8.16 1.99 13.91
4/4/2021 10:15:00 AM 4.58 40.244 0.069 8.26 1.91 13.9
4/4/2021 10:30:00 AM 4.78 40.604 0.069 8.35 1.9 13.86
4/4/2021 10:45:00 AM 5 41 0.069 8.44 1.86 13.82
4/4/2021 11:00:00 AM 5.22 41.396 0.069 8.5 1.93 13.76
4/4/2021 11:15:00 AM 5.45 41.81 0.068 8.56 1.95 13.69
4/4/2021 11:30:00 AM 5.71 42.278 0.068 8.63 1.91 13.62
4/4/2021 11:45:00 AM 5.94 42.692 0.068 8.67 2.13 13.55
4/4/2021 12:00:00 PM 6.16 43.088 0.068 8.74 1.94 13.48
4/4/2021 12:15:00 PM 6.4 43.52 0.068 8.77 1.93 13.41
4/4/2021 12:30:00 PM 6.64 43.952 0.068 8.82 1.95 13.33
4/4/2021 12:45:00 PM 6.94 44.492 0.068 8.86 1.89 13.26
4/4/2021 1:00:00 PM 7.2 44.96 0.068 8.89 1.9 13.18
4/4/2021 1:15:00 PM 7.43 45.374 0.068 8.93 1.96 13.1
4/4/2021 1:30:00 PM 7.64 45.752 0.068 8.95 1.89 13.04
4/4/2021 1:45:00 PM 7.88 46.184 0.068 9 1.95 12.98
4/4/2021 2:00:00 PM 8.02 46.436 0.068 9.02 1.97 12.89
4/4/2021 2:15:00 PM 8.18 46.724 0.067 9.03 1.9 12.85
4/4/2021 2:30:00 PM 8.36 47.048 0.067 9.06 1.91 12.79
4/4/2021 2:45:00 PM 8.48 47.264 0.067 9.06 1.91 12.7
4/4/2021 3:00:00 PM 8.55 47.39 0.067 9.07 1.96 12.65
4/4/2021 3:15:00 PM 8.58 47.444 0.067 9.06 1.94 12.56
4/4/2021 3:30:00 PM 8.64 47.552 0.067 9.1 1.93 12.54
4/4/2021 3:45:00 PM 8.74 47.732 0.067 9.1 1.96 12.5
4/4/2021 4:00:00 PM 8.75 47.75 0.067 9.09 1.97 12.44
4/4/2021 4:15:00 PM 8.7 47.66 0.067 9.09 1.96 12.42
4/4/2021 4:30:00 PM 8.7 47.66 0.067 9.08 1.97 12.39
4/4/2021 4:45:00 PM 8.78 47.804 0.067 9.1 1.94 12.39
4/4/2021 5:00:00 PM 8.73 47.714 0.067 9.05 1.93 12.33
4/4/2021 5:15:00 PM 8.64 47.552 0.067 8.93 1.94 12.21
4/4/2021 5:30:00 PM 8.61 47.498 0.067 8.83 1.94 12.13
4/4/2021 5:45:00 PM 8.57 47.426 0.067 8.69 1.95 12.07
4/4/2021 6:00:00 PM 8.51 47.318 0.067 8.53 1.91 12.01
4/4/2021 6:15:00 PM 8.44 47.192 0.067 8.32 1.99 11.98
4/4/2021 6:30:00 PM 8.33 46.994 0.067 8.06 1.98 11.91
4/4/2021 6:45:00 PM 8.26 46.868 0.067 7.89 2.07 11.85
4/4/2021 7:00:00 PM 8.19 46.742 0.068 7.75 1.98 11.79
4/4/2021 7:15:00 PM 8.08 46.544 0.068 7.64 1.98 11.72
4/4/2021 7:30:00 PM 7.98 46.364 0.068 7.55 1.98 11.65
4/4/2021 7:45:00 PM 7.88 46.184 0.068 7.46 1.98 11.56
4/4/2021 8:00:00 PM 7.79 46.022 0.069 7.41 2.01 11.5
4/4/2021 8:15:00 PM 7.69 45.842 0.069 7.37 2.01 11.46
4/4/2021 8:30:00 PM 7.59 45.662 0.069 7.34 1.98 11.44
4/4/2021 8:45:00 PM 7.49 45.482 0.069 7.32 2.06 11.44
4/4/2021 9:00:00 PM 7.41 45.338 0.069 7.29 2.01 11.44
4/4/2021 9:15:00 PM 7.32 45.176 0.069 7.29 2 11.46
4/4/2021 9:30:00 PM 7.23 45.014 0.069 7.28 2.04 11.48
4/4/2021 9:45:00 PM 7.13 44.834 0.07 7.27 2.08 11.51
4/4/2021 10:00:00 PM 7.04 44.672 0.07 7.26 2.01 11.54
4/4/2021 10:15:00 PM 6.94 44.492 0.07 7.24 2.03 11.57
4/4/2021 10:30:00 PM 6.85 44.33 0.07 7.25 1.99 11.6
4/4/2021 10:45:00 PM 6.75 44.15 0.07 7.24 2.03 11.63
4/4/2021 11:00:00 PM 6.64 43.952 0.071 7.24 2.04 11.67
4/4/2021 11:15:00 PM 6.53 43.754 0.071 7.22 1.98 11.7
4/4/2021 11:30:00 PM 6.43 43.574 0.071 7.23 1.99 11.73
4/4/2021 11:45:00 PM 6.33 43.394 0.071 7.23 1.97 11.77
4/5/2021 12:00:00 AM 6.23 43.214 0.071 7.23 1.92 11.8
4/5/2021 12:15:00 AM 6.13 43.034 0.071 7.21 1.97 11.83
4/5/2021 12:30:00 AM 6.04 42.872 0.071 7.22 1.99 11.87
4/5/2021 12:45:00 AM 5.95 42.71 0.071 7.22 1.94 11.9
4/5/2021 1:00:00 AM 5.86 42.548 0.071 7.22 1.99 11.93
4/5/2021 1:15:00 AM 5.77 42.386 0.071 7.23 1.94 11.96
4/5/2021 1:30:00 AM 5.68 42.224 0.071 7.22 1.92 11.99
4/5/2021 1:45:00 AM 5.59 42.062 0.071 7.23 1.94 12.02
4/5/2021 2:00:00 AM 5.51 41.918 0.071 7.22 1.98 12.05
4/5/2021 2:15:00 AM 5.42 41.756 0.071 7.23 1.94 12.08
4/5/2021 2:30:00 AM 5.34 41.612 0.071 7.21 1.92 12.1
4/5/2021 2:45:00 AM 5.26 41.468 0.072 7.22 1.93 12.13
4/5/2021 3:00:00 AM 5.17 41.306 0.072 7.22 1.92 12.16
4/5/2021 3:15:00 AM 5.1 41.18 0.071 7.21 1.95 12.18
4/5/2021 3:30:00 AM 5.02 41.036 0.071 7.22 1.9 12.21
4/5/2021 3:45:00 AM 4.94 40.892 0.071 7.22 1.92 12.24
4/5/2021 4:00:00 AM 4.86 40.748 0.071 7.22 1.89 12.26
4/5/2021 4:15:00 AM 4.78 40.604 0.071 7.22 1.93 12.29
4/5/2021 4:30:00 AM 4.7 40.46 0.072 7.21 1.94 12.32
4/5/2021 4:45:00 AM 4.63 40.334 0.071 7.23 1.94 12.35
4/5/2021 5:00:00 AM 4.56 40.208 0.072 7.23 1.9 12.38
4/5/2021 5:15:00 AM 4.48 40.064 0.072 7.22 1.91 12.4
4/5/2021 5:30:00 AM 4.41 39.938 0.072 7.21 1.9 12.43
4/5/2021 5:45:00 AM 4.34 39.812 0.072 7.22 1.89 12.46
4/5/2021 6:00:00 AM 4.28 39.704 0.072 7.21 1.87 12.49
4/5/2021 6:15:00 AM 4.21 39.578 0.071 7.22 1.92 12.51
4/5/2021 6:30:00 AM 4.14 39.452 0.071 7.2 1.87 12.54
4/5/2021 6:45:00 AM 4.08 39.344 0.071 7.23 1.94 12.58
4/5/2021 7:00:00 AM 4.02 39.236 0.071 7.23 1.84 12.66
4/5/2021 7:15:00 AM 3.96 39.128 0.071 7.26 1.83 12.77
4/5/2021 7:30:00 AM 3.91 39.038 0.071 7.3 1.84 12.89
4/5/2021 7:45:00 AM 3.87 38.966 0.071 7.32 1.87 13.01
4/5/2021 8:00:00 AM 3.83 38.894 0.071 7.36 1.85 13.15
4/5/2021 8:15:00 AM 3.84 38.912 0.071 7.45 1.87 13.33
4/5/2021 8:30:00 AM 3.87 38.966 0.071 7.53 1.86 13.5
4/5/2021 8:45:00 AM 3.92 39.056 0.071 7.61 1.85 13.62
4/5/2021 9:00:00 AM 3.99 39.182 0.071 7.71 1.87 13.71
4/5/2021 9:15:00 AM 4.09 39.362 0.071 7.83 1.88 13.79
4/5/2021 9:30:00 AM 4.24 39.632 0.071 7.96 1.89 13.84
4/5/2021 9:45:00 AM 4.41 39.938 0.07 8.08 1.89 13.86
4/5/2021 10:00:00 AM 4.6 40.28 0.07 8.21 1.88 13.87
4/5/2021 10:15:00 AM 4.82 40.676 0.07 8.32 1.87 13.84
4/5/2021 10:30:00 AM 5.03 41.054 0.07 8.41 1.96 13.8
4/5/2021 10:45:00 AM 5.27 41.486 0.07 8.48 1.85 13.75
4/5/2021 11:00:00 AM 5.5 41.9 0.07 8.55 1.87 13.69
4/5/2021 11:15:00 AM 5.74 42.332 0.07 8.61 1.86 13.62
4/5/2021 11:30:00 AM 5.99 42.782 0.07 8.66 1.88 13.55
4/5/2021 11:45:00 AM 6.27 43.286 0.07 8.7 1.93 13.47
4/5/2021 12:00:00 PM 6.54 43.772 0.069 8.76 1.92 13.38
4/5/2021 12:15:00 PM 6.83 44.294 0.069 8.81 1.89 13.3
4/5/2021 12:30:00 PM 7.12 44.816 0.069 8.85 1.94 13.21
4/5/2021 12:45:00 PM 7.4 45.32 0.069 8.89 1.89 13.13
4/5/2021 1:00:00 PM 7.68 45.824 0.069 8.92 1.93 13.05
4/5/2021 1:15:00 PM 7.95 46.31 0.069 8.96 1.94 12.96
4/5/2021 1:30:00 PM 8.19 46.742 0.069 8.99 1.91 12.88
4/5/2021 1:45:00 PM 8.41 47.138 0.069 9.01 1.88 12.8
4/5/2021 2:00:00 PM 8.62 47.516 0.069 9.03 1.89 12.72
4/5/2021 2:15:00 PM 8.8 47.84 0.069 9.05 2.05 12.64
4/5/2021 2:30:00 PM 8.95 48.11 0.069 9.05 2.49 12.56
4/5/2021 2:45:00 PM 9.09 48.362 0.069 9.08 2.02 12.49
4/5/2021 3:00:00 PM 9.2 48.56 0.069 9.08 1.93 12.43
4/5/2021 3:15:00 PM 9.3 48.74 0.069 9.09 1.91 12.37
4/5/2021 3:30:00 PM 9.37 48.866 0.069 9.1 2 12.31
4/5/2021 3:45:00 PM 9.44 48.992 0.068 9.1 1.88 12.25
4/5/2021 4:00:00 PM 9.49 49.082 0.068 9.09 1.91 12.2
4/5/2021 4:15:00 PM 9.52 49.136 0.068 9.08 1.83 12.14
4/5/2021 4:30:00 PM 9.54 49.172 0.069 9.06 1.87 12.09
4/5/2021 4:45:00 PM 9.54 49.172 0.069 9.04 1.92 12.03
4/5/2021 5:00:00 PM 9.52 49.136 0.068 9 1.91 11.99
4/5/2021 5:15:00 PM 9.49 49.082 0.068 8.97 1.92 11.95
4/5/2021 5:30:00 PM 9.44 48.992 0.068 8.93 1.93 11.92
4/5/2021 5:45:00 PM 9.36 48.848 0.068 8.85 1.9 11.88
4/5/2021 6:00:00 PM 9.26 48.668 0.068 8.74 1.87 11.83
4/5/2021 6:15:00 PM 9.16 48.488 0.067 8.57 1.92 11.77
4/5/2021 6:30:00 PM 9.06 48.308 0.067 8.31 1.89 11.68
4/5/2021 6:45:00 PM 8.96 48.128 0.068 8.1 1.89 11.64
4/5/2021 7:00:00 PM 8.88 47.984 0.068 7.91 1.89 11.59
4/5/2021 7:15:00 PM 8.77 47.786 0.068 7.74 1.82 11.51
4/5/2021 7:30:00 PM 8.67 47.606 0.068 7.6 1.86 11.41
4/5/2021 7:45:00 PM 8.57 47.426 0.069 7.51 1.93 11.33
4/5/2021 8:00:00 PM 8.48 47.264 0.069 7.43 1.93 11.26
4/5/2021 8:15:00 PM 8.39 47.102 0.069 7.39 1.92 11.21
4/5/2021 8:30:00 PM 8.29 46.922 0.069 7.36 1.9 11.19
4/5/2021 8:45:00 PM 8.2 46.76 0.07 7.33 1.89 11.18
4/5/2021 9:00:00 PM 8.1 46.58 0.07 7.32 1.89 11.18
4/5/2021 9:15:00 PM 8 46.4 0.07 7.31 1.81 11.2
4/5/2021 9:30:00 PM 7.89 46.202 0.07 7.3 1.89 11.22
4/5/2021 9:45:00 PM 7.79 46.022 0.07 7.28 1.93 11.25
4/5/2021 10:00:00 PM 7.7 45.86 0.071 7.26 1.87 11.27
4/5/2021 10:15:00 PM 7.6 45.68 0.071 7.27 1.85 11.31
4/5/2021 10:30:00 PM 7.5 45.5 0.071 7.26 1.87 11.34
4/5/2021 10:45:00 PM 7.39 45.302 0.071 7.26 1.88 11.37
4/5/2021 11:00:00 PM 7.27 45.086 0.071 7.26 1.84 11.41
4/5/2021 11:15:00 PM 7.15 44.87 0.072 7.26 1.81 11.44
4/5/2021 11:30:00 PM 7.04 44.672 0.072 7.26 1.79 11.48
4/5/2021 11:45:00 PM 6.92 44.456 0.072 7.26 1.83 11.52
4/6/2021 12:00:00 AM 6.8 44.24 0.072 7.25 1.85 11.56
4/6/2021 12:15:00 AM 6.68 44.024 0.072 7.25 1.88 11.59
4/6/2021 12:30:00 AM 6.57 43.826 0.072 7.25 1.84 11.63
4/6/2021 12:45:00 AM 6.46 43.628 0.072 7.25 1.82 11.67
4/6/2021 1:00:00 AM 6.35 43.43 0.072 7.25 1.8 11.71
4/6/2021 1:15:00 AM 6.24 43.232 0.072 7.25 1.77 11.74
4/6/2021 1:30:00 AM 6.13 43.034 0.072 7.22 1.8 11.78
4/6/2021 1:45:00 AM 6.03 42.854 0.072 7.24 1.82 11.82
4/6/2021 2:00:00 AM 5.92 42.656 0.072 7.25 1.79 11.85
4/6/2021 2:15:00 AM 5.82 42.476 0.072 7.24 1.81 11.89
4/6/2021 2:30:00 AM 5.72 42.296 0.072 7.25 1.78 11.92
4/6/2021 2:45:00 AM 5.63 42.134 0.073 7.25 1.82 11.95
4/6/2021 3:00:00 AM 5.53 41.954 0.073 7.25 1.78 11.98
4/6/2021 3:15:00 AM 5.44 41.792 0.073 7.25 1.75 12.02
4/6/2021 3:30:00 AM 5.34 41.612 0.073 7.25 1.83 12.05
4/6/2021 3:45:00 AM 5.25 41.45 0.073 7.25 1.78 12.08
4/6/2021 4:00:00 AM 5.16 41.288 0.073 7.25 1.89 12.11
4/6/2021 4:15:00 AM 5.07 41.126 0.073 7.24 1.75 12.14
4/6/2021 4:30:00 AM 4.98 40.964 0.073 7.25 1.82 12.17
4/6/2021 4:45:00 AM 4.9 40.82 0.073 7.25 1.77 12.2
4/6/2021 5:00:00 AM 4.81 40.658 0.073 7.24 1.79 12.23
4/6/2021 5:15:00 AM 4.73 40.514 0.073 7.24 1.72 12.26
4/6/2021 5:30:00 AM 4.65 40.37 0.073 7.25 1.74 12.29
4/6/2021 5:45:00 AM 4.56 40.208 0.073 7.25 1.76 12.33
4/6/2021 6:00:00 AM 4.49 40.082 0.073 7.26 1.74 12.36
4/6/2021 6:15:00 AM 4.41 39.938 0.073 7.25 1.77 12.39
4/6/2021 6:30:00 AM 4.33 39.794 0.073 7.24 1.74 12.42
4/6/2021 6:45:00 AM 4.26 39.668 0.073 7.26 1.71 12.47
4/6/2021 7:00:00 AM 4.19 39.542 0.073 7.28 1.89 12.56
4/6/2021 7:15:00 AM 4.12 39.416 0.073 7.27 1.75 12.68
4/6/2021 7:30:00 AM 4.07 39.326 0.073 7.33 1.74 12.8
4/6/2021 7:45:00 AM 4.01 39.218 0.073 7.34 1.72 12.92
4/6/2021 8:00:00 AM 3.97 39.146 0.073 7.42 1.72 13.06
4/6/2021 8:15:00 AM 3.97 39.146 0.073 7.49 1.73 13.25
4/6/2021 8:30:00 AM 4 39.2 0.073 7.57 1.75 13.43
4/6/2021 8:45:00 AM 4.04 39.272 0.073 7.63 1.76 13.56
4/6/2021 9:00:00 AM 4.1 39.38 0.073 7.76 1.73 13.66
4/6/2021 9:15:00 AM 4.19 39.542 0.073 7.87 1.7 13.74
4/6/2021 9:30:00 AM 4.34 39.812 0.073 8.01 1.76 13.8
4/6/2021 9:45:00 AM 4.52 40.136 0.072 8.15 1.72 13.83
4/6/2021 10:00:00 AM 4.72 40.496 0.072 8.28 1.74 13.83
4/6/2021 10:15:00 AM 4.94 40.892 0.072 8.39 1.73 13.81
4/6/2021 10:30:00 AM 5.17 41.306 0.072 8.48 1.72 13.77
4/6/2021 10:45:00 AM 5.41 41.738 0.072 8.55 1.74 13.72
4/6/2021 11:00:00 AM 5.66 42.188 0.072 8.59 1.71 13.65
4/6/2021 11:15:00 AM 5.92 42.656 0.072 8.68 1.73 13.57
4/6/2021 11:30:00 AM 6.19 43.142 0.072 8.72 1.77 13.49
4/6/2021 11:45:00 AM 6.47 43.646 0.072 8.78 1.75 13.42
4/6/2021 12:00:00 PM 6.75 44.15 0.072 8.83 1.73 13.34
4/6/2021 12:15:00 PM 7.04 44.672 0.071 8.85 1.78 13.26
4/6/2021 12:30:00 PM 7.34 45.212 0.071 8.91 1.81 13.16
4/6/2021 12:45:00 PM 7.65 45.77 0.071 8.95 1.83 13.08
4/6/2021 1:00:00 PM 7.93 46.274 0.071 8.99 1.74 13
4/6/2021 1:15:00 PM 8.21 46.778 0.071 9.01 1.79 12.91
4/6/2021 1:30:00 PM 8.46 47.228 0.071 9.05 1.75 12.83
4/6/2021 1:45:00 PM 8.68 47.624 0.071 9.09 1.79 12.75
4/6/2021 2:00:00 PM 8.88 47.984 0.071 9.11 1.77 12.67
4/6/2021 2:15:00 PM 9.06 48.308 0.071 9.12 1.75 12.59
4/6/2021 2:30:00 PM 9.24 48.632 0.071 9.16 1.71 12.52
4/6/2021 2:45:00 PM 9.37 48.866 0.071 9.18 1.79 12.45
4/6/2021 3:00:00 PM 9.46 49.028 0.071 9.2 1.8 12.39
4/6/2021 3:15:00 PM 9.54 49.172 0.07 9.21 1.75 12.34
4/6/2021 3:30:00 PM 9.6 49.28 0.07 9.22 1.77 12.28
4/6/2021 3:45:00 PM 9.68 49.424 0.07 9.25 1.77 12.25
4/6/2021 4:00:00 PM 9.66 49.388 0.07 9.23 1.78 12.17
4/6/2021 4:15:00 PM 9.68 49.424 0.07 9.24 1.85 12.15
4/6/2021 4:30:00 PM 9.71 49.478 0.07 9.24 1.76 12.11
4/6/2021 4:45:00 PM 9.75 49.55 0.07 9.22 1.74 12.05
4/6/2021 5:00:00 PM 9.73 49.514 0.07 9.19 1.79 11.98
4/6/2021 5:15:00 PM 9.68 49.424 0.069 9.16 1.8 11.95
4/6/2021 5:30:00 PM 9.64 49.352 0.069 9.12 1.79 11.88
4/6/2021 5:45:00 PM 9.58 49.244 0.069 9.07 1.76 11.83
4/6/2021 6:00:00 PM 9.52 49.136 0.069 9.02 1.92 11.79
4/6/2021 6:15:00 PM 9.44 48.992 0.069 8.9 1.75 11.73
4/6/2021 6:30:00 PM 9.35 48.83 0.069 8.71 1.75 11.64
4/6/2021 6:45:00 PM 9.25 48.65 0.069 8.44 1.77 11.54
4/6/2021 7:00:00 PM 9.15 48.47 0.07 8.12 1.75 11.44
4/6/2021 7:15:00 PM 9.05 48.29 0.07 7.86 1.75 11.36
4/6/2021 7:30:00 PM 8.95 48.11 0.07 7.69 1.76 11.28
4/6/2021 7:45:00 PM 8.83 47.894 0.07 7.57 1.75 11.2
4/6/2021 8:00:00 PM 8.72 47.696 0.071 7.49 1.8 11.13
4/6/2021 8:15:00 PM 8.62 47.516 0.071 7.44 1.83 11.09
4/6/2021 8:30:00 PM 8.52 47.336 0.071 7.4 1.8 11.06
4/6/2021 8:45:00 PM 8.42 47.156 0.072 7.35 1.82 11.05
4/6/2021 9:00:00 PM 8.3 46.94 0.072 7.33 1.77 11.06
4/6/2021 9:15:00 PM 8.19 46.742 0.072 7.33 1.8 11.08
4/6/2021 9:30:00 PM 8.07 46.526 0.072 7.32 1.81 11.1
4/6/2021 9:45:00 PM 7.95 46.31 0.072 7.32 1.87 11.14
4/6/2021 10:00:00 PM 7.82 46.076 0.073 7.31 1.75 11.17
4/6/2021 10:15:00 PM 7.7 45.86 0.073 7.3 1.81 11.21
4/6/2021 10:30:00 PM 7.58 45.644 0.073 7.3 1.74 11.25
4/6/2021 10:45:00 PM 7.46 45.428 0.073 7.3 1.77 11.29
4/6/2021 11:00:00 PM 7.33 45.194 0.073 7.27 1.74 11.33
4/6/2021 11:15:00 PM 7.22 44.996 0.074 7.29 1.77 11.37
4/6/2021 11:30:00 PM 7.1 44.78 0.074 7.26 1.8 11.41
4/6/2021 11:45:00 PM 6.99 44.582 0.074 7.29 1.72 11.45
4/7/2021 12:00:00 AM 6.87 44.366 0.074 7.29 1.78 11.5
4/7/2021 12:15:00 AM 6.77 44.186 0.074 7.29 1.79 11.54
4/7/2021 12:30:00 AM 6.67 44.006 0.074 7.26 1.78 11.57
4/7/2021 12:45:00 AM 6.57 43.826 0.074 7.29 1.71 11.61
4/7/2021 1:00:00 AM 6.48 43.664 0.075 7.29 1.83 11.64
4/7/2021 1:15:00 AM 6.4 43.52 0.075 7.29 1.74 11.67
4/7/2021 1:30:00 AM 6.32 43.376 0.075 7.29 1.73 11.7
4/7/2021 1:45:00 AM 6.26 43.268 0.075 7.29 1.73 11.73
4/7/2021 2:00:00 AM 6.2 43.16 0.075 7.27 1.73 11.75
4/7/2021 2:15:00 AM 6.13 43.034 0.075 7.29 1.74 11.78
4/7/2021 2:30:00 AM 6.06 42.908 0.075 7.29 1.83 11.8
4/7/2021 2:45:00 AM 6.01 42.818 0.075 7.29 1.69 11.82
4/7/2021 3:00:00 AM 5.96 42.728 0.075 7.29 1.78 11.83
4/7/2021 3:15:00 AM 5.9 42.62 0.075 7.29 1.76 11.85
4/7/2021 3:30:00 AM 5.85 42.53 0.075 7.26 1.69 11.87
4/7/2021 3:45:00 AM 5.8 42.44 0.075 7.29 1.72 11.88
4/7/2021 4:00:00 AM 5.76 42.368 0.075 7.26 1.65 11.9
4/7/2021 4:15:00 AM 5.73 42.314 0.075 7.29 1.78 11.92
4/7/2021 4:30:00 AM 5.69 42.242 0.075 7.29 1.7 11.93
4/7/2021 4:45:00 AM 5.66 42.188 0.075 7.29 1.75 11.94
4/7/2021 5:00:00 AM 5.63 42.134 0.075 7.28 1.8 11.96
4/7/2021 5:15:00 AM 5.6 42.08 0.075 7.29 1.71 11.96
4/7/2021 5:30:00 AM 5.58 42.044 0.075 7.29 1.72 11.98
4/7/2021 5:45:00 AM 5.56 42.008 0.075 7.27 1.62 11.99
4/7/2021 6:00:00 AM 5.54 41.972 0.075 7.27 1.69 12
4/7/2021 6:15:00 AM 5.53 41.954 0.075 7.29 1.72 12
4/7/2021 6:30:00 AM 5.51 41.918 0.075 7.29 1.64 12.01
4/7/2021 6:45:00 AM 5.5 41.9 0.075 7.3 1.69 12.02
4/7/2021 7:00:00 AM 5.49 41.882 0.075 7.3 1.71 12.04
4/7/2021 7:15:00 AM 5.48 41.864 0.075 7.3 1.7 12.07
4/7/2021 7:30:00 AM 5.48 41.864 0.075 7.32 1.7 12.11
4/7/2021 7:45:00 AM 5.48 41.864 0.075 7.34 1.73 12.21
4/7/2021 8:00:00 AM 5.49 41.882 0.075 7.38 1.66 12.33
4/7/2021 8:15:00 AM 5.5 41.9 0.075 7.41 1.74 12.42
4/7/2021 8:30:00 AM 5.52 41.936 0.075 7.43 1.69 12.55
4/7/2021 8:45:00 AM 5.55 41.99 0.075 7.53 1.65 12.76
4/7/2021 9:00:00 AM 5.6 42.08 0.074 7.63 1.72 12.91
4/7/2021 9:15:00 AM 5.65 42.17 0.074 7.75 1.71 13.06
4/7/2021 9:30:00 AM 5.72 42.296 0.074 7.91 1.79 13.21
4/7/2021 9:45:00 AM 5.8 42.44 0.074 8.11 1.7 13.32
4/7/2021 10:00:00 AM 5.89 42.602 0.074 8.27 1.78 13.38
4/7/2021 10:15:00 AM 5.98 42.764 0.073 8.45 1.79 13.41
4/7/2021 10:30:00 AM 6.12 43.016 0.073 8.62 1.76 13.44
4/7/2021 10:45:00 AM 6.3 43.34 0.073 8.73 1.76 13.42
4/7/2021 11:00:00 AM 6.57 43.826 0.073 8.84 1.76 13.4
4/7/2021 11:15:00 AM 6.79 44.222 0.073 8.91 1.72 13.36
4/7/2021 11:30:00 AM 7.09 44.762 0.073 8.98 1.69 13.32
4/7/2021 11:45:00 AM 7.36 45.248 0.073 9.04 1.78 13.26
4/7/2021 12:00:00 PM 7.56 45.608 0.073 9.09 1.77 13.17
4/7/2021 12:15:00 PM 7.7 45.86 0.072 9.13 1.78 13.12
4/7/2021 12:30:00 PM 7.85 46.13 0.072 9.18 1.82 13.06
4/7/2021 12:45:00 PM 8.08 46.544 0.072 9.22 1.85 13
4/7/2021 1:00:00 PM 8.38 47.084 0.072 9.27 1.76 12.93
4/7/2021 1:15:00 PM 8.72 47.696 0.072 9.31 1.8 12.85
4/7/2021 1:30:00 PM 8.89 48.002 0.072 9.31 1.75 12.75
4/7/2021 1:45:00 PM 9.06 48.308 0.072 9.37 1.77 12.7
4/7/2021 2:00:00 PM 9.3 48.74 0.072 9.4 1.75 12.63
4/7/2021 2:15:00 PM 9.61 49.298 0.072 9.43 1.77 12.54
4/7/2021 2:30:00 PM 9.86 49.748 0.072 9.45 1.76 12.45
4/7/2021 2:45:00 PM 10 50 0.072 9.45 1.78 12.37
4/7/2021 3:00:00 PM 10.1 50.18 0.072 9.46 1.84 12.3
4/7/2021 3:15:00 PM 10.22 50.396 0.072 9.45 1.83 12.22
4/7/2021 3:30:00 PM 10.39 50.702 0.072 9.47 1.79 12.14
4/7/2021 3:45:00 PM 10.55 50.99 0.072 9.47 1.73 12.05
4/7/2021 4:00:00 PM 10.7 51.26 0.072 9.46 1.78 11.97
4/7/2021 4:15:00 PM 10.8 51.44 0.071 9.46 1.82 11.9
4/7/2021 4:30:00 PM 10.86 51.548 0.071 9.44 1.73 11.83
4/7/2021 4:45:00 PM 10.89 51.602 0.071 9.42 1.74 11.77
4/7/2021 5:00:00 PM 10.9 51.62 0.071 9.38 1.8 11.72
4/7/2021 5:15:00 PM 10.89 51.602 0.071 9.36 1.71 11.65
4/7/2021 5:30:00 PM 10.87 51.566 0.071 9.32 1.8 11.58
4/7/2021 5:45:00 PM 10.84 51.512 0.071 9.26 1.76 11.49
4/7/2021 6:00:00 PM 10.78 51.404 0.07 9.17 1.74 11.4
4/7/2021 6:15:00 PM 10.72 51.296 0.07 9.05 1.76 11.29
4/7/2021 6:30:00 PM 10.64 51.152 0.07 8.88 1.85 11.18
4/7/2021 6:45:00 PM 10.57 51.026 0.07 8.65 1.88 11.09
4/7/2021 7:00:00 PM 10.52 50.936 0.071 8.39 1.77 11.03
4/7/2021 7:15:00 PM 10.47 50.846 0.071 8.07 1.89 10.94
4/7/2021 7:30:00 PM 10.43 50.774 0.071 7.83 1.69 10.83
4/7/2021 7:45:00 PM 10.38 50.684 0.071 7.67 1.79 10.72
4/7/2021 8:00:00 PM 10.32 50.576 0.072 7.56 1.82 10.63
4/7/2021 8:15:00 PM 10.26 50.468 0.072 7.49 1.73 10.58
4/7/2021 8:30:00 PM 10.2 50.36 0.072 7.44 1.76 10.55
4/7/2021 8:45:00 PM 10.13 50.234 0.073 7.4 1.74 10.54
4/7/2021 9:00:00 PM 10.05 50.09 0.073 7.36 1.74 10.53
4/7/2021 9:15:00 PM 9.97 49.946 0.073 7.35 1.75 10.53
4/7/2021 9:30:00 PM 9.89 49.802 0.073 7.33 1.79 10.55
4/7/2021 9:45:00 PM 9.8 49.64 0.074 7.33 1.75 10.57
4/7/2021 10:00:00 PM 9.7 49.46 0.074 7.32 1.84 10.59
4/7/2021 10:15:00 PM 9.6 49.28 0.074 7.31 1.74 10.62
4/7/2021 10:30:00 PM 9.5 49.1 0.074 7.31 1.81 10.66
4/7/2021 10:45:00 PM 9.39 48.902 0.075 7.31 1.72 10.69
4/7/2021 11:00:00 PM 9.28 48.704 0.075 7.31 1.78 10.72
4/7/2021 11:15:00 PM 9.17 48.506 0.075 7.31 1.83 10.76
4/7/2021 11:30:00 PM 9.06 48.308 0.075 7.3 1.74 10.79
4/7/2021 11:45:00 PM 8.94 48.092 0.075 7.3 1.86 10.82
4/8/2021 12:00:00 AM 8.84 47.912 0.075 7.3 1.78 10.85
4/8/2021 12:15:00 AM 8.73 47.714 0.076 7.3 1.8 10.89
4/8/2021 12:30:00 AM 8.62 47.516 0.076 7.27 1.77 10.92
4/8/2021 12:45:00 AM 8.51 47.318 0.076 7.29 1.74 10.95
4/8/2021 1:00:00 AM 8.41 47.138 0.076 7.27 1.81 10.99
4/8/2021 1:15:00 AM 8.3 46.94 0.076 7.29 1.75 11.01
4/8/2021 1:30:00 AM 8.2 46.76 0.076 7.29 1.8 11.05
4/8/2021 1:45:00 AM 8.09 46.562 0.076 7.29 1.75 11.09
4/8/2021 2:00:00 AM 8 46.4 0.077 7.27 1.87 11.11
4/8/2021 2:15:00 AM 7.9 46.22 0.077 7.28 1.75 11.15
4/8/2021 2:30:00 AM 7.8 46.04 0.077 7.28 1.72 11.17
4/8/2021 2:45:00 AM 7.71 45.878 0.077 7.29 1.77 11.21
4/8/2021 3:00:00 AM 7.62 45.716 0.077 7.26 1.79 11.24
4/8/2021 3:15:00 AM 7.53 45.554 0.077 7.29 1.78 11.27
4/8/2021 3:30:00 AM 7.44 45.392 0.077 7.29 1.77 11.3
4/8/2021 3:45:00 AM 7.35 45.23 0.077 7.28 1.82 11.33
4/8/2021 4:00:00 AM 7.27 45.086 0.077 7.29 1.85 11.36
4/8/2021 4:15:00 AM 7.18 44.924 0.077 7.28 1.79 11.38
4/8/2021 4:30:00 AM 7.1 44.78 0.077 7.28 1.74 11.41
4/8/2021 4:45:00 AM 7.02 44.636 0.077 7.28 1.75 11.44
4/8/2021 5:00:00 AM 6.94 44.492 0.077 7.28 1.78 11.48
4/8/2021 5:15:00 AM 6.86 44.348 0.077 7.28 1.76 11.51
4/8/2021 5:30:00 AM 6.78 44.204 0.077 7.28 1.77 11.53
4/8/2021 5:45:00 AM 6.71 44.078 0.077 7.25 1.75 11.56
4/8/2021 6:00:00 AM 6.64 43.952 0.077 7.27 1.81 11.58
4/8/2021 6:15:00 AM 6.57 43.826 0.077 7.28 1.71 11.61
4/8/2021 6:30:00 AM 6.5 43.7 0.077 7.29 1.75 11.64
4/8/2021 6:45:00 AM 6.43 43.574 0.077 7.29 1.73 11.69
4/8/2021 7:00:00 AM 6.37 43.466 0.077 7.31 1.72 11.78
4/8/2021 7:15:00 AM 6.32 43.376 0.077 7.31 1.81 11.91
4/8/2021 7:30:00 AM 6.27 43.286 0.077 7.36 1.72 12.04
4/8/2021 7:45:00 AM 6.23 43.214 0.077 7.39 1.73 12.19
4/8/2021 8:00:00 AM 6.21 43.178 0.076 7.46 1.91 12.35
4/8/2021 8:15:00 AM 6.23 43.214 0.076 7.55 1.75 12.54
4/8/2021 8:30:00 AM 6.29 43.322 0.076 7.63 1.69 12.73
4/8/2021 8:45:00 AM 6.37 43.466 0.076 7.78 1.74 12.88
4/8/2021 9:00:00 AM 6.46 43.628 0.076 7.93 1.82 13
4/8/2021 9:15:00 AM 6.59 43.862 0.076 8.08 1.73 13.06
4/8/2021 9:30:00 AM 6.75 44.15 0.075 8.25 1.75 13.11
4/8/2021 9:45:00 AM 6.94 44.492 0.075 8.45 1.77 13.13
4/8/2021 10:00:00 AM 7.18 44.924 0.075 8.59 1.77 13.14
4/8/2021 10:15:00 AM 7.43 45.374 0.075 8.7 1.77 13.11
4/8/2021 10:30:00 AM 7.7 45.86 0.075 8.77 1.83 13.08
4/8/2021 10:45:00 AM 8 46.4 0.074 8.88 1.87 13.03
4/8/2021 11:00:00 AM 8.3 46.94 0.074 8.95 1.75 12.96
4/8/2021 11:15:00 AM 8.59 47.462 0.074 8.99 1.79 12.88
4/8/2021 11:30:00 AM 8.9 48.02 0.074 9.05 1.85 12.81
4/8/2021 11:45:00 AM 9.21 48.578 0.074 9.12 1.76 12.74
4/8/2021 12:00:00 PM 9.54 49.172 0.074 9.17 1.85 12.69
4/8/2021 12:15:00 PM 9.86 49.748 0.074 9.19 1.8 12.61
4/8/2021 12:30:00 PM 10.19 50.342 0.074 9.24 1.82 12.52
4/8/2021 12:45:00 PM 10.51 50.918 0.074 9.27 1.78 12.44
4/8/2021 1:00:00 PM 10.84 51.512 0.074 9.32 1.81 12.35
4/8/2021 1:15:00 PM 11.16 52.088 0.074 9.34 1.89 12.26
4/8/2021 1:30:00 PM 11.45 52.61 0.074 9.37 1.94 12.17
4/8/2021 1:45:00 PM 11.72 53.096 0.074 9.39 1.92 12.08
4/8/2021 2:00:00 PM 11.95 53.51 0.074 9.42 1.86 11.99
4/8/2021 2:15:00 PM 12.15 53.87 0.073 9.44 1.74 11.9
4/8/2021 2:30:00 PM 12.37 54.266 0.073 9.46 1.82 11.83
4/8/2021 2:45:00 PM 12.54 54.572 0.073 9.46 1.84 11.75
4/8/2021 3:00:00 PM 12.68 54.824 0.073 9.47 1.73 11.68
4/8/2021 3:15:00 PM 12.83 55.094 0.073 9.49 1.91 11.61
4/8/2021 3:30:00 PM 12.93 55.274 0.073 9.48 1.84 11.52
4/8/2021 3:45:00 PM 13.04 55.472 0.073 9.49 1.94 11.46
4/8/2021 4:00:00 PM 13.1 55.58 0.073 9.48 1.93 11.39
4/8/2021 4:15:00 PM 13.18 55.724 0.073 9.47 1.82 11.32
4/8/2021 4:30:00 PM 13.23 55.814 0.073 9.47 1.82 11.25
4/8/2021 4:45:00 PM 13.25 55.85 0.073 9.45 1.94 11.18
4/8/2021 5:00:00 PM 13.27 55.886 0.072 9.42 1.86 11.1
4/8/2021 5:15:00 PM 13.28 55.904 0.072 9.4 1.81 11.03
4/8/2021 5:30:00 PM 13.25 55.85 0.072 9.35 1.87 10.94
4/8/2021 5:45:00 PM 13.21 55.778 0.072 9.28 1.8 10.85
4/8/2021 6:00:00 PM 13.14 55.652 0.072 9.21 1.79 10.75
4/8/2021 6:15:00 PM 13.08 55.544 0.072 9.1 1.84 10.65
4/8/2021 6:30:00 PM 12.99 55.382 0.072 8.95 1.88 10.54
4/8/2021 6:45:00 PM 12.89 55.202 0.072 8.73 1.86 10.43
4/8/2021 7:00:00 PM 12.81 55.058 0.072 8.44 1.94 10.36
4/8/2021 7:15:00 PM 12.72 54.896 0.072 8.12 1.93 10.28
4/8/2021 7:30:00 PM 12.62 54.716 0.073 7.85 1.99 10.21
4/8/2021 7:45:00 PM 12.52 54.536 0.073 7.66 1.88 10.13
4/8/2021 8:00:00 PM 12.4 54.32 0.074 7.55 1.95 10.04
4/8/2021 8:15:00 PM 12.3 54.14 0.074 7.48 1.91 9.99
4/8/2021 8:30:00 PM 12.2 53.96 0.074 7.44 1.99 9.96
4/8/2021 8:45:00 PM 12.1 53.78 0.074 7.41 2.17 9.95
4/8/2021 9:00:00 PM 12 53.6 0.075 7.38 1.9 9.95
4/8/2021 9:15:00 PM 11.9 53.42 0.075 7.36 1.96 9.95
4/8/2021 9:30:00 PM 11.8 53.24 0.075 7.34 1.85 9.98
4/8/2021 9:45:00 PM 11.69 53.042 0.075 7.33 1.91 10
4/8/2021 10:00:00 PM 11.57 52.826 0.076 7.32 1.85 10.03
4/8/2021 10:15:00 PM 11.46 52.628 0.076 7.32 1.83 10.06
4/8/2021 10:30:00 PM 11.34 52.412 0.076 7.31 1.81 10.09
4/8/2021 10:45:00 PM 11.23 52.214 0.076 7.29 2.04 10.13
4/8/2021 11:00:00 PM 11.12 52.016 0.076 7.3 1.87 10.16
4/8/2021 11:15:00 PM 11 51.8 0.077 7.28 1.87 10.19
4/8/2021 11:30:00 PM 10.88 51.584 0.077 7.29 1.99 10.23
4/8/2021 11:45:00 PM 10.77 51.386 0.077 7.3 1.79 10.28
4/9/2021 12:00:00 AM 10.65 51.17 0.077 7.29 1.87 10.3
4/9/2021 12:15:00 AM 10.53 50.954 0.077 7.29 1.9 10.34
4/9/2021 12:30:00 AM 10.42 50.756 0.077 7.29 1.87 10.37
4/9/2021 12:45:00 AM 10.31 50.558 0.077 7.28 1.8 10.4
4/9/2021 1:00:00 AM 10.2 50.36 0.077 7.29 1.84 10.44
4/9/2021 1:15:00 AM 10.1 50.18 0.077 7.28 1.8 10.46
4/9/2021 1:30:00 AM 10 50 0.077 7.28 1.81 10.5
4/9/2021 1:45:00 AM 9.9 49.82 0.077 7.27 1.99 10.53
4/9/2021 2:00:00 AM 9.8 49.64 0.077 7.28 1.86 10.55
4/9/2021 2:15:00 AM 9.71 49.478 0.077 7.27 1.91 10.58
4/9/2021 2:30:00 AM 9.61 49.298 0.077 7.27 1.84 10.61
4/9/2021 2:45:00 AM 9.52 49.136 0.077 7.27 1.77 10.63
4/9/2021 3:00:00 AM 9.43 48.974 0.077 7.27 1.85 10.66
4/9/2021 3:15:00 AM 9.35 48.83 0.077 7.28 1.77 10.7
4/9/2021 3:30:00 AM 9.27 48.686 0.077 7.27 1.83 10.71
4/9/2021 3:45:00 AM 9.18 48.524 0.077 7.25 2.01 10.74
4/9/2021 4:00:00 AM 9.1 48.38 0.077 7.27 1.83 10.76
4/9/2021 4:15:00 AM 9.02 48.236 0.077 7.27 1.82 10.79
4/9/2021 4:30:00 AM 8.95 48.11 0.077 7.27 1.89 10.81
4/9/2021 4:45:00 AM 8.87 47.966 0.077 7.25 1.77 10.84
4/9/2021 5:00:00 AM 8.8 47.84 0.077 7.26 1.81 10.86
4/9/2021 5:15:00 AM 8.73 47.714 0.077 7.27 1.89 10.89
4/9/2021 5:30:00 AM 8.66 47.588 0.077 7.27 1.84 10.91
4/9/2021 5:45:00 AM 8.59 47.462 0.077 7.26 1.8 10.94
4/9/2021 6:00:00 AM 8.52 47.336 0.078 7.27 1.94 10.96
4/9/2021 6:15:00 AM 8.45 47.21 0.078 7.28 1.94 10.98
4/9/2021 6:30:00 AM 8.39 47.102 0.078 7.28 1.97 11.01
4/9/2021 6:45:00 AM 8.33 46.994 0.078 7.29 1.87 11.07
4/9/2021 7:00:00 AM 8.27 46.886 0.077 7.31 1.89 11.19
4/9/2021 7:15:00 AM 8.23 46.814 0.077 7.34 1.99 11.33
4/9/2021 7:30:00 AM 8.2 46.76 0.077 7.38 1.96 11.49
4/9/2021 7:45:00 AM 8.17 46.706 0.077 7.42 1.87 11.63
4/9/2021 8:00:00 AM 8.13 46.634 0.077 7.45 1.9 11.72
4/9/2021 8:15:00 AM 8.12 46.616 0.077 7.52 1.86 11.91
4/9/2021 8:30:00 AM 8.15 46.67 0.077 7.62 2.06 12.13
4/9/2021 8:45:00 AM 8.22 46.796 0.077 7.81 9.54 12.3
4/9/2021 9:00:00 AM 8.3 46.94 0.077 7.97 1.77 12.46
4/9/2021 9:15:00 AM 8.43 47.174 0.077 8.22 1.89 12.58
4/9/2021 9:30:00 AM 8.56 47.408 0.076 8.45 1.9 12.65
4/9/2021 9:45:00 AM 8.68 47.624 0.076 8.6 1.84 12.68
4/9/2021 10:00:00 AM 8.82 47.876 0.076 8.76 1.86 12.71
4/9/2021 10:15:00 AM 8.92 48.056 0.076 8.83 1.82 12.69
4/9/2021 10:30:00 AM 9.05 48.29 0.076 8.94 1.92 12.69
4/9/2021 10:45:00 AM 9.16 48.488 0.076 9.01 2.01 12.68
4/9/2021 11:00:00 AM 9.29 48.722 0.076 9.07 1.9 12.66
4/9/2021 11:15:00 AM 9.49 49.082 0.076 9.15 1.81 12.67
4/9/2021 11:30:00 AM 9.71 49.478 0.075 9.21 1.84 12.64
4/9/2021 11:45:00 AM 9.82 49.676 0.075 9.24 2.21 12.6
4/9/2021 12:00:00 PM 9.85 49.73 0.075 9.25 1.87 12.5
4/9/2021 12:15:00 PM 9.88 49.784 0.075 9.29 1.92 12.51
4/9/2021 12:30:00 PM 9.87 49.766 0.075 9.25 1.95 12.24
4/9/2021 12:45:00 PM 9.9 49.82 0.075 9.22 1.96 12.16
4/9/2021 1:00:00 PM 9.93 49.874 0.075 9.21 1.89 12.09
4/9/2021 1:15:00 PM 9.99 49.982 0.075 9.25 1.88 12.12
4/9/2021 1:30:00 PM 10.06 50.108 0.075 9.25 1.89 12.16
4/9/2021 1:45:00 PM 10.1 50.18 0.075 9.31 1.85 12.17
4/9/2021 2:00:00 PM 10.12 50.216 0.075 9.31 1.89 12.17
4/9/2021 2:15:00 PM 10.14 50.252 0.075 9.33 2 12.16
4/9/2021 2:30:00 PM 10.18 50.324 0.074 9.32 1.93 12.09
4/9/2021 2:45:00 PM 10.22 50.396 0.074 9.31 1.87 12.03
4/9/2021 3:00:00 PM 10.27 50.486 0.074 9.31 1.9 11.99
4/9/2021 3:15:00 PM 10.3 50.54 0.074 9.3 1.9 11.96
4/9/2021 3:30:00 PM 10.34 50.612 0.074 9.3 1.99 11.92
4/9/2021 3:45:00 PM 10.36 50.648 0.074 9.29 1.89 11.9
4/9/2021 4:00:00 PM 10.39 50.702 0.074 9.29 2 11.91
4/9/2021 4:15:00 PM 10.43 50.774 0.074 9.28 1.92 11.92
4/9/2021 4:30:00 PM 10.44 50.792 0.074 9.25 1.89 11.87
4/9/2021 4:45:00 PM 10.45 50.81 0.074 9.23 1.9 11.84
4/9/2021 5:00:00 PM 10.43 50.774 0.074 9.17 1.89 11.72
4/9/2021 5:15:00 PM 10.43 50.774 0.074 9.13 1.84 11.71
4/9/2021 5:30:00 PM 10.42 50.756 0.074 9.08 1.88 11.64
4/9/2021 5:45:00 PM 10.4 50.72 0.074 8.98 1.88 11.56
4/9/2021 6:00:00 PM 10.38 50.684 0.074 8.85 1.85 11.48
4/9/2021 6:15:00 PM 10.36 50.648 0.074 8.73 1.87 11.42
4/9/2021 6:30:00 PM 10.34 50.612 0.074 8.47 1.84 11.29
4/9/2021 6:45:00 PM 10.32 50.576 0.074 8.23 1.89 11.25
4/9/2021 7:00:00 PM 10.3 50.54 0.074 7.99 1.81 11.19
4/9/2021 7:15:00 PM 10.27 50.486 0.074 7.81 1.84 11.08
4/9/2021 7:30:00 PM 10.24 50.432 0.074 7.68 1.84 10.96
4/9/2021 7:45:00 PM 10.21 50.378 0.074 7.57 1.85 10.83
4/9/2021 8:00:00 PM 10.18 50.324 0.074 7.52 1.9 10.74
4/9/2021 8:15:00 PM 10.14 50.252 0.075 7.47 1.87 10.66
4/9/2021 8:30:00 PM 10.11 50.198 0.075 7.43 1.91 10.62
4/9/2021 8:45:00 PM 10.08 50.144 0.075 7.4 2.03 10.59
4/9/2021 9:00:00 PM 10.05 50.09 0.075 7.38 2.17 10.57
4/9/2021 9:15:00 PM 10.02 50.036 0.075 7.36 1.95 10.55
4/9/2021 9:30:00 PM 9.98 49.964 0.076 7.36 1.99 10.55
4/9/2021 9:45:00 PM 9.94 49.892 0.076 7.36 1.93 10.55
4/9/2021 10:00:00 PM 9.9 49.82 0.076 7.34 1.88 10.56
4/9/2021 10:15:00 PM 9.87 49.766 0.076 7.34 2 10.56
4/9/2021 10:30:00 PM 9.85 49.73 0.076 7.32 1.92 10.58
4/9/2021 10:45:00 PM 9.83 49.694 0.076 7.33 1.84 10.58
4/9/2021 11:00:00 PM 9.81 49.658 0.076 7.33 1.96 10.58
4/9/2021 11:15:00 PM 9.78 49.604 0.076 7.33 1.91 10.59
4/9/2021 11:30:00 PM 9.75 49.55 0.077 7.3 1.96 10.6
4/9/2021 11:45:00 PM 9.72 49.496 0.077 7.32 1.87 10.6
4/10/2021 12:00:00 AM 9.7 49.46 0.077 7.31 2.01 10.61
4/10/2021 12:15:00 AM 9.68 49.424 0.077 7.3 1.99 10.62
4/10/2021 12:30:00 AM 9.66 49.388 0.077 7.31 1.97 10.63
4/10/2021 12:45:00 AM 9.63 49.334 0.077 7.3 1.94 10.63
4/10/2021 1:00:00 AM 9.61 49.298 0.077 7.31 1.9 10.64
4/10/2021 1:15:00 AM 9.59 49.262 0.077 7.29 1.93 10.66
4/10/2021 1:30:00 AM 9.57 49.226 0.077 7.31 2.14 10.65
4/10/2021 1:45:00 AM 9.55 49.19 0.077 7.3 1.89 10.65
4/10/2021 2:00:00 AM 9.52 49.136 0.077 7.28 1.89 10.66
4/10/2021 2:15:00 AM 9.51 49.118 0.077 7.29 1.9 10.66
4/10/2021 2:30:00 AM 9.49 49.082 0.077 7.28 1.94 10.67
4/10/2021 2:45:00 AM 9.47 49.046 0.077 7.3 1.92 10.69
4/10/2021 3:00:00 AM 9.45 49.01 0.077 7.28 3.06 10.68
4/10/2021 3:15:00 AM 9.44 48.992 0.077 7.29 2.15 10.69
4/10/2021 3:30:00 AM 9.42 48.956 0.077 7.29 1.93 10.69
4/10/2021 3:45:00 AM 9.4 48.92 0.077 7.28 1.9 10.71
4/10/2021 4:00:00 AM 9.38 48.884 0.077 7.29 1.85 10.71
4/10/2021 4:15:00 AM 9.37 48.866 0.077 7.28 1.99 10.71
4/10/2021 4:30:00 AM 9.35 48.83 0.077 7.29 1.93 10.71
4/10/2021 4:45:00 AM 9.34 48.812 0.077 7.3 1.84 10.72
4/10/2021 5:00:00 AM 9.33 48.794 0.077 7.3 2.02 10.71
4/10/2021 5:15:00 AM 9.31 48.758 0.077 7.3 1.96 10.73
4/10/2021 5:30:00 AM 9.3 48.74 0.077 7.29 1.85 10.72
4/10/2021 5:45:00 AM 9.29 48.722 0.077 7.3 1.87 10.73
4/10/2021 6:00:00 AM 9.27 48.686 0.077 7.3 1.94 10.74
4/10/2021 6:15:00 AM 9.25 48.65 0.077 7.28 1.99 10.74
4/10/2021 6:30:00 AM 9.24 48.632 0.077 7.29 1.94 10.74
4/10/2021 6:45:00 AM 9.22 48.596 0.077 7.31 1.91 10.77
4/10/2021 7:00:00 AM 9.21 48.578 0.077 7.31 1.92 10.81
4/10/2021 7:15:00 AM 9.2 48.56 0.077 7.32 1.83 10.87
4/10/2021 7:30:00 AM 9.2 48.56 0.077 7.33 1.96 10.96
4/10/2021 7:45:00 AM 9.2 48.56 0.077 7.39 1.82 11.06
4/10/2021 8:00:00 AM 9.2 48.56 0.077 7.41 1.8 11.16
4/10/2021 8:15:00 AM 9.21 48.578 0.077 7.46 1.88 11.29
4/10/2021 8:30:00 AM 9.23 48.614 0.077 7.53 1.91 11.47
4/10/2021 8:45:00 AM 9.26 48.668 0.077 7.59 1.92 11.6
4/10/2021 9:00:00 AM 9.3 48.74 0.076 7.7 1.88 11.76
4/10/2021 9:15:00 AM 9.35 48.83 0.076 7.82 1.92 11.92
4/10/2021 9:30:00 AM 9.4 48.92 0.076 7.94 1.85 12.02
4/10/2021 9:45:00 AM 9.47 49.046 0.076 8.16 1.81 12.14
4/10/2021 10:00:00 AM 9.55 49.19 0.076 8.42 1.87 12.22
4/10/2021 10:15:00 AM 9.66 49.388 0.076 8.62 2.04 12.31
4/10/2021 10:30:00 AM 9.79 49.622 0.075 8.8 2.07 12.37
4/10/2021 10:45:00 AM 9.93 49.874 0.075 8.92 1.91 12.42
4/10/2021 11:00:00 AM 10.13 50.234 0.075 9.03 1.96 12.46
4/10/2021 11:15:00 AM 10.3 50.54 0.075 9.08 1.98 12.42
4/10/2021 11:30:00 AM 10.59 51.062 0.075 9.19 1.9 12.39
4/10/2021 11:45:00 AM 10.95 51.71 0.075 9.26 1.89 12.34
4/10/2021 12:00:00 PM 11.28 52.304 0.075 9.29 1.92 12.26
4/10/2021 12:15:00 PM 11.6 52.88 0.075 9.35 1.91 12.19
4/10/2021 12:30:00 PM 11.87 53.366 0.075 9.36 1.94 12.08
4/10/2021 12:45:00 PM 12.17 53.906 0.075 9.4 1.89 12.03
4/10/2021 1:00:00 PM 12.45 54.41 0.075 9.42 1.92 11.95
4/10/2021 1:15:00 PM 12.76 54.968 0.075 9.47 1.9 11.9
4/10/2021 1:30:00 PM 13.04 55.472 0.075 9.52 1.86 11.83
4/10/2021 1:45:00 PM 13.3 55.94 0.075 9.54 1.97 11.75
4/10/2021 2:00:00 PM 13.51 56.318 0.075 9.57 2.06 11.69
4/10/2021 2:15:00 PM 13.71 56.678 0.075 9.59 2.04 11.64
4/10/2021 2:30:00 PM 13.87 56.966 0.075 9.61 1.98 11.58
4/10/2021 2:45:00 PM 14.01 57.218 0.075 9.63 1.91 11.52
4/10/2021 3:00:00 PM 14.14 57.452 0.075 9.66 2.05 11.47
4/10/2021 3:15:00 PM 14.22 57.596 0.075 9.68 1.97 11.4
4/10/2021 3:30:00 PM 14.33 57.794 0.075 9.68 2.15 11.36
4/10/2021 3:45:00 PM 14.4 57.92 0.075 9.71 2.48 11.3
4/10/2021 4:00:00 PM 14.48 58.064 0.075 9.72 1.93 11.27
4/10/2021 4:15:00 PM 14.52 58.136 0.075 9.73 2.07 11.21
4/10/2021 4:30:00 PM 14.58 58.244 0.075 9.74 1.97 11.16
4/10/2021 4:45:00 PM 14.61 58.298 0.075 9.74 1.95 11.1
4/10/2021 5:00:00 PM 14.65 58.37 0.075 9.75 2.02 11.03
4/10/2021 5:15:00 PM 14.67 58.406 0.075 9.74 2.05 10.97
4/10/2021 5:30:00 PM 14.65 58.37 0.074 9.72 1.96 10.86
4/10/2021 5:45:00 PM 14.64 58.352 0.074 9.69 1.95 10.74
4/10/2021 6:00:00 PM 14.6 58.28 0.074 9.64 2.06 10.62
4/10/2021 6:15:00 PM 14.59 58.262 0.074 9.6 2.22 10.49
4/10/2021 6:30:00 PM 14.54 58.172 0.073 9.53 2.11 10.4
4/10/2021 6:45:00 PM 14.49 58.082 0.073 9.46 1.95 10.28
4/10/2021 7:00:00 PM 14.39 57.902 0.073 9.33 1.96 10.12
4/10/2021 7:15:00 PM 14.3 57.74 0.073 9.17 2 9.96
4/10/2021 7:30:00 PM 14.18 57.524 0.073 8.93 1.95 9.82
4/10/2021 7:45:00 PM 14.07 57.326 0.073 8.55 2.01 9.68
4/10/2021 8:00:00 PM 13.96 57.128 0.073 8.03 2.06 9.57
4/10/2021 8:15:00 PM 13.87 56.966 0.074 7.76 2.08 9.52
4/10/2021 8:30:00 PM 13.76 56.768 0.075 7.62 1.94 9.48
4/10/2021 8:45:00 PM 13.67 56.606 0.075 7.52 2.11 9.45
4/10/2021 9:00:00 PM 13.58 56.444 0.075 7.46 1.98 9.45
4/10/2021 9:15:00 PM 13.47 56.246 0.076 7.42 2.13 9.45
4/10/2021 9:30:00 PM 13.37 56.066 0.076 7.4 2.15 9.46
4/10/2021 9:45:00 PM 13.26 55.868 0.077 7.38 2.07 9.47
4/10/2021 10:00:00 PM 13.15 55.67 0.077 7.36 1.94 9.49
4/10/2021 10:15:00 PM 13.04 55.472 0.077 7.35 2.01 9.52
4/10/2021 10:30:00 PM 12.94 55.292 0.077 7.34 1.98 9.54
4/10/2021 10:45:00 PM 12.82 55.076 0.078 7.33 2.09 9.57
4/10/2021 11:00:00 PM 12.72 54.896 0.078 7.33 2.01 9.59
4/10/2021 11:15:00 PM 12.61 54.698 0.078 7.32 1.94 9.62
4/10/2021 11:30:00 PM 12.5 54.5 0.078 7.29 2.07 9.64
4/10/2021 11:45:00 PM 12.4 54.32 0.078 7.32 2.06 9.68
4/11/2021 12:00:00 AM 12.29 54.122 0.078 7.31 2.07 9.7
4/11/2021 12:15:00 AM 12.18 53.924 0.078 7.3 1.96 9.72
4/11/2021 12:30:00 AM 12.07 53.726 0.079 7.31 2.01 9.76
4/11/2021 12:45:00 AM 11.97 53.546 0.079 7.3 1.98 9.78
4/11/2021 1:00:00 AM 11.86 53.348 0.079 7.29 1.97 9.81
4/11/2021 1:15:00 AM 11.76 53.168 0.079 7.29 1.94 9.85
4/11/2021 1:30:00 AM 11.67 53.006 0.079 7.29 2.05 9.88
4/11/2021 1:45:00 AM 11.57 52.826 0.079 7.29 1.99 9.9
4/11/2021 2:00:00 AM 11.48 52.664 0.079 7.29 1.99 9.92
4/11/2021 2:15:00 AM 11.38 52.484 0.079 7.28 2.05 9.94
4/11/2021 2:30:00 AM 11.3 52.34 0.079 7.29 2.13 9.97
4/11/2021 2:45:00 AM 11.21 52.178 0.079 7.28 1.94 10
4/11/2021 3:00:00 AM 11.12 52.016 0.079 7.28 1.89 10
4/11/2021 3:15:00 AM 11.05 51.89 0.079 7.26 1.98 10.04
4/11/2021 3:30:00 AM 10.96 51.728 0.079 7.28 1.94 10.06
4/11/2021 3:45:00 AM 10.88 51.584 0.079 7.27 1.96 10.08
4/11/2021 4:00:00 AM 10.81 51.458 0.079 7.28 2.06 10.11
4/11/2021 4:15:00 AM 10.74 51.332 0.079 7.28 2.06 10.11
4/11/2021 4:30:00 AM 10.67 51.206 0.079 7.28 1.93 10.12
4/11/2021 4:45:00 AM 10.61 51.098 0.079 7.28 1.95 10.17
4/11/2021 5:00:00 AM 10.55 50.99 0.079 7.27 2.02 10.18
4/11/2021 5:15:00 AM 10.49 50.882 0.079 7.28 1.99 10.19
4/11/2021 5:30:00 AM 10.43 50.774 0.079 7.25 1.93 10.21
4/11/2021 5:45:00 AM 10.39 50.702 0.079 7.28 1.96 10.23
4/11/2021 6:00:00 AM 10.34 50.612 0.079 7.27 2.13 10.23
4/11/2021 6:15:00 AM 10.3 50.54 0.079 7.25 1.94 10.23
4/11/2021 6:30:00 AM 10.25 50.45 0.079 7.27 2.09 10.24
4/11/2021 6:45:00 AM 10.24 50.432 0.079 7.26 1.99 10.28
4/11/2021 7:00:00 AM 10.21 50.378 0.079 7.29 2.04 10.33
4/11/2021 7:15:00 AM 10.18 50.324 0.079 7.3 1.92 10.39
4/11/2021 7:30:00 AM 10.18 50.324 0.079 7.34 1.9 10.51
4/11/2021 7:45:00 AM 10.17 50.306 0.079 7.39 1.89 10.68
4/11/2021 8:00:00 AM 10.19 50.342 0.079 7.48 1.94 10.93
4/11/2021 8:15:00 AM 10.23 50.414 0.079 7.58 1.95 11.17
4/11/2021 8:30:00 AM 10.27 50.486 0.079 7.68 1.9 11.36
4/11/2021 8:45:00 AM 10.36 50.648 0.079 7.87 1.88 11.52
4/11/2021 9:00:00 AM 10.4 50.72 0.078 7.98 1.9 11.58
4/11/2021 9:15:00 AM 10.41 50.738 0.078 7.88 1.89 11.49
4/11/2021 9:30:00 AM 10.45 50.81 0.078 7.91 1.96 11.42
4/11/2021 9:45:00 AM 10.49 50.882 0.078 8.03 2.19 11.51
4/11/2021 10:00:00 AM 10.52 50.936 0.078 7.98 1.93 11.46
4/11/2021 10:15:00 AM 10.53 50.954 0.078 8.04 2.01 11.44
4/11/2021 10:30:00 AM 10.59 51.062 0.078 8.15 1.96 11.48
4/11/2021 10:45:00 AM 10.61 51.098 0.077 8.23 2.12 11.52
4/11/2021 11:00:00 AM 10.64 51.152 0.077 8.27 1.93 11.53
4/11/2021 11:15:00 AM 10.67 51.206 0.077 8.42 2 11.58
4/11/2021 11:30:00 AM 10.7 51.26 0.077 8.52 2 11.58
4/11/2021 11:45:00 AM 10.72 51.296 0.077 8.49 1.99 11.55
4/11/2021 12:00:00 PM 10.79 51.422 0.077 8.64 2.01 11.64
4/11/2021 12:15:00 PM 10.84 51.512 0.077 8.76 1.97 11.69
4/11/2021 12:30:00 PM 10.89 51.602 0.077 8.86 1.99 11.73
4/11/2021 12:45:00 PM 10.97 51.746 0.077 8.96 2.01 11.78
4/11/2021 1:00:00 PM 11.02 51.836 0.077 9.01 1.97 11.78
4/11/2021 1:15:00 PM 11.09 51.962 0.077 9.05 2.03 11.79
4/11/2021 1:30:00 PM 11.17 52.106 0.077 9.13 2.04 11.84
4/11/2021 1:45:00 PM 11.24 52.232 0.077 9.17 2.14 11.81
4/11/2021 2:00:00 PM 11.32 52.376 0.076 9.21 2.15 11.79
4/11/2021 2:15:00 PM 11.4 52.52 0.077 9.24 2.06 11.8
4/11/2021 2:30:00 PM 11.47 52.646 0.077 9.29 2.21 11.77
4/11/2021 2:45:00 PM 11.54 52.772 0.076 9.31 2.12 11.75
4/11/2021 3:00:00 PM 11.6 52.88 0.077 9.34 2.28 11.72
4/11/2021 3:15:00 PM 11.64 52.952 0.076 9.33 2.36 11.66
4/11/2021 3:30:00 PM 11.7 53.06 0.076 9.34 2.39 11.64
4/11/2021 3:45:00 PM 11.75 53.15 0.076 9.35 2.41 11.59
4/11/2021 4:00:00 PM 11.78 53.204 0.076 9.33 2.36 11.5
4/11/2021 4:15:00 PM 11.84 53.312 0.076 9.35 2.39 11.51
4/11/2021 4:30:00 PM 11.86 53.348 0.076 9.3 2.33 11.37
4/11/2021 4:45:00 PM 11.87 53.366 0.076 9.25 2.33 11.24
4/11/2021 5:00:00 PM 11.87 53.366 0.076 9.17 2.37 11.09
4/11/2021 5:15:00 PM 11.88 53.384 0.076 9.11 2.46 11.05
4/11/2021 5:30:00 PM 11.89 53.402 0.076 9.01 2.39 10.94
4/11/2021 5:45:00 PM 11.9 53.42 0.076 8.92 2.57 10.92
4/11/2021 6:00:00 PM 11.89 53.402 0.076 8.7 2.59 10.79
4/11/2021 6:15:00 PM 11.87 53.366 0.076 8.35 2.73 10.63
4/11/2021 6:30:00 PM 11.85 53.33 0.076 7.98 2.88 10.47
4/11/2021 6:45:00 PM 11.84 53.312 0.076 7.84 2.86 10.43
4/11/2021 7:00:00 PM 11.83 53.294 0.076 7.72 2.8 10.37
4/11/2021 7:15:00 PM 11.81 53.258 0.077 7.64 2.63 10.3
4/11/2021 7:30:00 PM 11.79 53.222 0.077 7.55 3.06 10.22
4/11/2021 7:45:00 PM 11.76 53.168 0.078 7.48 2.89 10.16
4/11/2021 8:00:00 PM 11.74 53.132 0.078 7.43 3.27 10.11
4/11/2021 8:15:00 PM 11.71 53.078 0.078 7.39 3.27 10.07
4/11/2021 8:30:00 PM 11.68 53.024 0.078 7.38 3.46 10.05
4/11/2021 8:45:00 PM 11.66 52.988 0.079 7.35 3.76 10.05
4/11/2021 9:00:00 PM 11.63 52.934 0.079 7.34 4.02 10.05
4/11/2021 9:15:00 PM 11.6 52.88 0.079 7.33 4.83 10.05
4/11/2021 9:30:00 PM 11.57 52.826 0.08 7.33 5.02 10.07
4/11/2021 9:45:00 PM 11.55 52.79 0.08 7.34 5.59 10.08
4/11/2021 10:00:00 PM 11.52 52.736 0.08 7.33 5.28 10.1
4/11/2021 10:15:00 PM 11.49 52.682 0.08 7.35 6.37 10.12
4/11/2021 10:30:00 PM 11.46 52.628 0.08 7.32 6.41 10.14
4/11/2021 10:45:00 PM 11.43 52.574 0.08 7.35 7.51 10.15
4/11/2021 11:00:00 PM 11.39 52.502 0.079 7.33 8.41 10.18
4/11/2021 11:15:00 PM 11.34 52.412 0.078 7.32 9.33 10.21
4/11/2021 11:30:00 PM 11.28 52.304 0.077 7.29 10.19 10.23
4/11/2021 11:45:00 PM 11.23 52.214 0.077 7.29 10.91 10.26
4/12/2021 12:00:00 AM 11.18 52.124 0.076 7.28 11.04 10.27
4/12/2021 12:15:00 AM 11.13 52.034 0.075 7.3 11.22 10.29
4/12/2021 12:30:00 AM 11.07 51.926 0.074 7.27 11.45 10.31
4/12/2021 12:45:00 AM 11.01 51.818 0.073 7.28 12.26 10.33
4/12/2021 1:00:00 AM 10.94 51.692 0.072 7.26 11.27 10.35
4/12/2021 1:15:00 AM 10.89 51.602 0.072 7.23 10.66 10.37
4/12/2021 1:30:00 AM 10.83 51.494 0.071 7.25 10.29 10.39
4/12/2021 1:45:00 AM 10.77 51.386 0.071 7.25 9.75 10.4
4/12/2021 2:00:00 AM 10.71 51.278 0.071 7.24 9.13 10.42
4/12/2021 2:15:00 AM 10.65 51.17 0.071 7.22 8.31 10.44
4/12/2021 2:30:00 AM 10.59 51.062 0.072 7.22 7.87 10.46
4/12/2021 2:45:00 AM 10.53 50.954 0.072 7.22 7.51 10.48
4/12/2021 3:00:00 AM 10.48 50.864 0.072 7.22 6.87 10.49
4/12/2021 3:15:00 AM 10.42 50.756 0.072 7.22 7.01 10.51
4/12/2021 3:30:00 AM 10.38 50.684 0.072 7.23 6.54 10.52
4/12/2021 3:45:00 AM 10.34 50.612 0.073 7.24 6.29 10.53
4/12/2021 4:00:00 AM 10.29 50.522 0.073 7.22 6.35 10.54
4/12/2021 4:15:00 AM 10.25 50.45 0.073 7.23 5.84 10.55
4/12/2021 4:30:00 AM 10.21 50.378 0.073 7.23 5.67 10.56
4/12/2021 4:45:00 AM 10.16 50.288 0.074 7.22 5.52 10.57
4/12/2021 5:00:00 AM 10.12 50.216 0.074 7.24 5.17 10.58
4/12/2021 5:15:00 AM 10.08 50.144 0.074 7.24 5.09 10.59
4/12/2021 5:30:00 AM 10.04 50.072 0.074 7.25 4.99 10.6
4/12/2021 5:45:00 AM 10 50 0.074 7.22 4.8 10.61
4/12/2021 6:00:00 AM 9.97 49.946 0.074 7.24 5.17 10.62
4/12/2021 6:15:00 AM 9.93 49.874 0.075 7.22 4.89 10.63
4/12/2021 6:30:00 AM 9.89 49.802 0.075 7.24 4.76 10.65
4/12/2021 6:45:00 AM 9.84 49.712 0.075 7.24 4.54 10.66
4/12/2021 7:00:00 AM 9.8 49.64 0.075 7.25 4.32 10.7
4/12/2021 7:15:00 AM 9.74 49.532 0.075 7.25 4.22 10.73
4/12/2021 7:30:00 AM 9.68 49.424 0.075 7.26 4.23 10.76
4/12/2021 7:45:00 AM 9.62 49.316 0.075 7.24 4.02 10.81
4/12/2021 8:00:00 AM 9.56 49.208 0.075 7.26 3.96 10.86
4/12/2021 8:15:00 AM 9.51 49.118 0.075 7.28 3.89 10.9
4/12/2021 8:30:00 AM 9.46 49.028 0.074 7.32 3.68 10.97
4/12/2021 8:45:00 AM 9.42 48.956 0.074 7.34 3.59 11.05
4/12/2021 9:00:00 AM 9.39 48.902 0.074 7.38 3.61 11.14
4/12/2021 9:15:00 AM 9.35 48.83 0.074 7.42 3.35 11.21
4/12/2021 9:30:00 AM 9.31 48.758 0.074 7.43 3.4 11.26
4/12/2021 9:45:00 AM 9.29 48.722 0.074 7.46 3.25 11.35
4/12/2021 10:00:00 AM 9.27 48.686 0.073 7.52 3.38 11.45
4/12/2021 10:15:00 AM 9.25 48.65 0.073 7.54 3.46 11.53
4/12/2021 10:30:00 AM 9.24 48.632 0.073 7.6 3.16 11.58
4/12/2021 10:45:00 AM 9.23 48.614 0.073 7.65 2.95 11.62
4/12/2021 11:00:00 AM 9.21 48.578 0.073 7.68 2.89 11.66
4/12/2021 11:15:00 AM 9.19 48.542 0.073 7.71 2.96 11.67
4/12/2021 11:30:00 AM 9.17 48.506 0.073 7.72 2.87 11.68
4/12/2021 11:45:00 AM 9.14 48.452 0.072 7.74 2.94 11.68
4/12/2021 12:00:00 PM 9.12 48.416 0.072 7.75 2.93 11.68
4/12/2021 12:15:00 PM 9.11 48.398 0.072 7.78 2.82 11.72
4/12/2021 12:30:00 PM 9.11 48.398 0.072 7.83 2.86 11.76
4/12/2021 12:45:00 PM 9.12 48.416 0.072 7.92 2.8 11.82
4/12/2021 1:00:00 PM 9.15 48.47 0.072 8.02 2.75 11.87
4/12/2021 1:15:00 PM 9.18 48.524 0.072 8.09 3.03 11.89
4/12/2021 1:30:00 PM 9.18 48.524 0.072 8.03 2.77 11.84
4/12/2021 1:45:00 PM 9.19 48.542 0.071 8.05 2.78 11.83
4/12/2021 2:00:00 PM 9.21 48.578 0.071 8.09 2.7 11.85
4/12/2021 2:15:00 PM 9.21 48.578 0.071 8.08 2.77 11.84
4/12/2021 2:30:00 PM 9.21 48.578 0.071 8.08 2.75 11.82
4/12/2021 2:45:00 PM 9.21 48.578 0.071 8.02 2.66 11.78
4/12/2021 3:00:00 PM 9.21 48.578 0.071 7.92 2.67 11.72
4/12/2021 3:15:00 PM 9.19 48.542 0.071 7.81 2.75 11.64
4/12/2021 3:30:00 PM 9.18 48.524 0.071 7.76 2.63 11.61
4/12/2021 3:45:00 PM 9.16 48.488 0.071 7.74 2.67 11.6
4/12/2021 4:00:00 PM 9.15 48.47 0.07 7.74 2.58 11.62
4/12/2021 4:15:00 PM 9.15 48.47 0.07 7.74 2.69 11.63
4/12/2021 4:30:00 PM 9.13 48.434 0.07 7.69 2.57 11.59
4/12/2021 4:45:00 PM 9.12 48.416 0.07 7.64 2.6 11.54
4/12/2021 5:00:00 PM 9.1 48.38 0.07 7.59 2.6 11.51
4/12/2021 5:15:00 PM 9.09 48.362 0.07 7.57 2.53 11.48
4/12/2021 5:30:00 PM 9.07 48.326 0.07 7.56 2.63 11.46
4/12/2021 5:45:00 PM 9.06 48.308 0.07 7.55 2.61 11.47
4/12/2021 6:00:00 PM 9.05 48.29 0.07 7.52 2.63 11.42
4/12/2021 6:15:00 PM 9.03 48.254 0.07 7.48 2.71 11.39
4/12/2021 6:30:00 PM 9.02 48.236 0.07 7.47 2.54 11.37
4/12/2021 6:45:00 PM 9 48.2 0.07 7.44 2.69 11.32
4/12/2021 7:00:00 PM 8.98 48.164 0.07 7.4 2.72 11.27
4/12/2021 7:15:00 PM 8.95 48.11 0.071 7.36 2.68 11.21
4/12/2021 7:30:00 PM 8.92 48.056 0.071 7.34 2.69 11.16
4/12/2021 7:45:00 PM 8.89 48.002 0.071 7.31 2.76 11.12
4/12/2021 8:00:00 PM 8.86 47.948 0.071 7.27 2.68 11.09
4/12/2021 8:15:00 PM 8.83 47.894 0.071 7.27 2.73 11.07
4/12/2021 8:30:00 PM 8.8 47.84 0.071 7.26 2.68 11.06
4/12/2021 8:45:00 PM 8.78 47.804 0.071 7.23 2.77 11.06
4/12/2021 9:00:00 PM 8.75 47.75 0.071 7.24 2.79 11.06
4/12/2021 9:15:00 PM 8.73 47.714 0.071 7.23 2.83 11.06
4/12/2021 9:30:00 PM 8.7 47.66 0.071 7.23 2.77 11.07
4/12/2021 9:45:00 PM 8.67 47.606 0.071 7.21 2.77 11.08
4/12/2021 10:00:00 PM 8.65 47.57 0.071 7.23 2.77 11.08
4/12/2021 10:15:00 PM 8.62 47.516 0.071 7.22 2.69 11.09
4/12/2021 10:30:00 PM 8.6 47.48 0.071 7.22 2.9 11.1
4/12/2021 10:45:00 PM 8.57 47.426 0.071 7.23 2.85 11.11
4/12/2021 11:00:00 PM 8.55 47.39 0.071 7.21 2.9 11.12
4/12/2021 11:15:00 PM 8.53 47.354 0.071 7.23 2.97 11.13
4/12/2021 11:30:00 PM 8.5 47.3 0.071 7.23 3 11.14
4/12/2021 11:45:00 PM 8.48 47.264 0.071 7.23 3.13 11.15
4/13/2021 12:00:00 AM 8.46 47.228 0.071 7.21 3.31 11.16
4/13/2021 12:15:00 AM 8.44 47.192 0.071 7.23 3.4 11.17
4/13/2021 12:30:00 AM 8.43 47.174 0.071 7.21 3.36 11.18
4/13/2021 12:45:00 AM 8.41 47.138 0.071 7.22 3.54 11.18
4/13/2021 1:00:00 AM 8.39 47.102 0.071 7.22 3.39 11.19
4/13/2021 1:15:00 AM 8.36 47.048 0.07 7.24 3.38 11.2
4/13/2021 1:30:00 AM 8.33 46.994 0.07 7.24 3.39 11.22
4/13/2021 1:45:00 AM 8.31 46.958 0.07 7.24 3.56 11.22
4/13/2021 2:00:00 AM 8.28 46.904 0.07 7.25 3.63 11.23
4/13/2021 2:15:00 AM 8.26 46.868 0.07 7.25 3.75 11.24
4/13/2021 2:30:00 AM 8.23 46.814 0.07 7.25 3.76 11.25
4/13/2021 2:45:00 AM 8.21 46.778 0.07 7.22 3.85 11.26
4/13/2021 3:00:00 AM 8.18 46.724 0.07 7.24 3.7 11.27
4/13/2021 3:15:00 AM 8.16 46.688 0.07 7.24 3.82 11.28
4/13/2021 3:30:00 AM 8.13 46.634 0.07 7.24 3.78 11.29
4/13/2021 3:45:00 AM 8.1 46.58 0.07 7.22 3.79 11.3
4/13/2021 4:00:00 AM 8.05 46.49 0.07 7.24 3.44 11.31
4/13/2021 4:15:00 AM 8 46.4 0.07 7.24 3.55 11.32
4/13/2021 4:30:00 AM 7.96 46.328 0.069 7.23 3.64 11.33
4/13/2021 4:45:00 AM 7.92 46.256 0.069 7.23 3.57 11.35
4/13/2021 5:00:00 AM 7.89 46.202 0.069 7.23 3.46 11.36
4/13/2021 5:15:00 AM 7.86 46.148 0.069 7.24 3.32 11.37
4/13/2021 5:30:00 AM 7.83 46.094 0.069 7.22 3.37 11.38
4/13/2021 5:45:00 AM 7.81 46.058 0.069 7.23 3.34 11.39
4/13/2021 6:00:00 AM 7.78 46.004 0.069 7.23 3.35 11.4
4/13/2021 6:15:00 AM 7.75 45.95 0.07 7.24 3.35 11.41
4/13/2021 6:30:00 AM 7.71 45.878 0.07 7.23 3.55 11.44
4/13/2021 6:45:00 AM 7.66 45.788 0.07 7.25 3.22 11.47
4/13/2021 7:00:00 AM 7.61 45.698 0.07 7.26 3.28 11.53
4/13/2021 7:15:00 AM 7.58 45.644 0.07 7.26 3.15 11.6
4/13/2021 7:30:00 AM 7.58 45.644 0.07 7.3 3.05 11.7
4/13/2021 7:45:00 AM 7.57 45.626 0.07 7.34 3.12 11.78
4/13/2021 8:00:00 AM 7.58 45.644 0.07 7.4 2.9 11.89
4/13/2021 8:15:00 AM 7.58 45.644 0.07 7.45 3.07 12
4/13/2021 8:30:00 AM 7.56 45.608 0.07 7.5 2.8 12.09
4/13/2021 8:45:00 AM 7.57 45.626 0.07 7.57 2.86 12.2
4/13/2021 9:00:00 AM 7.65 45.77 0.07 7.68 2.82 12.32
4/13/2021 9:15:00 AM 7.77 45.986 0.07 7.75 2.73 12.38
4/13/2021 9:30:00 AM 7.87 46.166 0.07 7.85 2.81 12.41
4/13/2021 9:45:00 AM 7.99 46.382 0.07 7.93 2.69 12.41
4/13/2021 10:00:00 AM 8.16 46.688 0.07 8.01 2.62 12.41
4/13/2021 10:15:00 AM 8.33 46.994 0.07 8.08 2.63 12.4
4/13/2021 10:30:00 AM 8.48 47.264 0.07 8.14 2.59 12.38
4/13/2021 10:45:00 AM 8.63 47.534 0.07 8.16 2.54 12.36
4/13/2021 11:00:00 AM 8.84 47.912 0.069 8.21 2.59 12.31
4/13/2021 11:15:00 AM 9.07 48.326 0.069 8.28 2.64 12.27
4/13/2021 11:30:00 AM 9.36 48.848 0.069 8.34 2.56 12.22
4/13/2021 11:45:00 AM 9.58 49.244 0.069 8.4 2.56 12.17
4/13/2021 12:00:00 PM 9.82 49.676 0.069 8.42 2.61 12.12
4/13/2021 12:15:00 PM 10.06 50.108 0.069 8.47 2.5 12.06
4/13/2021 12:30:00 PM 10.28 50.504 0.069 8.49 2.45 12
4/13/2021 12:45:00 PM 10.55 50.99 0.069 8.53 2.58 11.92
4/13/2021 1:00:00 PM 10.8 51.44 0.069 8.54 2.53 11.84
4/13/2021 1:15:00 PM 11.01 51.818 0.069 8.58 2.5 11.78
4/13/2021 1:30:00 PM 11.2 52.16 0.069 8.58 2.43 11.73
4/13/2021 1:45:00 PM 11.39 52.502 0.069 8.6 2.46 11.67
4/13/2021 2:00:00 PM 11.56 52.808 0.069 8.59 2.46 11.6
4/13/2021 2:15:00 PM 11.72 53.096 0.069 8.59 2.54 11.54
4/13/2021 2:30:00 PM 11.88 53.384 0.069 8.58 2.87 11.48
4/13/2021 2:45:00 PM 12.03 53.654 0.069 8.59 2.87 11.42
4/13/2021 3:00:00 PM 12.15 53.87 0.069 8.55 2.69 11.36
4/13/2021 3:15:00 PM 12.25 54.05 0.069 8.55 2.61 11.3
4/13/2021 3:30:00 PM 12.34 54.212 0.069 8.52 2.42 11.25
4/13/2021 3:45:00 PM 12.41 54.338 0.069 8.5 2.46 11.2
4/13/2021 4:00:00 PM 12.47 54.446 0.069 8.45 2.48 11.15
4/13/2021 4:15:00 PM 12.51 54.518 0.069 8.43 2.43 11.11
4/13/2021 4:30:00 PM 12.54 54.572 0.069 8.37 2.53 11.06
4/13/2021 4:45:00 PM 12.55 54.59 0.069 8.32 2.57 11.02
4/13/2021 5:00:00 PM 12.55 54.59 0.069 8.24 2.49 10.98
4/13/2021 5:15:00 PM 12.53 54.554 0.069 8.14 2.51 10.94
4/13/2021 5:30:00 PM 12.5 54.5 0.069 8.06 2.47 10.89
4/13/2021 5:45:00 PM 12.45 54.41 0.07 7.95 2.49 10.85
4/13/2021 6:00:00 PM 12.39 54.302 0.07 7.83 2.6 10.79
4/13/2021 6:15:00 PM 12.32 54.176 0.07 7.73 2.74 10.73
4/13/2021 6:30:00 PM 12.25 54.05 0.07 7.66 3.01 10.67
4/13/2021 6:45:00 PM 12.18 53.924 0.07 7.59 3.02 10.61
4/13/2021 7:00:00 PM 12.1 53.78 0.07 7.54 2.99 10.57
4/13/2021 7:15:00 PM 12.02 53.636 0.07 7.48 2.82 10.52
4/13/2021 7:30:00 PM 11.93 53.474 0.07 7.43 2.61 10.46
4/13/2021 7:45:00 PM 11.84 53.312 0.07 7.36 2.66 10.41
4/13/2021 8:00:00 PM 11.74 53.132 0.07 7.3 2.77 10.36
4/13/2021 8:15:00 PM 11.65 52.97 0.07 7.29 2.84 10.32
4/13/2021 8:30:00 PM 11.54 52.772 0.071 7.25 2.82 10.3
4/13/2021 8:45:00 PM 11.44 52.592 0.071 7.24 2.8 10.3
4/13/2021 9:00:00 PM 11.33 52.394 0.071 7.2 2.76 10.31
4/13/2021 9:15:00 PM 11.21 52.178 0.071 7.22 2.7 10.33
4/13/2021 9:30:00 PM 11.09 51.962 0.071 7.21 2.72 10.35
4/13/2021 9:45:00 PM 10.98 51.764 0.071 7.19 2.73 10.38
4/13/2021 10:00:00 PM 10.85 51.53 0.071 7.19 2.75 10.41
4/13/2021 10:15:00 PM 10.73 51.314 0.072 7.18 2.93 10.45
4/13/2021 10:30:00 PM 10.61 51.098 0.072 7.18 2.78 10.48
4/13/2021 10:45:00 PM 10.49 50.882 0.072 7.2 2.65 10.52
4/13/2021 11:00:00 PM 10.38 50.684 0.072 7.19 2.57 10.55
4/13/2021 11:15:00 PM 10.26 50.468 0.072 7.19 2.67 10.59
4/13/2021 11:30:00 PM 10.14 50.252 0.072 7.19 2.68 10.62
4/13/2021 11:45:00 PM 10.03 50.054 0.072 7.18 2.6 10.66
4/14/2021 12:00:00 AM 9.92 49.856 0.072 7.18 2.57 10.69
4/14/2021 12:15:00 AM 9.81 49.658 0.072 7.19 2.62 10.72
4/14/2021 12:30:00 AM 9.71 49.478 0.072 7.18 2.6 10.75
4/14/2021 12:45:00 AM 9.6 49.28 0.072 7.18 2.64 10.78
4/14/2021 1:00:00 AM 9.5 49.1 0.072 7.18 2.56 10.81
4/14/2021 1:15:00 AM 9.41 48.938 0.072 7.17 2.52 10.84
4/14/2021 1:30:00 AM 9.31 48.758 0.072 7.18 2.55 10.87
4/14/2021 1:45:00 AM 9.21 48.578 0.072 7.18 2.52 10.9
4/14/2021 2:00:00 AM 9.12 48.416 0.072 7.18 2.56 10.92
4/14/2021 2:15:00 AM 9.03 48.254 0.072 7.18 2.52 10.95
4/14/2021 2:30:00 AM 8.93 48.074 0.072 7.17 2.45 10.98
4/14/2021 2:45:00 AM 8.84 47.912 0.072 7.18 2.44 11.01
4/14/2021 3:00:00 AM 8.75 47.75 0.072 7.18 2.47 11.03
4/14/2021 3:15:00 AM 8.66 47.588 0.072 7.18 2.48 11.06
4/14/2021 3:30:00 AM 8.58 47.444 0.072 7.17 2.42 11.08
4/14/2021 3:45:00 AM 8.49 47.282 0.072 7.18 2.57 11.11
4/14/2021 4:00:00 AM 8.41 47.138 0.072 7.18 2.44 11.13
4/14/2021 4:15:00 AM 8.33 46.994 0.072 7.18 2.5 11.16
4/14/2021 4:30:00 AM 8.26 46.868 0.072 7.19 2.37 11.18
4/14/2021 4:45:00 AM 8.19 46.742 0.072 7.17 2.44 11.2
4/14/2021 5:00:00 AM 8.13 46.634 0.072 7.18 2.37 11.22
4/14/2021 5:15:00 AM 8.07 46.526 0.072 7.16 2.45 11.24
4/14/2021 5:30:00 AM 8 46.4 0.072 7.18 2.42 11.26
4/14/2021 5:45:00 AM 7.94 46.292 0.072 7.18 2.45 11.28
4/14/2021 6:00:00 AM 7.87 46.166 0.072 7.17 2.42 11.3
4/14/2021 6:15:00 AM 7.81 46.058 0.072 7.18 2.43 11.32
4/14/2021 6:30:00 AM 7.74 45.932 0.072 7.19 2.33 11.35
4/14/2021 6:45:00 AM 7.68 45.824 0.072 7.19 2.41 11.41
4/14/2021 7:00:00 AM 7.62 45.716 0.072 7.22 2.39 11.5
4/14/2021 7:15:00 AM 7.58 45.644 0.072 7.24 2.32 11.6
4/14/2021 7:30:00 AM 7.55 45.59 0.072 7.29 2.3 11.75
4/14/2021 7:45:00 AM 7.55 45.59 0.072 7.36 2.28 11.88
4/14/2021 8:00:00 AM 7.54 45.572 0.072 7.4 2.36 11.99
4/14/2021 8:15:00 AM 7.56 45.608 0.072 7.47 2.28 12.13
4/14/2021 8:30:00 AM 7.6 45.68 0.072 7.56 2.19 12.25
4/14/2021 8:45:00 AM 7.69 45.842 0.072 7.66 2.22 12.37
4/14/2021 9:00:00 AM 7.82 46.076 0.071 7.8 2.23 12.45
4/14/2021 9:15:00 AM 7.93 46.274 0.071 7.9 2.26 12.49
4/14/2021 9:30:00 AM 8.04 46.472 0.071 8.03 2.18 12.51
4/14/2021 9:45:00 AM 8.21 46.778 0.071 8.15 2.31 12.52
4/14/2021 10:00:00 AM 8.35 47.03 0.071 8.23 2.14 12.5
4/14/2021 10:15:00 AM 8.49 47.282 0.071 8.32 2.16 12.48
4/14/2021 10:30:00 AM 8.63 47.534 0.071 8.38 2.18 12.44
4/14/2021 10:45:00 AM 8.79 47.822 0.071 8.44 2.13 12.41
4/14/2021 11:00:00 AM 8.97 48.146 0.071 8.49 2.19 12.38
4/14/2021 11:15:00 AM 9.18 48.524 0.071 8.55 2.19 12.34
4/14/2021 11:30:00 AM 9.28 48.704 0.071 8.56 2.13 12.27
4/14/2021 11:45:00 AM 9.37 48.866 0.07 8.56 2.15 12.21
4/14/2021 12:00:00 PM 9.49 49.082 0.07 8.6 2.09 12.16
4/14/2021 12:15:00 PM 9.63 49.334 0.07 8.62 2.15 12.11
4/14/2021 12:30:00 PM 9.74 49.532 0.07 8.63 2.11 12.08
4/14/2021 12:45:00 PM 9.8 49.64 0.07 8.61 2.06 12.03
4/14/2021 1:00:00 PM 9.97 49.946 0.07 8.67 2.1 12.02
4/14/2021 1:15:00 PM 10.15 50.27 0.07 8.67 2.07 11.95
4/14/2021 1:30:00 PM 10.3 50.54 0.07 8.67 2.12 11.9
4/14/2021 1:45:00 PM 10.34 50.612 0.07 8.61 2.14 11.79
4/14/2021 2:00:00 PM 10.4 50.72 0.07 8.53 2.09 11.69
4/14/2021 2:15:00 PM 10.41 50.738 0.07 8.27 2.08 11.49
4/14/2021 2:30:00 PM 10.37 50.666 0.07 8.03 2.11 11.38
4/14/2021 2:45:00 PM 10.34 50.612 0.07 7.92 2.04 11.34
4/14/2021 3:00:00 PM 10.36 50.648 0.07 7.97 2.12 11.41
4/14/2021 3:15:00 PM 10.44 50.792 0.07 8.15 2.07 11.54
4/14/2021 3:30:00 PM 10.51 50.918 0.07 8.24 2.07 11.58
4/14/2021 3:45:00 PM 10.53 50.954 0.07 8.19 2.06 11.54
4/14/2021 4:00:00 PM 10.56 51.008 0.07 8.14 2.08 11.47
4/14/2021 4:15:00 PM 10.6 51.08 0.07 8.01 2.07 11.37
4/14/2021 4:30:00 PM 10.63 51.134 0.07 7.99 2.07 11.34
4/14/2021 4:45:00 PM 10.65 51.17 0.07 7.89 2.04 11.26
4/14/2021 5:00:00 PM 10.65 51.17 0.07 7.78 2.11 11.17
4/14/2021 5:15:00 PM 10.65 51.17 0.07 7.65 2.11 11.05
4/14/2021 5:30:00 PM 10.66 51.188 0.07 7.57 2.11 10.96
4/14/2021 5:45:00 PM 10.67 51.206 0.07 7.51 2.08 10.91
4/14/2021 6:00:00 PM 10.68 51.224 0.07 7.5 2.16 10.89
4/14/2021 6:15:00 PM 10.69 51.242 0.07 7.47 2.23 10.84
4/14/2021 6:30:00 PM 10.69 51.242 0.07 7.44 2.06 10.8
4/14/2021 6:45:00 PM 10.7 51.26 0.07 7.43 2.18 10.77
4/14/2021 7:00:00 PM 10.7 51.26 0.07 7.39 2.21 10.74
4/14/2021 7:15:00 PM 10.68 51.224 0.07 7.4 2.16 10.72
4/14/2021 7:30:00 PM 10.66 51.188 0.07 7.36 2.19 10.68
4/14/2021 7:45:00 PM 10.62 51.116 0.07 7.33 2.13 10.62
4/14/2021 8:00:00 PM 10.59 51.062 0.071 7.28 2.17 10.57
4/14/2021 8:15:00 PM 10.55 50.99 0.071 7.27 2.22 10.53
4/14/2021 8:30:00 PM 10.49 50.882 0.071 7.26 2.23 10.51
4/14/2021 8:45:00 PM 10.44 50.792 0.071 7.25 2.2 10.5
4/14/2021 9:00:00 PM 10.38 50.684 0.071 7.21 2.22 10.5
4/14/2021 9:15:00 PM 10.32 50.576 0.071 7.22 2.22 10.5
4/14/2021 9:30:00 PM 10.26 50.468 0.071 7.2 2.24 10.51
4/14/2021 9:45:00 PM 10.2 50.36 0.071 7.21 2.24 10.52
4/14/2021 10:00:00 PM 10.14 50.252 0.072 7.19 2.18 10.54
4/14/2021 10:15:00 PM 10.08 50.144 0.072 7.21 2.18 10.56
4/14/2021 10:30:00 PM 10.01 50.018 0.072 7.18 2.21 10.57
4/14/2021 10:45:00 PM 9.94 49.892 0.072 7.21 2.22 10.59
4/14/2021 11:00:00 PM 9.87 49.766 0.072 7.18 2.21 10.61
4/14/2021 11:15:00 PM 9.81 49.658 0.072 7.2 2.23 10.62
4/14/2021 11:30:00 PM 9.74 49.532 0.072 7.21 2.14 10.64
4/14/2021 11:45:00 PM 9.67 49.406 0.072 7.21 2.1 10.66
4/15/2021 12:00:00 AM 9.6 49.28 0.072 7.2 2.19 10.68
4/15/2021 12:15:00 AM 9.53 49.154 0.072 7.19 2.2 10.7
4/15/2021 12:30:00 AM 9.48 49.064 0.072 7.21 2.2 10.72
4/15/2021 12:45:00 AM 9.43 48.974 0.072 7.21 2.08 10.74
4/15/2021 1:00:00 AM 9.38 48.884 0.072 7.21 2.14 10.76
4/15/2021 1:15:00 AM 9.32 48.776 0.073 7.21 2.16 10.78
4/15/2021 1:30:00 AM 9.26 48.668 0.073 7.2 2.11 10.79
4/15/2021 1:45:00 AM 9.2 48.56 0.073 7.21 2.16 10.81
4/15/2021 2:00:00 AM 9.14 48.452 0.073 7.21 2.26 10.82
4/15/2021 2:15:00 AM 9.08 48.344 0.073 7.21 2.15 10.84
4/15/2021 2:30:00 AM 9.03 48.254 0.073 7.18 2.26 10.85
4/15/2021 2:45:00 AM 8.99 48.182 0.073 7.21 2.09 10.87
4/15/2021 3:00:00 AM 8.94 48.092 0.073 7.19 2.15 10.88
4/15/2021 3:15:00 AM 8.89 48.002 0.073 7.21 2.11 10.89
4/15/2021 3:30:00 AM 8.84 47.912 0.073 7.19 2.25 10.9
4/15/2021 3:45:00 AM 8.79 47.822 0.073 7.2 2.09 10.92
4/15/2021 4:00:00 AM 8.75 47.75 0.073 7.21 2.17 10.93
4/15/2021 4:15:00 AM 8.71 47.678 0.073 7.21 2.13 10.94
4/15/2021 4:30:00 AM 8.67 47.606 0.073 7.2 2.13 10.95
4/15/2021 4:45:00 AM 8.64 47.552 0.073 7.18 2.16 10.96
4/15/2021 5:00:00 AM 8.61 47.498 0.073 7.2 2.39 10.97
4/15/2021 5:15:00 AM 8.58 47.444 0.073 7.2 2.41 10.98
4/15/2021 5:30:00 AM 8.55 47.39 0.073 7.21 2.47 10.98
4/15/2021 5:45:00 AM 8.52 47.336 0.073 7.21 2.17 10.99
4/15/2021 6:00:00 AM 8.5 47.3 0.073 7.2 2.32 11
4/15/2021 6:15:00 AM 8.47 47.246 0.073 7.19 2.19 11.01
4/15/2021 6:30:00 AM 8.45 47.21 0.073 7.22 2.1 11.02
4/15/2021 6:45:00 AM 8.43 47.174 0.073 7.21 2.33 11.04
4/15/2021 7:00:00 AM 8.41 47.138 0.073 7.23 2.1 11.09
4/15/2021 7:15:00 AM 8.4 47.12 0.073 7.23 2.09 11.18
4/15/2021 7:30:00 AM 8.4 47.12 0.073 7.29 2.08 11.3
4/15/2021 7:45:00 AM 8.4 47.12 0.072 7.33 2.06 11.41
4/15/2021 8:00:00 AM 8.41 47.138 0.072 7.38 2.04 11.52
4/15/2021 8:15:00 AM 8.43 47.174 0.072 7.42 2.02 11.61
4/15/2021 8:30:00 AM 8.44 47.192 0.072 7.48 2.18 11.68
4/15/2021 8:45:00 AM 8.47 47.246 0.072 7.53 2.06 11.76
4/15/2021 9:00:00 AM 8.5 47.3 0.072 7.59 2.04 11.84
4/15/2021 9:15:00 AM 8.53 47.354 0.072 7.64 2.01 11.89
4/15/2021 9:30:00 AM 8.57 47.426 0.072 7.72 2.06 11.93
4/15/2021 9:45:00 AM 8.61 47.498 0.072 7.77 2.04 11.95
4/15/2021 10:00:00 AM 8.65 47.57 0.072 7.82 2.07 11.95
4/15/2021 10:15:00 AM 8.68 47.624 0.072 7.86 2.11 11.97
4/15/2021 10:30:00 AM 8.72 47.696 0.072 7.92 2.02 11.99
4/15/2021 10:45:00 AM 8.77 47.786 0.072 8 2.02 12
4/15/2021 11:00:00 AM 8.82 47.876 0.072 8.06 1.98 12.01
4/15/2021 11:15:00 AM 8.87 47.966 0.071 8.14 1.99 12.02
4/15/2021 11:30:00 AM 8.9 48.02 0.071 8.1 1.94 11.96
4/15/2021 11:45:00 AM 8.94 48.092 0.071 8.11 1.97 11.94
4/15/2021 12:00:00 PM 8.99 48.182 0.071 8.16 1.99 11.94
4/15/2021 12:15:00 PM 9.04 48.272 0.071 8.21 1.96 11.96
4/15/2021 12:30:00 PM 9.09 48.362 0.071 8.26 1.98 11.94
4/15/2021 12:45:00 PM 9.13 48.434 0.071 8.22 1.96 11.88
4/15/2021 1:00:00 PM 9.16 48.488 0.071 8.09 1.99 11.79
4/15/2021 1:15:00 PM 9.18 48.524 0.071 8.04 2.06 11.74
4/15/2021 1:30:00 PM 9.18 48.524 0.071 7.95 2.03 11.69
4/15/2021 1:45:00 PM 9.17 48.506 0.071 7.83 2.02 11.58
4/15/2021 2:00:00 PM 9.19 48.542 0.071 7.9 1.98 11.65
4/15/2021 2:15:00 PM 9.2 48.56 0.071 7.92 1.98 11.67
4/15/2021 2:30:00 PM 9.2 48.56 0.071 7.95 1.99 11.69
4/15/2021 2:45:00 PM 9.22 48.596 0.071 8.04 2.06 11.76
4/15/2021 3:00:00 PM 9.21 48.578 0.071 8.02 2.08 11.74
4/15/2021 3:15:00 PM 9.2 48.56 0.071 7.96 2.03 11.7
4/15/2021 3:30:00 PM 9.18 48.524 0.071 7.87 2 11.66
4/15/2021 3:45:00 PM 9.13 48.434 0.072 7.79 2.06 11.58
4/15/2021 4:00:00 PM 9.08 48.344 0.072 7.72 2.08 11.53
4/15/2021 4:15:00 PM 9.03 48.254 0.072 7.66 2.07 11.46
4/15/2021 4:30:00 PM 9.01 48.218 0.072 7.66 2.17 11.51
4/15/2021 4:45:00 PM 8.98 48.164 0.072 7.69 2.07 11.56
4/15/2021 5:00:00 PM 8.95 48.11 0.072 7.68 2.1 11.56
4/15/2021 5:15:00 PM 8.91 48.038 0.072 7.69 2.12 11.58
4/15/2021 5:30:00 PM 8.9 48.02 0.071 7.72 2.08 11.64
4/15/2021 5:45:00 PM 8.88 47.984 0.071 7.74 2.06 11.64
4/15/2021 6:00:00 PM 8.87 47.966 0.071 7.71 2.03 11.62
4/15/2021 6:15:00 PM 8.83 47.894 0.071 7.64 2.04 11.53
4/15/2021 6:30:00 PM 8.79 47.822 0.071 7.56 2.08 11.42
4/15/2021 6:45:00 PM 8.75 47.75 0.071 7.5 2.06 11.31
4/15/2021 7:00:00 PM 8.7 47.66 0.071 7.42 2.01 11.25
4/15/2021 7:15:00 PM 8.65 47.57 0.071 7.4 2.17 11.2
4/15/2021 7:30:00 PM 8.59 47.462 0.071 7.36 2.14 11.15
4/15/2021 7:45:00 PM 8.53 47.354 0.071 7.33 2.15 11.11
4/15/2021 8:00:00 PM 8.48 47.264 0.072 7.32 2.12 11.09
4/15/2021 8:15:00 PM 8.42 47.156 0.072 7.31 2.1 11.07
4/15/2021 8:30:00 PM 8.37 47.066 0.072 7.3 2.12 11.07
4/15/2021 8:45:00 PM 8.32 46.976 0.072 7.29 2.1 11.07
4/15/2021 9:00:00 PM 8.28 46.904 0.072 7.27 2.14 11.07
4/15/2021 9:15:00 PM 8.24 46.832 0.072 7.27 2.13 11.08
4/15/2021 9:30:00 PM 8.19 46.742 0.072 7.26 2.1 11.09
4/15/2021 9:45:00 PM 8.15 46.67 0.072 7.25 2.1 11.1
4/15/2021 10:00:00 PM 8.1 46.58 0.072 7.26 2.13 11.11
4/15/2021 10:15:00 PM 8.06 46.508 0.072 7.27 2.23 11.12
4/15/2021 10:30:00 PM 8.01 46.418 0.072 7.27 2.09 11.13
4/15/2021 10:45:00 PM 7.96 46.328 0.072 7.26 2.14 11.15
4/15/2021 11:00:00 PM 7.89 46.202 0.072 7.26 2.11 11.16
4/15/2021 11:15:00 PM 7.82 46.076 0.073 7.27 2.19 11.17
4/15/2021 11:30:00 PM 7.75 45.95 0.073 7.24 2.03 11.19
4/15/2021 11:45:00 PM 7.68 45.824 0.073 7.25 2.02 11.21
4/16/2021 12:00:00 AM 7.62 45.716 0.073 7.26 2.02 11.23
4/16/2021 12:15:00 AM 7.57 45.626 0.073 7.26 2.07 11.25
4/16/2021 12:30:00 AM 7.52 45.536 0.073 7.26 2.03 11.27
4/16/2021 12:45:00 AM 7.47 45.446 0.073 7.26 2.07 11.28
4/16/2021 1:00:00 AM 7.43 45.374 0.073 7.25 2.04 11.3
4/16/2021 1:15:00 AM 7.39 45.302 0.073 7.25 2.02 11.31
4/16/2021 1:30:00 AM 7.36 45.248 0.073 7.25 2 11.32
4/16/2021 1:45:00 AM 7.32 45.176 0.073 7.24 2.04 11.33
4/16/2021 2:00:00 AM 7.28 45.104 0.073 7.24 2.17 11.35
4/16/2021 2:15:00 AM 7.24 45.032 0.073 7.26 2.04 11.36
4/16/2021 2:30:00 AM 7.19 44.942 0.073 7.23 2.05 11.38
4/16/2021 2:45:00 AM 7.14 44.852 0.073 7.25 1.98 11.39
4/16/2021 3:00:00 AM 7.09 44.762 0.073 7.25 1.97 11.41
4/16/2021 3:15:00 AM 7.04 44.672 0.073 7.23 2.08 11.42
4/16/2021 3:30:00 AM 7 44.6 0.073 7.24 2.01 11.44
4/16/2021 3:45:00 AM 6.96 44.528 0.073 7.24 2.01 11.45
4/16/2021 4:00:00 AM 6.92 44.456 0.073 7.25 1.97 11.46
4/16/2021 4:15:00 AM 6.87 44.366 0.073 7.25 2.02 11.48
4/16/2021 4:30:00 AM 6.83 44.294 0.073 7.23 2.07 11.49
4/16/2021 4:45:00 AM 6.79 44.222 0.073 7.24 2.07 11.5
4/16/2021 5:00:00 AM 6.75 44.15 0.073 7.24 2.11 11.52
4/16/2021 5:15:00 AM 6.72 44.096 0.073 7.23 2 11.53
4/16/2021 5:30:00 AM 6.68 44.024 0.073 7.24 2.08 11.54
4/16/2021 5:45:00 AM 6.65 43.97 0.073 7.24 2.02 11.55
4/16/2021 6:00:00 AM 6.62 43.916 0.073 7.25 2.02 11.56
4/16/2021 6:15:00 AM 6.59 43.862 0.073 7.23 2.01 11.57
4/16/2021 6:30:00 AM 6.57 43.826 0.073 7.25 2.01 11.59
4/16/2021 6:45:00 AM 6.55 43.79 0.072 7.26 1.95 11.62
4/16/2021 7:00:00 AM 6.53 43.754 0.072 7.26 2.01 11.67
4/16/2021 7:15:00 AM 6.51 43.718 0.072 7.29 2 11.71
4/16/2021 7:30:00 AM 6.49 43.682 0.072 7.3 2.03 11.76
4/16/2021 7:45:00 AM 6.47 43.646 0.072 7.3 1.95 11.81
4/16/2021 8:00:00 AM 6.46 43.628 0.072 7.34 1.93 11.9
4/16/2021 8:15:00 AM 6.45 43.61 0.072 7.37 1.96 11.99
4/16/2021 8:30:00 AM 6.45 43.61 0.072 7.43 1.92 12.09
4/16/2021 8:45:00 AM 6.47 43.646 0.072 7.5 1.89 12.24
4/16/2021 9:00:00 AM 6.48 43.664 0.072 7.53 1.95 12.32
4/16/2021 9:15:00 AM 6.48 43.664 0.072 7.59 1.96 12.35
4/16/2021 9:30:00 AM 6.49 43.682 0.072 7.65 1.88 12.42
4/16/2021 9:45:00 AM 6.5 43.7 0.072 7.67 1.88 12.42
4/16/2021 10:00:00 AM 6.52 43.736 0.072 7.71 1.91 12.47
4/16/2021 10:15:00 AM 6.59 43.862 0.072 7.83 1.92 12.57
4/16/2021 10:30:00 AM 6.63 43.934 0.072 7.9 1.9 12.6
4/16/2021 10:45:00 AM 6.67 44.006 0.072 7.99